<?xml version="1.0" encoding="UTF-8" standalone="no" ?>
<gpx xmlns="http://www.topografix.com/GPX/1/1" xmlns:xsi="http://www.w3.org/2001/XMLSchema-instance" xsi:schemaLocation="http://www.topografix.com/GPX/1/1 http://www.topografix.com/GPX/1/1/gpx.xsd" version="1.1" creator="VisuGPX - https://www.visugpx.com">
  <metadata>
    <name>Nivellard - Surjet - Camp III - Hauteret - Danaz</name>
    <desc><![CDATA[Jolie sortie à refaire avec le soleil !]]></desc>
  </metadata>
  <trk>
    <name><![CDATA[2012-03-18T09:26:17Z]]></name>
    <trkseg>
      <trkpt lat="45.8944" lon="5.89483">
        <ele>516</ele>
        <time>2012-03-18T09:26:18Z</time>
      </trkpt>
      <trkpt lat="45.89452" lon="5.89495">
        <ele>516</ele>
        <time>2012-03-18T09:26:23Z</time>
      </trkpt>
      <trkpt lat="45.89464" lon="5.89504">
        <ele>512</ele>
        <time>2012-03-18T09:26:28Z</time>
      </trkpt>
      <trkpt lat="45.89478" lon="5.89513">
        <ele>513</ele>
        <time>2012-03-18T09:26:34Z</time>
      </trkpt>
      <trkpt lat="45.89487" lon="5.89532">
        <ele>512</ele>
        <time>2012-03-18T09:26:39Z</time>
      </trkpt>
      <trkpt lat="45.89488" lon="5.89555">
        <ele>511</ele>
        <time>2012-03-18T09:26:43Z</time>
      </trkpt>
      <trkpt lat="45.89482" lon="5.89577">
        <ele>511</ele>
        <time>2012-03-18T09:26:48Z</time>
      </trkpt>
      <trkpt lat="45.89471" lon="5.89592">
        <ele>505</ele>
        <time>2012-03-18T09:26:52Z</time>
      </trkpt>
      <trkpt lat="45.8946" lon="5.89592">
        <ele>504</ele>
        <time>2012-03-18T09:26:55Z</time>
      </trkpt>
      <trkpt lat="45.89444" lon="5.89579">
        <ele>507</ele>
        <time>2012-03-18T09:27:00Z</time>
      </trkpt>
      <trkpt lat="45.89432" lon="5.89563">
        <ele>507</ele>
        <time>2012-03-18T09:27:05Z</time>
      </trkpt>
      <trkpt lat="45.89408" lon="5.89544">
        <ele>502</ele>
        <time>2012-03-18T09:27:12Z</time>
      </trkpt>
      <trkpt lat="45.89386" lon="5.89533">
        <ele>502</ele>
        <time>2012-03-18T09:27:19Z</time>
      </trkpt>
      <trkpt lat="45.89371" lon="5.89527">
        <ele>502</ele>
        <time>2012-03-18T09:27:25Z</time>
      </trkpt>
      <trkpt lat="45.89351" lon="5.89524">
        <ele>501</ele>
        <time>2012-03-18T09:27:32Z</time>
      </trkpt>
      <trkpt lat="45.8934" lon="5.89528">
        <ele>501</ele>
        <time>2012-03-18T09:27:38Z</time>
      </trkpt>
      <trkpt lat="45.89326" lon="5.8953">
        <ele>496</ele>
        <time>2012-03-18T09:27:43Z</time>
      </trkpt>
      <trkpt lat="45.89312" lon="5.8953">
        <ele>495</ele>
        <time>2012-03-18T09:27:48Z</time>
      </trkpt>
      <trkpt lat="45.8929" lon="5.89522">
        <ele>494</ele>
        <time>2012-03-18T09:27:55Z</time>
      </trkpt>
      <trkpt lat="45.89276" lon="5.89514">
        <ele>494</ele>
        <time>2012-03-18T09:28:00Z</time>
      </trkpt>
      <trkpt lat="45.89262" lon="5.89507">
        <ele>494</ele>
        <time>2012-03-18T09:28:05Z</time>
      </trkpt>
      <trkpt lat="45.89246" lon="5.89501">
        <ele>494</ele>
        <time>2012-03-18T09:28:10Z</time>
      </trkpt>
      <trkpt lat="45.89229" lon="5.895">
        <ele>495</ele>
        <time>2012-03-18T09:28:15Z</time>
      </trkpt>
      <trkpt lat="45.89219" lon="5.89509">
        <ele>495</ele>
        <time>2012-03-18T09:28:19Z</time>
      </trkpt>
      <trkpt lat="45.89209" lon="5.89528">
        <ele>495</ele>
        <time>2012-03-18T09:28:24Z</time>
      </trkpt>
      <trkpt lat="45.89207" lon="5.89544">
        <ele>494</ele>
        <time>2012-03-18T09:28:28Z</time>
      </trkpt>
      <trkpt lat="45.89207" lon="5.89567">
        <ele>493</ele>
        <time>2012-03-18T09:28:33Z</time>
      </trkpt>
      <trkpt lat="45.89205" lon="5.89592">
        <ele>488</ele>
        <time>2012-03-18T09:28:38Z</time>
      </trkpt>
      <trkpt lat="45.89206" lon="5.89609">
        <ele>488</ele>
        <time>2012-03-18T09:28:42Z</time>
      </trkpt>
      <trkpt lat="45.89204" lon="5.8963">
        <ele>487</ele>
        <time>2012-03-18T09:28:46Z</time>
      </trkpt>
      <trkpt lat="45.89198" lon="5.89653">
        <ele>487</ele>
        <time>2012-03-18T09:28:52Z</time>
      </trkpt>
      <trkpt lat="45.89192" lon="5.89664">
        <ele>488</ele>
        <time>2012-03-18T09:28:56Z</time>
      </trkpt>
      <trkpt lat="45.89183" lon="5.89664">
        <ele>488</ele>
        <time>2012-03-18T09:29:00Z</time>
      </trkpt>
      <trkpt lat="45.89173" lon="5.89662">
        <ele>489</ele>
        <time>2012-03-18T09:29:05Z</time>
      </trkpt>
      <trkpt lat="45.89162" lon="5.89655">
        <ele>492</ele>
        <time>2012-03-18T09:29:11Z</time>
      </trkpt>
      <trkpt lat="45.89159" lon="5.89655">
        <ele>492</ele>
        <time>2012-03-18T09:29:12Z</time>
      </trkpt>
      <trkpt lat="45.89144" lon="5.89653">
        <ele>493</ele>
        <time>2012-03-18T09:29:18Z</time>
      </trkpt>
      <trkpt lat="45.89135" lon="5.8965">
        <ele>494</ele>
        <time>2012-03-18T09:29:22Z</time>
      </trkpt>
      <trkpt lat="45.89123" lon="5.89652">
        <ele>494</ele>
        <time>2012-03-18T09:29:28Z</time>
      </trkpt>
      <trkpt lat="45.89112" lon="5.89653">
        <ele>494</ele>
        <time>2012-03-18T09:29:33Z</time>
      </trkpt>
      <trkpt lat="45.891" lon="5.89652">
        <ele>494</ele>
        <time>2012-03-18T09:29:38Z</time>
      </trkpt>
      <trkpt lat="45.89088" lon="5.89654">
        <ele>494</ele>
        <time>2012-03-18T09:29:43Z</time>
      </trkpt>
      <trkpt lat="45.89077" lon="5.89656">
        <ele>495</ele>
        <time>2012-03-18T09:29:48Z</time>
      </trkpt>
      <trkpt lat="45.89067" lon="5.89659">
        <ele>495</ele>
        <time>2012-03-18T09:29:53Z</time>
      </trkpt>
      <trkpt lat="45.89052" lon="5.89656">
        <ele>495</ele>
        <time>2012-03-18T09:30:00Z</time>
      </trkpt>
      <trkpt lat="45.89032" lon="5.89657">
        <ele>494</ele>
        <time>2012-03-18T09:30:08Z</time>
      </trkpt>
      <trkpt lat="45.89019" lon="5.89652">
        <ele>494</ele>
        <time>2012-03-18T09:30:13Z</time>
      </trkpt>
      <trkpt lat="45.89005" lon="5.89646">
        <ele>494</ele>
        <time>2012-03-18T09:30:19Z</time>
      </trkpt>
      <trkpt lat="45.88998" lon="5.89646">
        <ele>490</ele>
        <time>2012-03-18T09:30:22Z</time>
      </trkpt>
      <trkpt lat="45.88988" lon="5.89646">
        <ele>490</ele>
        <time>2012-03-18T09:30:26Z</time>
      </trkpt>
      <trkpt lat="45.88977" lon="5.89644">
        <ele>489</ele>
        <time>2012-03-18T09:30:30Z</time>
      </trkpt>
      <trkpt lat="45.88973" lon="5.8963">
        <ele>489</ele>
        <time>2012-03-18T09:30:34Z</time>
      </trkpt>
      <trkpt lat="45.88969" lon="5.89605">
        <ele>490</ele>
        <time>2012-03-18T09:30:40Z</time>
      </trkpt>
      <trkpt lat="45.88965" lon="5.89586">
        <ele>490</ele>
        <time>2012-03-18T09:30:45Z</time>
      </trkpt>
      <trkpt lat="45.8896" lon="5.89576">
        <ele>494</ele>
        <time>2012-03-18T09:30:48Z</time>
      </trkpt>
      <trkpt lat="45.88949" lon="5.89566">
        <ele>493</ele>
        <time>2012-03-18T09:30:53Z</time>
      </trkpt>
      <trkpt lat="45.88941" lon="5.89559">
        <ele>493</ele>
        <time>2012-03-18T09:30:56Z</time>
      </trkpt>
      <trkpt lat="45.88929" lon="5.89547">
        <ele>493</ele>
        <time>2012-03-18T09:31:01Z</time>
      </trkpt>
      <trkpt lat="45.88913" lon="5.89534">
        <ele>487</ele>
        <time>2012-03-18T09:31:07Z</time>
      </trkpt>
      <trkpt lat="45.889" lon="5.89523">
        <ele>487</ele>
        <time>2012-03-18T09:31:12Z</time>
      </trkpt>
      <trkpt lat="45.88886" lon="5.89511">
        <ele>486</ele>
        <time>2012-03-18T09:31:18Z</time>
      </trkpt>
      <trkpt lat="45.88868" lon="5.89494">
        <ele>490</ele>
        <time>2012-03-18T09:31:26Z</time>
      </trkpt>
      <trkpt lat="45.88859" lon="5.89485">
        <ele>489</ele>
        <time>2012-03-18T09:31:30Z</time>
      </trkpt>
      <trkpt lat="45.88847" lon="5.8947">
        <ele>489</ele>
        <time>2012-03-18T09:31:35Z</time>
      </trkpt>
      <trkpt lat="45.88845" lon="5.89461">
        <ele>490</ele>
        <time>2012-03-18T09:31:37Z</time>
      </trkpt>
      <trkpt lat="45.88842" lon="5.89437">
        <ele>491</ele>
        <time>2012-03-18T09:31:43Z</time>
      </trkpt>
      <trkpt lat="45.88839" lon="5.89426">
        <ele>492</ele>
        <time>2012-03-18T09:31:46Z</time>
      </trkpt>
      <trkpt lat="45.88828" lon="5.89414">
        <ele>493</ele>
        <time>2012-03-18T09:31:52Z</time>
      </trkpt>
      <trkpt lat="45.88813" lon="5.89405">
        <ele>495</ele>
        <time>2012-03-18T09:31:58Z</time>
      </trkpt>
      <trkpt lat="45.88806" lon="5.89401">
        <ele>495</ele>
        <time>2012-03-18T09:32:01Z</time>
      </trkpt>
      <trkpt lat="45.88795" lon="5.89406">
        <ele>495</ele>
        <time>2012-03-18T09:32:06Z</time>
      </trkpt>
      <trkpt lat="45.88785" lon="5.89407">
        <ele>495</ele>
        <time>2012-03-18T09:32:10Z</time>
      </trkpt>
      <trkpt lat="45.88777" lon="5.89407">
        <ele>494</ele>
        <time>2012-03-18T09:32:14Z</time>
      </trkpt>
      <trkpt lat="45.88766" lon="5.89415">
        <ele>493</ele>
        <time>2012-03-18T09:32:19Z</time>
      </trkpt>
      <trkpt lat="45.88752" lon="5.89419">
        <ele>489</ele>
        <time>2012-03-18T09:32:24Z</time>
      </trkpt>
      <trkpt lat="45.88733" lon="5.89423">
        <ele>489</ele>
        <time>2012-03-18T09:32:30Z</time>
      </trkpt>
      <trkpt lat="45.88714" lon="5.89426">
        <ele>489</ele>
        <time>2012-03-18T09:32:36Z</time>
      </trkpt>
      <trkpt lat="45.88697" lon="5.89429">
        <ele>490</ele>
        <time>2012-03-18T09:32:42Z</time>
      </trkpt>
      <trkpt lat="45.88686" lon="5.89431">
        <ele>491</ele>
        <time>2012-03-18T09:32:46Z</time>
      </trkpt>
      <trkpt lat="45.88671" lon="5.89435">
        <ele>491</ele>
        <time>2012-03-18T09:32:51Z</time>
      </trkpt>
      <trkpt lat="45.88659" lon="5.89438">
        <ele>496</ele>
        <time>2012-03-18T09:32:55Z</time>
      </trkpt>
      <trkpt lat="45.88642" lon="5.89439">
        <ele>498</ele>
        <time>2012-03-18T09:33:01Z</time>
      </trkpt>
      <trkpt lat="45.88632" lon="5.89439">
        <ele>499</ele>
        <time>2012-03-18T09:33:05Z</time>
      </trkpt>
      <trkpt lat="45.8862" lon="5.89453">
        <ele>500</ele>
        <time>2012-03-18T09:33:12Z</time>
      </trkpt>
      <trkpt lat="45.88619" lon="5.89456">
        <ele>500</ele>
        <time>2012-03-18T09:33:14Z</time>
      </trkpt>
      <trkpt lat="45.88612" lon="5.89471">
        <ele>500</ele>
        <time>2012-03-18T09:33:20Z</time>
      </trkpt>
      <trkpt lat="45.88603" lon="5.89481">
        <ele>501</ele>
        <time>2012-03-18T09:33:26Z</time>
      </trkpt>
      <trkpt lat="45.88592" lon="5.89485">
        <ele>503</ele>
        <time>2012-03-18T09:33:32Z</time>
      </trkpt>
      <trkpt lat="45.88582" lon="5.89489">
        <ele>508</ele>
        <time>2012-03-18T09:33:38Z</time>
      </trkpt>
      <trkpt lat="45.88573" lon="5.89489">
        <ele>508</ele>
        <time>2012-03-18T09:33:43Z</time>
      </trkpt>
      <trkpt lat="45.88565" lon="5.89485">
        <ele>509</ele>
        <time>2012-03-18T09:33:48Z</time>
      </trkpt>
      <trkpt lat="45.88556" lon="5.8948">
        <ele>510</ele>
        <time>2012-03-18T09:33:54Z</time>
      </trkpt>
      <trkpt lat="45.88547" lon="5.89469">
        <ele>510</ele>
        <time>2012-03-18T09:34:00Z</time>
      </trkpt>
      <trkpt lat="45.88543" lon="5.89463">
        <ele>511</ele>
        <time>2012-03-18T09:34:03Z</time>
      </trkpt>
      <trkpt lat="45.88538" lon="5.89457">
        <ele>511</ele>
        <time>2012-03-18T09:34:06Z</time>
      </trkpt>
      <trkpt lat="45.88536" lon="5.89453">
        <ele>511</ele>
        <time>2012-03-18T09:34:08Z</time>
      </trkpt>
      <trkpt lat="45.88527" lon="5.89444">
        <ele>511</ele>
        <time>2012-03-18T09:34:14Z</time>
      </trkpt>
      <trkpt lat="45.88519" lon="5.89438">
        <ele>512</ele>
        <time>2012-03-18T09:34:18Z</time>
      </trkpt>
      <trkpt lat="45.88511" lon="5.89433">
        <ele>512</ele>
        <time>2012-03-18T09:34:22Z</time>
      </trkpt>
      <trkpt lat="45.88509" lon="5.89432">
        <ele>512</ele>
        <time>2012-03-18T09:34:23Z</time>
      </trkpt>
      <trkpt lat="45.88497" lon="5.89429">
        <ele>515</ele>
        <time>2012-03-18T09:34:30Z</time>
      </trkpt>
      <trkpt lat="45.88487" lon="5.89428">
        <ele>516</ele>
        <time>2012-03-18T09:34:35Z</time>
      </trkpt>
      <trkpt lat="45.88475" lon="5.89426">
        <ele>516</ele>
        <time>2012-03-18T09:34:41Z</time>
      </trkpt>
      <trkpt lat="45.88466" lon="5.89423">
        <ele>516</ele>
        <time>2012-03-18T09:34:46Z</time>
      </trkpt>
      <trkpt lat="45.88454" lon="5.89419">
        <ele>517</ele>
        <time>2012-03-18T09:34:52Z</time>
      </trkpt>
      <trkpt lat="45.88445" lon="5.89414">
        <ele>518</ele>
        <time>2012-03-18T09:34:57Z</time>
      </trkpt>
      <trkpt lat="45.88434" lon="5.89407">
        <ele>518</ele>
        <time>2012-03-18T09:35:03Z</time>
      </trkpt>
      <trkpt lat="45.88421" lon="5.89401">
        <ele>518</ele>
        <time>2012-03-18T09:35:10Z</time>
      </trkpt>
      <trkpt lat="45.88409" lon="5.89393">
        <ele>519</ele>
        <time>2012-03-18T09:35:16Z</time>
      </trkpt>
      <trkpt lat="45.88399" lon="5.89385">
        <ele>520</ele>
        <time>2012-03-18T09:35:21Z</time>
      </trkpt>
      <trkpt lat="45.88389" lon="5.89378">
        <ele>520</ele>
        <time>2012-03-18T09:35:26Z</time>
      </trkpt>
      <trkpt lat="45.88377" lon="5.89369">
        <ele>521</ele>
        <time>2012-03-18T09:35:32Z</time>
      </trkpt>
      <trkpt lat="45.88366" lon="5.89362">
        <ele>521</ele>
        <time>2012-03-18T09:35:38Z</time>
      </trkpt>
      <trkpt lat="45.88359" lon="5.89357">
        <ele>522</ele>
        <time>2012-03-18T09:35:42Z</time>
      </trkpt>
      <trkpt lat="45.88349" lon="5.89349">
        <ele>522</ele>
        <time>2012-03-18T09:35:48Z</time>
      </trkpt>
      <trkpt lat="45.8834" lon="5.89337">
        <ele>524</ele>
        <time>2012-03-18T09:35:54Z</time>
      </trkpt>
      <trkpt lat="45.88326" lon="5.8932">
        <ele>528</ele>
        <time>2012-03-18T09:36:03Z</time>
      </trkpt>
      <trkpt lat="45.88317" lon="5.89317">
        <ele>529</ele>
        <time>2012-03-18T09:36:08Z</time>
      </trkpt>
      <trkpt lat="45.88309" lon="5.89317">
        <ele>530</ele>
        <time>2012-03-18T09:36:12Z</time>
      </trkpt>
      <trkpt lat="45.88301" lon="5.89317">
        <ele>530</ele>
        <time>2012-03-18T09:36:16Z</time>
      </trkpt>
      <trkpt lat="45.88289" lon="5.89314">
        <ele>530</ele>
        <time>2012-03-18T09:36:22Z</time>
      </trkpt>
      <trkpt lat="45.88279" lon="5.8931">
        <ele>531</ele>
        <time>2012-03-18T09:36:27Z</time>
      </trkpt>
      <trkpt lat="45.88271" lon="5.89304">
        <ele>531</ele>
        <time>2012-03-18T09:36:32Z</time>
      </trkpt>
      <trkpt lat="45.8826" lon="5.89295">
        <ele>532</ele>
        <time>2012-03-18T09:36:38Z</time>
      </trkpt>
      <trkpt lat="45.88252" lon="5.89288">
        <ele>533</ele>
        <time>2012-03-18T09:36:44Z</time>
      </trkpt>
      <trkpt lat="45.88241" lon="5.89277">
        <ele>537</ele>
        <time>2012-03-18T09:36:51Z</time>
      </trkpt>
      <trkpt lat="45.88232" lon="5.89269">
        <ele>538</ele>
        <time>2012-03-18T09:36:57Z</time>
      </trkpt>
      <trkpt lat="45.88223" lon="5.89263">
        <ele>539</ele>
        <time>2012-03-18T09:37:02Z</time>
      </trkpt>
      <trkpt lat="45.88215" lon="5.89258">
        <ele>539</ele>
        <time>2012-03-18T09:37:06Z</time>
      </trkpt>
      <trkpt lat="45.88199" lon="5.89261">
        <ele>540</ele>
        <time>2012-03-18T09:37:14Z</time>
      </trkpt>
      <trkpt lat="45.8819" lon="5.89264">
        <ele>541</ele>
        <time>2012-03-18T09:37:19Z</time>
      </trkpt>
      <trkpt lat="45.8818" lon="5.89265">
        <ele>542</ele>
        <time>2012-03-18T09:37:24Z</time>
      </trkpt>
      <trkpt lat="45.8817" lon="5.89265">
        <ele>543</ele>
        <time>2012-03-18T09:37:29Z</time>
      </trkpt>
      <trkpt lat="45.88162" lon="5.89264">
        <ele>548</ele>
        <time>2012-03-18T09:37:33Z</time>
      </trkpt>
      <trkpt lat="45.88151" lon="5.89263">
        <ele>548</ele>
        <time>2012-03-18T09:37:38Z</time>
      </trkpt>
      <trkpt lat="45.88149" lon="5.89263">
        <ele>548</ele>
        <time>2012-03-18T09:37:39Z</time>
      </trkpt>
      <trkpt lat="45.8814" lon="5.89264">
        <ele>549</ele>
        <time>2012-03-18T09:37:44Z</time>
      </trkpt>
      <trkpt lat="45.88129" lon="5.89264">
        <ele>550</ele>
        <time>2012-03-18T09:37:49Z</time>
      </trkpt>
      <trkpt lat="45.88116" lon="5.8927">
        <ele>551</ele>
        <time>2012-03-18T09:37:56Z</time>
      </trkpt>
      <trkpt lat="45.88107" lon="5.89277">
        <ele>551</ele>
        <time>2012-03-18T09:38:01Z</time>
      </trkpt>
      <trkpt lat="45.88096" lon="5.89284">
        <ele>551</ele>
        <time>2012-03-18T09:38:07Z</time>
      </trkpt>
      <trkpt lat="45.88085" lon="5.89287">
        <ele>551</ele>
        <time>2012-03-18T09:38:13Z</time>
      </trkpt>
      <trkpt lat="45.88071" lon="5.8929">
        <ele>555</ele>
        <time>2012-03-18T09:38:19Z</time>
      </trkpt>
      <trkpt lat="45.8806" lon="5.89289">
        <ele>555</ele>
        <time>2012-03-18T09:38:25Z</time>
      </trkpt>
      <trkpt lat="45.88048" lon="5.89286">
        <ele>555</ele>
        <time>2012-03-18T09:38:31Z</time>
      </trkpt>
      <trkpt lat="45.88038" lon="5.89286">
        <ele>556</ele>
        <time>2012-03-18T09:38:36Z</time>
      </trkpt>
      <trkpt lat="45.88028" lon="5.89285">
        <ele>556</ele>
        <time>2012-03-18T09:38:41Z</time>
      </trkpt>
      <trkpt lat="45.88018" lon="5.89287">
        <ele>556</ele>
        <time>2012-03-18T09:38:46Z</time>
      </trkpt>
      <trkpt lat="45.88006" lon="5.89286">
        <ele>556</ele>
        <time>2012-03-18T09:38:52Z</time>
      </trkpt>
      <trkpt lat="45.87997" lon="5.89277">
        <ele>555</ele>
        <time>2012-03-18T09:38:57Z</time>
      </trkpt>
      <trkpt lat="45.87991" lon="5.89264">
        <ele>557</ele>
        <time>2012-03-18T09:39:02Z</time>
      </trkpt>
      <trkpt lat="45.87988" lon="5.8925">
        <ele>564</ele>
        <time>2012-03-18T09:39:07Z</time>
      </trkpt>
      <trkpt lat="45.87986" lon="5.89238">
        <ele>564</ele>
        <time>2012-03-18T09:39:11Z</time>
      </trkpt>
      <trkpt lat="45.87984" lon="5.89222">
        <ele>566</ele>
        <time>2012-03-18T09:39:17Z</time>
      </trkpt>
      <trkpt lat="45.87984" lon="5.89219">
        <ele>566</ele>
        <time>2012-03-18T09:39:18Z</time>
      </trkpt>
      <trkpt lat="45.87987" lon="5.89216">
        <ele>566</ele>
        <time>2012-03-18T09:39:23Z</time>
      </trkpt>
      <trkpt lat="45.87996" lon="5.89222">
        <ele>566</ele>
        <time>2012-03-18T09:39:28Z</time>
      </trkpt>
      <trkpt lat="45.88005" lon="5.89225">
        <ele>568</ele>
        <time>2012-03-18T09:39:35Z</time>
      </trkpt>
      <trkpt lat="45.8801" lon="5.89215">
        <ele>570</ele>
        <time>2012-03-18T09:39:40Z</time>
      </trkpt>
      <trkpt lat="45.88015" lon="5.89205">
        <ele>571</ele>
        <time>2012-03-18T09:39:45Z</time>
      </trkpt>
      <trkpt lat="45.88016" lon="5.892">
        <ele>572</ele>
        <time>2012-03-18T09:39:47Z</time>
      </trkpt>
      <trkpt lat="45.88019" lon="5.89187">
        <ele>573</ele>
        <time>2012-03-18T09:39:52Z</time>
      </trkpt>
      <trkpt lat="45.88024" lon="5.89175">
        <ele>574</ele>
        <time>2012-03-18T09:39:57Z</time>
      </trkpt>
      <trkpt lat="45.88029" lon="5.89159">
        <ele>583</ele>
        <time>2012-03-18T09:40:03Z</time>
      </trkpt>
      <trkpt lat="45.88032" lon="5.89154">
        <ele>583</ele>
        <time>2012-03-18T09:40:06Z</time>
      </trkpt>
      <trkpt lat="45.88037" lon="5.89143">
        <ele>584</ele>
        <time>2012-03-18T09:40:11Z</time>
      </trkpt>
      <trkpt lat="45.88045" lon="5.8913">
        <ele>585</ele>
        <time>2012-03-18T09:40:18Z</time>
      </trkpt>
      <trkpt lat="45.88048" lon="5.89123">
        <ele>586</ele>
        <time>2012-03-18T09:40:22Z</time>
      </trkpt>
      <trkpt lat="45.88052" lon="5.89112">
        <ele>587</ele>
        <time>2012-03-18T09:40:27Z</time>
      </trkpt>
      <trkpt lat="45.88055" lon="5.89102">
        <ele>588</ele>
        <time>2012-03-18T09:40:32Z</time>
      </trkpt>
      <trkpt lat="45.88059" lon="5.8909">
        <ele>589</ele>
        <time>2012-03-18T09:40:37Z</time>
      </trkpt>
      <trkpt lat="45.88063" lon="5.89079">
        <ele>599</ele>
        <time>2012-03-18T09:40:42Z</time>
      </trkpt>
      <trkpt lat="45.88068" lon="5.8907">
        <ele>600</ele>
        <time>2012-03-18T09:40:47Z</time>
      </trkpt>
      <trkpt lat="45.88074" lon="5.89061">
        <ele>601</ele>
        <time>2012-03-18T09:40:52Z</time>
      </trkpt>
      <trkpt lat="45.88081" lon="5.89049">
        <ele>604</ele>
        <time>2012-03-18T09:40:59Z</time>
      </trkpt>
      <trkpt lat="45.88089" lon="5.89039">
        <ele>605</ele>
        <time>2012-03-18T09:41:05Z</time>
      </trkpt>
      <trkpt lat="45.88098" lon="5.89032">
        <ele>606</ele>
        <time>2012-03-18T09:41:10Z</time>
      </trkpt>
      <trkpt lat="45.88106" lon="5.89028">
        <ele>606</ele>
        <time>2012-03-18T09:41:15Z</time>
      </trkpt>
      <trkpt lat="45.88117" lon="5.89024">
        <ele>607</ele>
        <time>2012-03-18T09:41:21Z</time>
      </trkpt>
      <trkpt lat="45.88123" lon="5.89019">
        <ele>607</ele>
        <time>2012-03-18T09:41:25Z</time>
      </trkpt>
      <trkpt lat="45.88125" lon="5.89013">
        <ele>608</ele>
        <time>2012-03-18T09:41:29Z</time>
      </trkpt>
      <trkpt lat="45.8812" lon="5.89005">
        <ele>609</ele>
        <time>2012-03-18T09:41:37Z</time>
      </trkpt>
      <trkpt lat="45.88116" lon="5.89001">
        <ele>609</ele>
        <time>2012-03-18T09:41:43Z</time>
      </trkpt>
      <trkpt lat="45.88109" lon="5.88999">
        <ele>627</ele>
        <time>2012-03-18T09:41:49Z</time>
      </trkpt>
      <trkpt lat="45.881" lon="5.88995">
        <ele>626</ele>
        <time>2012-03-18T09:41:55Z</time>
      </trkpt>
      <trkpt lat="45.88092" lon="5.88993">
        <ele>624</ele>
        <time>2012-03-18T09:42:01Z</time>
      </trkpt>
      <trkpt lat="45.88084" lon="5.8899">
        <ele>623</ele>
        <time>2012-03-18T09:42:07Z</time>
      </trkpt>
      <trkpt lat="45.88075" lon="5.88987">
        <ele>624</ele>
        <time>2012-03-18T09:42:13Z</time>
      </trkpt>
      <trkpt lat="45.88065" lon="5.88984">
        <ele>626</ele>
        <time>2012-03-18T09:42:20Z</time>
      </trkpt>
      <trkpt lat="45.88055" lon="5.88983">
        <ele>627</ele>
        <time>2012-03-18T09:42:27Z</time>
      </trkpt>
      <trkpt lat="45.88044" lon="5.8898">
        <ele>627</ele>
        <time>2012-03-18T09:42:34Z</time>
      </trkpt>
      <trkpt lat="45.88037" lon="5.88977">
        <ele>628</ele>
        <time>2012-03-18T09:42:38Z</time>
      </trkpt>
      <trkpt lat="45.8803" lon="5.88973">
        <ele>628</ele>
        <time>2012-03-18T09:42:43Z</time>
      </trkpt>
      <trkpt lat="45.88026" lon="5.8897">
        <ele>628</ele>
        <time>2012-03-18T09:42:46Z</time>
      </trkpt>
      <trkpt lat="45.88025" lon="5.88967">
        <ele>629</ele>
        <time>2012-03-18T09:42:48Z</time>
      </trkpt>
      <trkpt lat="45.88023" lon="5.88959">
        <ele>630</ele>
        <time>2012-03-18T09:42:52Z</time>
      </trkpt>
      <trkpt lat="45.88024" lon="5.88955">
        <ele>631</ele>
        <time>2012-03-18T09:42:54Z</time>
      </trkpt>
      <trkpt lat="45.8803" lon="5.88947">
        <ele>633</ele>
        <time>2012-03-18T09:43:01Z</time>
      </trkpt>
      <trkpt lat="45.88039" lon="5.88946">
        <ele>633</ele>
        <time>2012-03-18T09:43:07Z</time>
      </trkpt>
      <trkpt lat="45.88048" lon="5.88943">
        <ele>634</ele>
        <time>2012-03-18T09:43:11Z</time>
      </trkpt>
      <trkpt lat="45.88054" lon="5.88941">
        <ele>635</ele>
        <time>2012-03-18T09:43:15Z</time>
      </trkpt>
      <trkpt lat="45.88056" lon="5.88941">
        <ele>635</ele>
        <time>2012-03-18T09:43:17Z</time>
      </trkpt>
      <trkpt lat="45.88068" lon="5.88937">
        <ele>638</ele>
        <time>2012-03-18T09:43:23Z</time>
      </trkpt>
      <trkpt lat="45.88075" lon="5.88935">
        <ele>639</ele>
        <time>2012-03-18T09:43:26Z</time>
      </trkpt>
      <trkpt lat="45.88079" lon="5.88937">
        <ele>639</ele>
        <time>2012-03-18T09:43:30Z</time>
      </trkpt>
      <trkpt lat="45.8808" lon="5.88938">
        <ele>638</ele>
        <time>2012-03-18T09:43:32Z</time>
      </trkpt>
      <trkpt lat="45.88085" lon="5.88935">
        <ele>641</ele>
        <time>2012-03-18T09:43:35Z</time>
      </trkpt>
      <trkpt lat="45.88088" lon="5.88933">
        <ele>642</ele>
        <time>2012-03-18T09:43:41Z</time>
      </trkpt>
      <trkpt lat="45.88086" lon="5.88926">
        <ele>645</ele>
        <time>2012-03-18T09:43:46Z</time>
      </trkpt>
      <trkpt lat="45.88082" lon="5.88923">
        <ele>645</ele>
        <time>2012-03-18T09:43:49Z</time>
      </trkpt>
      <trkpt lat="45.88072" lon="5.8892">
        <ele>643</ele>
        <time>2012-03-18T09:43:55Z</time>
      </trkpt>
      <trkpt lat="45.88065" lon="5.88913">
        <ele>656</ele>
        <time>2012-03-18T09:44:01Z</time>
      </trkpt>
      <trkpt lat="45.88063" lon="5.88909">
        <ele>657</ele>
        <time>2012-03-18T09:44:05Z</time>
      </trkpt>
      <trkpt lat="45.88058" lon="5.88899">
        <ele>659</ele>
        <time>2012-03-18T09:44:12Z</time>
      </trkpt>
      <trkpt lat="45.88057" lon="5.88897">
        <ele>659</ele>
        <time>2012-03-18T09:44:13Z</time>
      </trkpt>
      <trkpt lat="45.88053" lon="5.88888">
        <ele>661</ele>
        <time>2012-03-18T09:44:19Z</time>
      </trkpt>
      <trkpt lat="45.88051" lon="5.8888">
        <ele>662</ele>
        <time>2012-03-18T09:44:23Z</time>
      </trkpt>
      <trkpt lat="45.88043" lon="5.88867">
        <ele>664</ele>
        <time>2012-03-18T09:44:30Z</time>
      </trkpt>
      <trkpt lat="45.88037" lon="5.8886">
        <ele>665</ele>
        <time>2012-03-18T09:44:35Z</time>
      </trkpt>
      <trkpt lat="45.88036" lon="5.88859">
        <ele>665</ele>
        <time>2012-03-18T09:44:36Z</time>
      </trkpt>
      <trkpt lat="45.88027" lon="5.88852">
        <ele>666</ele>
        <time>2012-03-18T09:44:43Z</time>
      </trkpt>
      <trkpt lat="45.88025" lon="5.88851">
        <ele>666</ele>
        <time>2012-03-18T09:44:45Z</time>
      </trkpt>
      <trkpt lat="45.88017" lon="5.88851">
        <ele>666</ele>
        <time>2012-03-18T09:44:50Z</time>
      </trkpt>
      <trkpt lat="45.88013" lon="5.88852">
        <ele>666</ele>
        <time>2012-03-18T09:44:53Z</time>
      </trkpt>
      <trkpt lat="45.88006" lon="5.88846">
        <ele>667</ele>
        <time>2012-03-18T09:44:58Z</time>
      </trkpt>
      <trkpt lat="45.88" lon="5.88841">
        <ele>666</ele>
        <time>2012-03-18T09:45:03Z</time>
      </trkpt>
      <trkpt lat="45.87995" lon="5.88835">
        <ele>667</ele>
        <time>2012-03-18T09:45:08Z</time>
      </trkpt>
      <trkpt lat="45.87986" lon="5.88826">
        <ele>671</ele>
        <time>2012-03-18T09:45:14Z</time>
      </trkpt>
      <trkpt lat="45.87983" lon="5.88822">
        <ele>671</ele>
        <time>2012-03-18T09:45:16Z</time>
      </trkpt>
      <trkpt lat="45.87984" lon="5.88808">
        <ele>672</ele>
        <time>2012-03-18T09:45:23Z</time>
      </trkpt>
      <trkpt lat="45.87987" lon="5.888">
        <ele>673</ele>
        <time>2012-03-18T09:45:27Z</time>
      </trkpt>
      <trkpt lat="45.87989" lon="5.88794">
        <ele>674</ele>
        <time>2012-03-18T09:45:30Z</time>
      </trkpt>
      <trkpt lat="45.87992" lon="5.88787">
        <ele>674</ele>
        <time>2012-03-18T09:45:34Z</time>
      </trkpt>
      <trkpt lat="45.87996" lon="5.88773">
        <ele>676</ele>
        <time>2012-03-18T09:45:41Z</time>
      </trkpt>
      <trkpt lat="45.87998" lon="5.88765">
        <ele>677</ele>
        <time>2012-03-18T09:45:46Z</time>
      </trkpt>
      <trkpt lat="45.88002" lon="5.88756">
        <ele>682</ele>
        <time>2012-03-18T09:45:52Z</time>
      </trkpt>
      <trkpt lat="45.88005" lon="5.88751">
        <ele>682</ele>
        <time>2012-03-18T09:45:55Z</time>
      </trkpt>
      <trkpt lat="45.8801" lon="5.88737">
        <ele>689</ele>
        <time>2012-03-18T09:46:01Z</time>
      </trkpt>
      <trkpt lat="45.88018" lon="5.88736">
        <ele>692</ele>
        <time>2012-03-18T09:46:06Z</time>
      </trkpt>
      <trkpt lat="45.88023" lon="5.88739">
        <ele>692</ele>
        <time>2012-03-18T09:46:10Z</time>
      </trkpt>
      <trkpt lat="45.88028" lon="5.88749">
        <ele>692</ele>
        <time>2012-03-18T09:46:15Z</time>
      </trkpt>
      <trkpt lat="45.88027" lon="5.88756">
        <ele>685</ele>
        <time>2012-03-18T09:46:17Z</time>
      </trkpt>
      <trkpt lat="45.88021" lon="5.88774">
        <ele>684</ele>
        <time>2012-03-18T09:46:24Z</time>
      </trkpt>
      <trkpt lat="45.88019" lon="5.88786">
        <ele>683</ele>
        <time>2012-03-18T09:46:29Z</time>
      </trkpt>
      <trkpt lat="45.8802" lon="5.88789">
        <ele>683</ele>
        <time>2012-03-18T09:46:30Z</time>
      </trkpt>
      <trkpt lat="45.88025" lon="5.88797">
        <ele>683</ele>
        <time>2012-03-18T09:46:35Z</time>
      </trkpt>
      <trkpt lat="45.88032" lon="5.88795">
        <ele>684</ele>
        <time>2012-03-18T09:46:40Z</time>
      </trkpt>
      <trkpt lat="45.8804" lon="5.88787">
        <ele>685</ele>
        <time>2012-03-18T09:46:47Z</time>
      </trkpt>
      <trkpt lat="45.88043" lon="5.88785">
        <ele>686</ele>
        <time>2012-03-18T09:46:49Z</time>
      </trkpt>
      <trkpt lat="45.88048" lon="5.88778">
        <ele>687</ele>
        <time>2012-03-18T09:46:54Z</time>
      </trkpt>
      <trkpt lat="45.88054" lon="5.88772">
        <ele>688</ele>
        <time>2012-03-18T09:47:00Z</time>
      </trkpt>
      <trkpt lat="45.88062" lon="5.88763">
        <ele>690</ele>
        <time>2012-03-18T09:47:07Z</time>
      </trkpt>
      <trkpt lat="45.88069" lon="5.88754">
        <ele>693</ele>
        <time>2012-03-18T09:47:13Z</time>
      </trkpt>
      <trkpt lat="45.88075" lon="5.88747">
        <ele>699</ele>
        <time>2012-03-18T09:47:19Z</time>
      </trkpt>
      <trkpt lat="45.88081" lon="5.88739">
        <ele>699</ele>
        <time>2012-03-18T09:47:25Z</time>
      </trkpt>
      <trkpt lat="45.88088" lon="5.88731">
        <ele>705</ele>
        <time>2012-03-18T09:47:32Z</time>
      </trkpt>
      <trkpt lat="45.88094" lon="5.88722">
        <ele>706</ele>
        <time>2012-03-18T09:47:38Z</time>
      </trkpt>
      <trkpt lat="45.88095" lon="5.8872">
        <ele>706</ele>
        <time>2012-03-18T09:47:39Z</time>
      </trkpt>
      <trkpt lat="45.88098" lon="5.88713">
        <ele>707</ele>
        <time>2012-03-18T09:47:43Z</time>
      </trkpt>
      <trkpt lat="45.88099" lon="5.88699">
        <ele>707</ele>
        <time>2012-03-18T09:47:49Z</time>
      </trkpt>
      <trkpt lat="45.88099" lon="5.88697">
        <ele>707</ele>
        <time>2012-03-18T09:47:50Z</time>
      </trkpt>
      <trkpt lat="45.88103" lon="5.88685">
        <ele>708</ele>
        <time>2012-03-18T09:47:57Z</time>
      </trkpt>
      <trkpt lat="45.8811" lon="5.88685">
        <ele>708</ele>
        <time>2012-03-18T09:48:03Z</time>
      </trkpt>
      <trkpt lat="45.88111" lon="5.88688">
        <ele>708</ele>
        <time>2012-03-18T09:48:05Z</time>
      </trkpt>
      <trkpt lat="45.88113" lon="5.88693">
        <ele>708</ele>
        <time>2012-03-18T09:48:09Z</time>
      </trkpt>
      <trkpt lat="45.88116" lon="5.887">
        <ele>708</ele>
        <time>2012-03-18T09:48:14Z</time>
      </trkpt>
      <trkpt lat="45.88119" lon="5.88708">
        <ele>708</ele>
        <time>2012-03-18T09:48:19Z</time>
      </trkpt>
      <trkpt lat="45.88128" lon="5.88713">
        <ele>709</ele>
        <time>2012-03-18T09:48:25Z</time>
      </trkpt>
      <trkpt lat="45.88139" lon="5.88708">
        <ele>710</ele>
        <time>2012-03-18T09:48:33Z</time>
      </trkpt>
      <trkpt lat="45.88144" lon="5.887">
        <ele>710</ele>
        <time>2012-03-18T09:48:38Z</time>
      </trkpt>
      <trkpt lat="45.88148" lon="5.88691">
        <ele>711</ele>
        <time>2012-03-18T09:48:43Z</time>
      </trkpt>
      <trkpt lat="45.88149" lon="5.88689">
        <ele>711</ele>
        <time>2012-03-18T09:48:44Z</time>
      </trkpt>
      <trkpt lat="45.88152" lon="5.88674">
        <ele>713</ele>
        <time>2012-03-18T09:48:51Z</time>
      </trkpt>
      <trkpt lat="45.88154" lon="5.88669">
        <ele>713</ele>
        <time>2012-03-18T09:48:53Z</time>
      </trkpt>
      <trkpt lat="45.88155" lon="5.8866">
        <ele>717</ele>
        <time>2012-03-18T09:48:59Z</time>
      </trkpt>
      <trkpt lat="45.88157" lon="5.88655">
        <ele>717</ele>
        <time>2012-03-18T09:49:02Z</time>
      </trkpt>
      <trkpt lat="45.88164" lon="5.88644">
        <ele>718</ele>
        <time>2012-03-18T09:49:09Z</time>
      </trkpt>
      <trkpt lat="45.88166" lon="5.88639">
        <ele>719</ele>
        <time>2012-03-18T09:49:11Z</time>
      </trkpt>
      <trkpt lat="45.88172" lon="5.88626">
        <ele>721</ele>
        <time>2012-03-18T09:49:18Z</time>
      </trkpt>
      <trkpt lat="45.88177" lon="5.88617">
        <ele>722</ele>
        <time>2012-03-18T09:49:23Z</time>
      </trkpt>
      <trkpt lat="45.88182" lon="5.88607">
        <ele>723</ele>
        <time>2012-03-18T09:49:28Z</time>
      </trkpt>
      <trkpt lat="45.88187" lon="5.88595">
        <ele>724</ele>
        <time>2012-03-18T09:49:34Z</time>
      </trkpt>
      <trkpt lat="45.88185" lon="5.8859">
        <ele>724</ele>
        <time>2012-03-18T09:49:43Z</time>
      </trkpt>
      <trkpt lat="45.88187" lon="5.88589">
        <ele>724</ele>
        <time>2012-03-18T09:50:23Z</time>
      </trkpt>
      <trkpt lat="45.88188" lon="5.88588">
        <ele>724</ele>
        <time>2012-03-18T09:50:35Z</time>
      </trkpt>
      <trkpt lat="45.88187" lon="5.88587">
        <ele>724</ele>
        <time>2012-03-18T09:50:43Z</time>
      </trkpt>
      <trkpt lat="45.88188" lon="5.88577">
        <ele>733</ele>
        <time>2012-03-18T09:50:48Z</time>
      </trkpt>
      <trkpt lat="45.88192" lon="5.8857">
        <ele>733</ele>
        <time>2012-03-18T09:50:51Z</time>
      </trkpt>
      <trkpt lat="45.88199" lon="5.88555">
        <ele>735</ele>
        <time>2012-03-18T09:50:57Z</time>
      </trkpt>
      <trkpt lat="45.88205" lon="5.88543">
        <ele>736</ele>
        <time>2012-03-18T09:51:02Z</time>
      </trkpt>
      <trkpt lat="45.88209" lon="5.88531">
        <ele>737</ele>
        <time>2012-03-18T09:51:07Z</time>
      </trkpt>
      <trkpt lat="45.88212" lon="5.88516">
        <ele>739</ele>
        <time>2012-03-18T09:51:12Z</time>
      </trkpt>
      <trkpt lat="45.88212" lon="5.88503">
        <ele>739</ele>
        <time>2012-03-18T09:51:17Z</time>
      </trkpt>
      <trkpt lat="45.88211" lon="5.88496">
        <ele>752</ele>
        <time>2012-03-18T09:51:19Z</time>
      </trkpt>
      <trkpt lat="45.88214" lon="5.88494">
        <ele>753</ele>
        <time>2012-03-18T09:51:23Z</time>
      </trkpt>
      <trkpt lat="45.88218" lon="5.88488">
        <ele>753</ele>
        <time>2012-03-18T09:51:29Z</time>
      </trkpt>
      <trkpt lat="45.88218" lon="5.88479">
        <ele>754</ele>
        <time>2012-03-18T09:51:34Z</time>
      </trkpt>
      <trkpt lat="45.8822" lon="5.88467">
        <ele>756</ele>
        <time>2012-03-18T09:51:39Z</time>
      </trkpt>
      <trkpt lat="45.88221" lon="5.88457">
        <ele>757</ele>
        <time>2012-03-18T09:51:44Z</time>
      </trkpt>
      <trkpt lat="45.88221" lon="5.88453">
        <ele>758</ele>
        <time>2012-03-18T09:51:48Z</time>
      </trkpt>
      <trkpt lat="45.88224" lon="5.88449">
        <ele>759</ele>
        <time>2012-03-18T09:51:51Z</time>
      </trkpt>
      <trkpt lat="45.88229" lon="5.88443">
        <ele>760</ele>
        <time>2012-03-18T09:51:56Z</time>
      </trkpt>
      <trkpt lat="45.88239" lon="5.88429">
        <ele>763</ele>
        <time>2012-03-18T09:52:02Z</time>
      </trkpt>
      <trkpt lat="45.88246" lon="5.8842">
        <ele>767</ele>
        <time>2012-03-18T09:52:07Z</time>
      </trkpt>
      <trkpt lat="45.88253" lon="5.88415">
        <ele>770</ele>
        <time>2012-03-18T09:52:12Z</time>
      </trkpt>
      <trkpt lat="45.88255" lon="5.88413">
        <ele>771</ele>
        <time>2012-03-18T09:52:13Z</time>
      </trkpt>
      <trkpt lat="45.88258" lon="5.88408">
        <ele>773</ele>
        <time>2012-03-18T09:52:16Z</time>
      </trkpt>
      <trkpt lat="45.88264" lon="5.88401">
        <ele>775</ele>
        <time>2012-03-18T09:52:22Z</time>
      </trkpt>
      <trkpt lat="45.88265" lon="5.88398">
        <ele>775</ele>
        <time>2012-03-18T09:52:24Z</time>
      </trkpt>
      <trkpt lat="45.88274" lon="5.88394">
        <ele>776</ele>
        <time>2012-03-18T09:52:35Z</time>
      </trkpt>
      <trkpt lat="45.88276" lon="5.88394">
        <ele>776</ele>
        <time>2012-03-18T09:52:40Z</time>
      </trkpt>
      <trkpt lat="45.88275" lon="5.88394">
        <ele>776</ele>
        <time>2012-03-18T09:52:41Z</time>
      </trkpt>
      <trkpt lat="45.88269" lon="5.88392">
        <ele>776</ele>
        <time>2012-03-18T09:52:46Z</time>
      </trkpt>
      <trkpt lat="45.88267" lon="5.88389">
        <ele>777</ele>
        <time>2012-03-18T09:52:50Z</time>
      </trkpt>
      <trkpt lat="45.88265" lon="5.88388">
        <ele>777</ele>
        <time>2012-03-18T09:52:51Z</time>
      </trkpt>
      <trkpt lat="45.88257" lon="5.88382">
        <ele>778</ele>
        <time>2012-03-18T09:52:59Z</time>
      </trkpt>
      <trkpt lat="45.88248" lon="5.88374">
        <ele>781</ele>
        <time>2012-03-18T09:53:06Z</time>
      </trkpt>
      <trkpt lat="45.88241" lon="5.88371">
        <ele>782</ele>
        <time>2012-03-18T09:53:11Z</time>
      </trkpt>
      <trkpt lat="45.88236" lon="5.88363">
        <ele>783</ele>
        <time>2012-03-18T09:53:16Z</time>
      </trkpt>
      <trkpt lat="45.88236" lon="5.8835">
        <ele>785</ele>
        <time>2012-03-18T09:53:22Z</time>
      </trkpt>
      <trkpt lat="45.88236" lon="5.88348">
        <ele>786</ele>
        <time>2012-03-18T09:53:23Z</time>
      </trkpt>
      <trkpt lat="45.88238" lon="5.88342">
        <ele>787</ele>
        <time>2012-03-18T09:53:30Z</time>
      </trkpt>
      <trkpt lat="45.88236" lon="5.88331">
        <ele>795</ele>
        <time>2012-03-18T09:53:37Z</time>
      </trkpt>
      <trkpt lat="45.88236" lon="5.88321">
        <ele>796</ele>
        <time>2012-03-18T09:53:44Z</time>
      </trkpt>
      <trkpt lat="45.88237" lon="5.88317">
        <ele>797</ele>
        <time>2012-03-18T09:53:46Z</time>
      </trkpt>
      <trkpt lat="45.88236" lon="5.88308">
        <ele>798</ele>
        <time>2012-03-18T09:53:53Z</time>
      </trkpt>
      <trkpt lat="45.88236" lon="5.88306">
        <ele>798</ele>
        <time>2012-03-18T09:53:54Z</time>
      </trkpt>
      <trkpt lat="45.88237" lon="5.88296">
        <ele>800</ele>
        <time>2012-03-18T09:53:58Z</time>
      </trkpt>
      <trkpt lat="45.88237" lon="5.88284">
        <ele>801</ele>
        <time>2012-03-18T09:54:04Z</time>
      </trkpt>
      <trkpt lat="45.88236" lon="5.88281">
        <ele>801</ele>
        <time>2012-03-18T09:54:11Z</time>
      </trkpt>
      <trkpt lat="45.88234" lon="5.88278">
        <ele>802</ele>
        <time>2012-03-18T09:54:14Z</time>
      </trkpt>
      <trkpt lat="45.88232" lon="5.88269">
        <ele>803</ele>
        <time>2012-03-18T09:54:19Z</time>
      </trkpt>
      <trkpt lat="45.88233" lon="5.88263">
        <ele>803</ele>
        <time>2012-03-18T09:54:21Z</time>
      </trkpt>
      <trkpt lat="45.88234" lon="5.88248">
        <ele>812</ele>
        <time>2012-03-18T09:54:27Z</time>
      </trkpt>
      <trkpt lat="45.88239" lon="5.88235">
        <ele>813</ele>
        <time>2012-03-18T09:54:32Z</time>
      </trkpt>
      <trkpt lat="45.88246" lon="5.88222">
        <ele>816</ele>
        <time>2012-03-18T09:54:38Z</time>
      </trkpt>
      <trkpt lat="45.88248" lon="5.88212">
        <ele>819</ele>
        <time>2012-03-18T09:54:43Z</time>
      </trkpt>
      <trkpt lat="45.88248" lon="5.88204">
        <ele>820</ele>
        <time>2012-03-18T09:54:47Z</time>
      </trkpt>
      <trkpt lat="45.88247" lon="5.88201">
        <ele>821</ele>
        <time>2012-03-18T09:54:50Z</time>
      </trkpt>
      <trkpt lat="45.88244" lon="5.88199">
        <ele>821</ele>
        <time>2012-03-18T09:54:53Z</time>
      </trkpt>
      <trkpt lat="45.88239" lon="5.88196">
        <ele>822</ele>
        <time>2012-03-18T09:54:58Z</time>
      </trkpt>
      <trkpt lat="45.88234" lon="5.88197">
        <ele>822</ele>
        <time>2012-03-18T09:55:04Z</time>
      </trkpt>
      <trkpt lat="45.88233" lon="5.88198">
        <ele>822</ele>
        <time>2012-03-18T09:55:05Z</time>
      </trkpt>
      <trkpt lat="45.8823" lon="5.88199">
        <ele>822</ele>
        <time>2012-03-18T09:55:09Z</time>
      </trkpt>
      <trkpt lat="45.88225" lon="5.88198">
        <ele>822</ele>
        <time>2012-03-18T09:55:14Z</time>
      </trkpt>
      <trkpt lat="45.88218" lon="5.88201">
        <ele>822</ele>
        <time>2012-03-18T09:55:20Z</time>
      </trkpt>
      <trkpt lat="45.88215" lon="5.882">
        <ele>822</ele>
        <time>2012-03-18T09:55:22Z</time>
      </trkpt>
      <trkpt lat="45.8821" lon="5.88204">
        <ele>822</ele>
        <time>2012-03-18T09:55:26Z</time>
      </trkpt>
      <trkpt lat="45.88206" lon="5.88207">
        <ele>822</ele>
        <time>2012-03-18T09:55:30Z</time>
      </trkpt>
      <trkpt lat="45.88199" lon="5.8821">
        <ele>822</ele>
        <time>2012-03-18T09:55:36Z</time>
      </trkpt>
      <trkpt lat="45.88196" lon="5.88209">
        <ele>823</ele>
        <time>2012-03-18T09:55:38Z</time>
      </trkpt>
      <trkpt lat="45.88186" lon="5.88209">
        <ele>823</ele>
        <time>2012-03-18T09:55:44Z</time>
      </trkpt>
      <trkpt lat="45.88175" lon="5.88211">
        <ele>823</ele>
        <time>2012-03-18T09:55:51Z</time>
      </trkpt>
      <trkpt lat="45.88167" lon="5.88206">
        <ele>825</ele>
        <time>2012-03-18T09:55:57Z</time>
      </trkpt>
      <trkpt lat="45.88161" lon="5.88203">
        <ele>835</ele>
        <time>2012-03-18T09:56:02Z</time>
      </trkpt>
      <trkpt lat="45.88156" lon="5.88202">
        <ele>836</ele>
        <time>2012-03-18T09:56:06Z</time>
      </trkpt>
      <trkpt lat="45.88155" lon="5.88201">
        <ele>836</ele>
        <time>2012-03-18T09:56:07Z</time>
      </trkpt>
      <trkpt lat="45.88151" lon="5.882">
        <ele>836</ele>
        <time>2012-03-18T09:56:11Z</time>
      </trkpt>
      <trkpt lat="45.88149" lon="5.882">
        <ele>836</ele>
        <time>2012-03-18T09:56:14Z</time>
      </trkpt>
      <trkpt lat="45.88144" lon="5.882">
        <ele>837</ele>
        <time>2012-03-18T09:56:20Z</time>
      </trkpt>
      <trkpt lat="45.8814" lon="5.88199">
        <ele>837</ele>
        <time>2012-03-18T09:56:23Z</time>
      </trkpt>
      <trkpt lat="45.88135" lon="5.88199">
        <ele>838</ele>
        <time>2012-03-18T09:56:27Z</time>
      </trkpt>
      <trkpt lat="45.88127" lon="5.88208">
        <ele>837</ele>
        <time>2012-03-18T09:56:34Z</time>
      </trkpt>
      <trkpt lat="45.88124" lon="5.88206">
        <ele>837</ele>
        <time>2012-03-18T09:56:37Z</time>
      </trkpt>
      <trkpt lat="45.88122" lon="5.88197">
        <ele>839</ele>
        <time>2012-03-18T09:56:44Z</time>
      </trkpt>
      <trkpt lat="45.88123" lon="5.88185">
        <ele>841</ele>
        <time>2012-03-18T09:56:50Z</time>
      </trkpt>
      <trkpt lat="45.88132" lon="5.88169">
        <ele>841</ele>
        <time>2012-03-18T09:56:58Z</time>
      </trkpt>
      <trkpt lat="45.88137" lon="5.88163">
        <ele>858</ele>
        <time>2012-03-18T09:57:02Z</time>
      </trkpt>
      <trkpt lat="45.8814" lon="5.88154">
        <ele>859</ele>
        <time>2012-03-18T09:57:07Z</time>
      </trkpt>
      <trkpt lat="45.88146" lon="5.88146">
        <ele>859</ele>
        <time>2012-03-18T09:57:15Z</time>
      </trkpt>
      <trkpt lat="45.88153" lon="5.88139">
        <ele>860</ele>
        <time>2012-03-18T09:57:22Z</time>
      </trkpt>
      <trkpt lat="45.8816" lon="5.8813">
        <ele>862</ele>
        <time>2012-03-18T09:57:28Z</time>
      </trkpt>
      <trkpt lat="45.88163" lon="5.88124">
        <ele>863</ele>
        <time>2012-03-18T09:57:31Z</time>
      </trkpt>
      <trkpt lat="45.88172" lon="5.88118">
        <ele>854</ele>
        <time>2012-03-18T09:57:37Z</time>
      </trkpt>
      <trkpt lat="45.88175" lon="5.88116">
        <ele>854</ele>
        <time>2012-03-18T09:57:40Z</time>
      </trkpt>
      <trkpt lat="45.88183" lon="5.88111">
        <ele>855</ele>
        <time>2012-03-18T09:57:45Z</time>
      </trkpt>
      <trkpt lat="45.88185" lon="5.8811">
        <ele>855</ele>
        <time>2012-03-18T09:57:46Z</time>
      </trkpt>
      <trkpt lat="45.88195" lon="5.88103">
        <ele>855</ele>
        <time>2012-03-18T09:57:52Z</time>
      </trkpt>
      <trkpt lat="45.88202" lon="5.88095">
        <ele>855</ele>
        <time>2012-03-18T09:57:58Z</time>
      </trkpt>
      <trkpt lat="45.88202" lon="5.88094">
        <ele>855</ele>
        <time>2012-03-18T09:58:00Z</time>
      </trkpt>
      <trkpt lat="45.88202" lon="5.8809">
        <ele>855</ele>
        <time>2012-03-18T09:58:03Z</time>
      </trkpt>
      <trkpt lat="45.88207" lon="5.88087">
        <ele>855</ele>
        <time>2012-03-18T09:58:10Z</time>
      </trkpt>
      <trkpt lat="45.88211" lon="5.88088">
        <ele>854</ele>
        <time>2012-03-18T09:58:14Z</time>
      </trkpt>
      <trkpt lat="45.88221" lon="5.88079">
        <ele>875</ele>
        <time>2012-03-18T09:58:20Z</time>
      </trkpt>
      <trkpt lat="45.88232" lon="5.88072">
        <ele>873</ele>
        <time>2012-03-18T09:58:26Z</time>
      </trkpt>
      <trkpt lat="45.88235" lon="5.8807">
        <ele>872</ele>
        <time>2012-03-18T09:58:28Z</time>
      </trkpt>
      <trkpt lat="45.88246" lon="5.88065">
        <ele>872</ele>
        <time>2012-03-18T09:58:34Z</time>
      </trkpt>
      <trkpt lat="45.88254" lon="5.8806">
        <ele>869</ele>
        <time>2012-03-18T09:58:39Z</time>
      </trkpt>
      <trkpt lat="45.88259" lon="5.88058">
        <ele>870</ele>
        <time>2012-03-18T09:58:43Z</time>
      </trkpt>
      <trkpt lat="45.88261" lon="5.88056">
        <ele>871</ele>
        <time>2012-03-18T09:58:46Z</time>
      </trkpt>
      <trkpt lat="45.88268" lon="5.88047">
        <ele>874</ele>
        <time>2012-03-18T09:58:53Z</time>
      </trkpt>
      <trkpt lat="45.88278" lon="5.88042">
        <ele>875</ele>
        <time>2012-03-18T09:58:59Z</time>
      </trkpt>
      <trkpt lat="45.8828" lon="5.88041">
        <ele>875</ele>
        <time>2012-03-18T09:59:00Z</time>
      </trkpt>
      <trkpt lat="45.88287" lon="5.8804">
        <ele>876</ele>
        <time>2012-03-18T09:59:04Z</time>
      </trkpt>
      <trkpt lat="45.88291" lon="5.8804">
        <ele>875</ele>
        <time>2012-03-18T09:59:08Z</time>
      </trkpt>
      <trkpt lat="45.88298" lon="5.88036">
        <ele>876</ele>
        <time>2012-03-18T09:59:15Z</time>
      </trkpt>
      <trkpt lat="45.88309" lon="5.88028">
        <ele>879</ele>
        <time>2012-03-18T09:59:23Z</time>
      </trkpt>
      <trkpt lat="45.88312" lon="5.88026">
        <ele>879</ele>
        <time>2012-03-18T09:59:28Z</time>
      </trkpt>
      <trkpt lat="45.88313" lon="5.88025">
        <ele>880</ele>
        <time>2012-03-18T09:59:29Z</time>
      </trkpt>
      <trkpt lat="45.88315" lon="5.88025">
        <ele>880</ele>
        <time>2012-03-18T09:59:32Z</time>
      </trkpt>
      <trkpt lat="45.88323" lon="5.88025">
        <ele>880</ele>
        <time>2012-03-18T09:59:39Z</time>
      </trkpt>
      <trkpt lat="45.8833" lon="5.88021">
        <ele>883</ele>
        <time>2012-03-18T09:59:46Z</time>
      </trkpt>
      <trkpt lat="45.88333" lon="5.88019">
        <ele>884</ele>
        <time>2012-03-18T09:59:49Z</time>
      </trkpt>
      <trkpt lat="45.88341" lon="5.88014">
        <ele>882</ele>
        <time>2012-03-18T09:59:57Z</time>
      </trkpt>
      <trkpt lat="45.88346" lon="5.8801">
        <ele>883</ele>
        <time>2012-03-18T10:00:00Z</time>
      </trkpt>
      <trkpt lat="45.88348" lon="5.88008">
        <ele>883</ele>
        <time>2012-03-18T10:00:02Z</time>
      </trkpt>
      <trkpt lat="45.8835" lon="5.88007">
        <ele>882</ele>
        <time>2012-03-18T10:00:05Z</time>
      </trkpt>
      <trkpt lat="45.88354" lon="5.88006">
        <ele>881</ele>
        <time>2012-03-18T10:00:12Z</time>
      </trkpt>
      <trkpt lat="45.8836" lon="5.88003">
        <ele>880</ele>
        <time>2012-03-18T10:00:19Z</time>
      </trkpt>
      <trkpt lat="45.88363" lon="5.88003">
        <ele>879</ele>
        <time>2012-03-18T10:00:21Z</time>
      </trkpt>
      <trkpt lat="45.88376" lon="5.88005">
        <ele>877</ele>
        <time>2012-03-18T10:00:30Z</time>
      </trkpt>
      <trkpt lat="45.88382" lon="5.88007">
        <ele>877</ele>
        <time>2012-03-18T10:00:35Z</time>
      </trkpt>
      <trkpt lat="45.88387" lon="5.88003">
        <ele>878</ele>
        <time>2012-03-18T10:00:40Z</time>
      </trkpt>
      <trkpt lat="45.88391" lon="5.88001">
        <ele>879</ele>
        <time>2012-03-18T10:00:44Z</time>
      </trkpt>
      <trkpt lat="45.88395" lon="5.87998">
        <ele>898</ele>
        <time>2012-03-18T10:00:49Z</time>
      </trkpt>
      <trkpt lat="45.88405" lon="5.87989">
        <ele>897</ele>
        <time>2012-03-18T10:00:57Z</time>
      </trkpt>
      <trkpt lat="45.88407" lon="5.87987">
        <ele>897</ele>
        <time>2012-03-18T10:00:58Z</time>
      </trkpt>
      <trkpt lat="45.88418" lon="5.87982">
        <ele>895</ele>
        <time>2012-03-18T10:01:04Z</time>
      </trkpt>
      <trkpt lat="45.88421" lon="5.87979">
        <ele>895</ele>
        <time>2012-03-18T10:01:07Z</time>
      </trkpt>
      <trkpt lat="45.88431" lon="5.87975">
        <ele>896</ele>
        <time>2012-03-18T10:01:15Z</time>
      </trkpt>
      <trkpt lat="45.88439" lon="5.87972">
        <ele>897</ele>
        <time>2012-03-18T10:01:21Z</time>
      </trkpt>
      <trkpt lat="45.8844" lon="5.87971">
        <ele>897</ele>
        <time>2012-03-18T10:01:23Z</time>
      </trkpt>
      <trkpt lat="45.88442" lon="5.87964">
        <ele>898</ele>
        <time>2012-03-18T10:01:29Z</time>
      </trkpt>
      <trkpt lat="45.8845" lon="5.87955">
        <ele>899</ele>
        <time>2012-03-18T10:01:35Z</time>
      </trkpt>
      <trkpt lat="45.88453" lon="5.87951">
        <ele>900</ele>
        <time>2012-03-18T10:01:37Z</time>
      </trkpt>
      <trkpt lat="45.88457" lon="5.87951">
        <ele>899</ele>
        <time>2012-03-18T10:01:42Z</time>
      </trkpt>
      <trkpt lat="45.8846" lon="5.87949">
        <ele>900</ele>
        <time>2012-03-18T10:01:44Z</time>
      </trkpt>
      <trkpt lat="45.88464" lon="5.87944">
        <ele>900</ele>
        <time>2012-03-18T10:01:47Z</time>
      </trkpt>
      <trkpt lat="45.88471" lon="5.87931">
        <ele>902</ele>
        <time>2012-03-18T10:01:54Z</time>
      </trkpt>
      <trkpt lat="45.88481" lon="5.87918">
        <ele>903</ele>
        <time>2012-03-18T10:01:59Z</time>
      </trkpt>
      <trkpt lat="45.88486" lon="5.87909">
        <ele>912</ele>
        <time>2012-03-18T10:02:04Z</time>
      </trkpt>
      <trkpt lat="45.88492" lon="5.87891">
        <ele>913</ele>
        <time>2012-03-18T10:02:12Z</time>
      </trkpt>
      <trkpt lat="45.88493" lon="5.87887">
        <ele>914</ele>
        <time>2012-03-18T10:02:15Z</time>
      </trkpt>
      <trkpt lat="45.88494" lon="5.87882">
        <ele>914</ele>
        <time>2012-03-18T10:02:20Z</time>
      </trkpt>
      <trkpt lat="45.88494" lon="5.87879">
        <ele>915</ele>
        <time>2012-03-18T10:02:22Z</time>
      </trkpt>
      <trkpt lat="45.88496" lon="5.87874">
        <ele>915</ele>
        <time>2012-03-18T10:02:26Z</time>
      </trkpt>
      <trkpt lat="45.88499" lon="5.87863">
        <ele>916</ele>
        <time>2012-03-18T10:02:34Z</time>
      </trkpt>
      <trkpt lat="45.88494" lon="5.87846">
        <ele>917</ele>
        <time>2012-03-18T10:02:41Z</time>
      </trkpt>
      <trkpt lat="45.88493" lon="5.87844">
        <ele>918</ele>
        <time>2012-03-18T10:02:42Z</time>
      </trkpt>
      <trkpt lat="45.88487" lon="5.87826">
        <ele>920</ele>
        <time>2012-03-18T10:02:48Z</time>
      </trkpt>
      <trkpt lat="45.8848" lon="5.87815">
        <ele>920</ele>
        <time>2012-03-18T10:02:52Z</time>
      </trkpt>
      <trkpt lat="45.88476" lon="5.87804">
        <ele>921</ele>
        <time>2012-03-18T10:02:55Z</time>
      </trkpt>
      <trkpt lat="45.88477" lon="5.87789">
        <ele>921</ele>
        <time>2012-03-18T10:02:59Z</time>
      </trkpt>
      <trkpt lat="45.88476" lon="5.87771">
        <ele>921</ele>
        <time>2012-03-18T10:03:04Z</time>
      </trkpt>
      <trkpt lat="45.88475" lon="5.87762">
        <ele>921</ele>
        <time>2012-03-18T10:03:07Z</time>
      </trkpt>
      <trkpt lat="45.88474" lon="5.87736">
        <ele>922</ele>
        <time>2012-03-18T10:03:13Z</time>
      </trkpt>
      <trkpt lat="45.88472" lon="5.87716">
        <ele>922</ele>
        <time>2012-03-18T10:03:18Z</time>
      </trkpt>
      <trkpt lat="45.88479" lon="5.87696">
        <ele>922</ele>
        <time>2012-03-18T10:03:23Z</time>
      </trkpt>
      <trkpt lat="45.88487" lon="5.87686">
        <ele>921</ele>
        <time>2012-03-18T10:03:27Z</time>
      </trkpt>
      <trkpt lat="45.88503" lon="5.87673">
        <ele>921</ele>
        <time>2012-03-18T10:03:33Z</time>
      </trkpt>
      <trkpt lat="45.88517" lon="5.87668">
        <ele>921</ele>
        <time>2012-03-18T10:03:38Z</time>
      </trkpt>
      <trkpt lat="45.88531" lon="5.87656">
        <ele>923</ele>
        <time>2012-03-18T10:03:44Z</time>
      </trkpt>
      <trkpt lat="45.88551" lon="5.87641">
        <ele>924</ele>
        <time>2012-03-18T10:03:51Z</time>
      </trkpt>
      <trkpt lat="45.88559" lon="5.87636">
        <ele>924</ele>
        <time>2012-03-18T10:03:55Z</time>
      </trkpt>
      <trkpt lat="45.88573" lon="5.87634">
        <ele>924</ele>
        <time>2012-03-18T10:04:00Z</time>
      </trkpt>
      <trkpt lat="45.88589" lon="5.87632">
        <ele>926</ele>
        <time>2012-03-18T10:04:06Z</time>
      </trkpt>
      <trkpt lat="45.88599" lon="5.87629">
        <ele>926</ele>
        <time>2012-03-18T10:04:10Z</time>
      </trkpt>
      <trkpt lat="45.88605" lon="5.87628">
        <ele>926</ele>
        <time>2012-03-18T10:04:13Z</time>
      </trkpt>
      <trkpt lat="45.88615" lon="5.87633">
        <ele>926</ele>
        <time>2012-03-18T10:04:18Z</time>
      </trkpt>
      <trkpt lat="45.88622" lon="5.87635">
        <ele>926</ele>
        <time>2012-03-18T10:04:20Z</time>
      </trkpt>
      <trkpt lat="45.88637" lon="5.87639">
        <ele>927</ele>
        <time>2012-03-18T10:04:25Z</time>
      </trkpt>
      <trkpt lat="45.8865" lon="5.8764">
        <ele>927</ele>
        <time>2012-03-18T10:04:30Z</time>
      </trkpt>
      <trkpt lat="45.88658" lon="5.87636">
        <ele>927</ele>
        <time>2012-03-18T10:04:35Z</time>
      </trkpt>
      <trkpt lat="45.88668" lon="5.87627">
        <ele>928</ele>
        <time>2012-03-18T10:04:40Z</time>
      </trkpt>
      <trkpt lat="45.88674" lon="5.87618">
        <ele>928</ele>
        <time>2012-03-18T10:04:45Z</time>
      </trkpt>
      <trkpt lat="45.88684" lon="5.87607">
        <ele>928</ele>
        <time>2012-03-18T10:04:51Z</time>
      </trkpt>
      <trkpt lat="45.88692" lon="5.87596">
        <ele>928</ele>
        <time>2012-03-18T10:04:56Z</time>
      </trkpt>
      <trkpt lat="45.88699" lon="5.87587">
        <ele>928</ele>
        <time>2012-03-18T10:05:00Z</time>
      </trkpt>
      <trkpt lat="45.88707" lon="5.8757">
        <ele>932</ele>
        <time>2012-03-18T10:05:06Z</time>
      </trkpt>
      <trkpt lat="45.88708" lon="5.87567">
        <ele>932</ele>
        <time>2012-03-18T10:05:07Z</time>
      </trkpt>
      <trkpt lat="45.88716" lon="5.87555">
        <ele>932</ele>
        <time>2012-03-18T10:05:12Z</time>
      </trkpt>
      <trkpt lat="45.88727" lon="5.87549">
        <ele>933</ele>
        <time>2012-03-18T10:05:17Z</time>
      </trkpt>
      <trkpt lat="45.88731" lon="5.87549">
        <ele>933</ele>
        <time>2012-03-18T10:05:19Z</time>
      </trkpt>
      <trkpt lat="45.88744" lon="5.87551">
        <ele>932</ele>
        <time>2012-03-18T10:05:27Z</time>
      </trkpt>
      <trkpt lat="45.88761" lon="5.87556">
        <ele>933</ele>
        <time>2012-03-18T10:05:33Z</time>
      </trkpt>
      <trkpt lat="45.88777" lon="5.87563">
        <ele>933</ele>
        <time>2012-03-18T10:05:38Z</time>
      </trkpt>
      <trkpt lat="45.88788" lon="5.87567">
        <ele>934</ele>
        <time>2012-03-18T10:05:42Z</time>
      </trkpt>
      <trkpt lat="45.88796" lon="5.8757">
        <ele>934</ele>
        <time>2012-03-18T10:05:46Z</time>
      </trkpt>
      <trkpt lat="45.88799" lon="5.87571">
        <ele>934</ele>
        <time>2012-03-18T10:05:53Z</time>
      </trkpt>
      <trkpt lat="45.88799" lon="5.87557">
        <ele>934</ele>
        <time>2012-03-18T10:05:58Z</time>
      </trkpt>
      <trkpt lat="45.8881" lon="5.8755">
        <ele>935</ele>
        <time>2012-03-18T10:06:02Z</time>
      </trkpt>
      <trkpt lat="45.88815" lon="5.87545">
        <ele>935</ele>
        <time>2012-03-18T10:06:04Z</time>
      </trkpt>
      <trkpt lat="45.88828" lon="5.87534">
        <ele>936</ele>
        <time>2012-03-18T10:06:11Z</time>
      </trkpt>
      <trkpt lat="45.88831" lon="5.87534">
        <ele>936</ele>
        <time>2012-03-18T10:06:13Z</time>
      </trkpt>
      <trkpt lat="45.88844" lon="5.87527">
        <ele>939</ele>
        <time>2012-03-18T10:06:21Z</time>
      </trkpt>
      <trkpt lat="45.88849" lon="5.87526">
        <ele>939</ele>
        <time>2012-03-18T10:06:23Z</time>
      </trkpt>
      <trkpt lat="45.88864" lon="5.8752">
        <ele>939</ele>
        <time>2012-03-18T10:06:30Z</time>
      </trkpt>
      <trkpt lat="45.8887" lon="5.87517">
        <ele>939</ele>
        <time>2012-03-18T10:06:33Z</time>
      </trkpt>
      <trkpt lat="45.88885" lon="5.87512">
        <ele>940</ele>
        <time>2012-03-18T10:06:40Z</time>
      </trkpt>
      <trkpt lat="45.88895" lon="5.87511">
        <ele>940</ele>
        <time>2012-03-18T10:06:44Z</time>
      </trkpt>
      <trkpt lat="45.88901" lon="5.87513">
        <ele>940</ele>
        <time>2012-03-18T10:06:46Z</time>
      </trkpt>
      <trkpt lat="45.88916" lon="5.87525">
        <ele>940</ele>
        <time>2012-03-18T10:06:52Z</time>
      </trkpt>
      <trkpt lat="45.88924" lon="5.87533">
        <ele>943</ele>
        <time>2012-03-18T10:06:58Z</time>
      </trkpt>
      <trkpt lat="45.88928" lon="5.8754">
        <ele>943</ele>
        <time>2012-03-18T10:07:03Z</time>
      </trkpt>
      <trkpt lat="45.88931" lon="5.87547">
        <ele>943</ele>
        <time>2012-03-18T10:07:09Z</time>
      </trkpt>
      <trkpt lat="45.88931" lon="5.87547">
        <ele>943</ele>
        <time>2012-03-18T10:07:10Z</time>
      </trkpt>
      <trkpt lat="45.88942" lon="5.87538">
        <ele>943</ele>
        <time>2012-03-18T10:07:16Z</time>
      </trkpt>
      <trkpt lat="45.8895" lon="5.87529">
        <ele>944</ele>
        <time>2012-03-18T10:07:20Z</time>
      </trkpt>
      <trkpt lat="45.88962" lon="5.87509">
        <ele>944</ele>
        <time>2012-03-18T10:07:26Z</time>
      </trkpt>
      <trkpt lat="45.88969" lon="5.87496">
        <ele>947</ele>
        <time>2012-03-18T10:07:30Z</time>
      </trkpt>
      <trkpt lat="45.88973" lon="5.87487">
        <ele>947</ele>
        <time>2012-03-18T10:07:34Z</time>
      </trkpt>
      <trkpt lat="45.88978" lon="5.87477">
        <ele>947</ele>
        <time>2012-03-18T10:07:38Z</time>
      </trkpt>
      <trkpt lat="45.88989" lon="5.8747">
        <ele>948</ele>
        <time>2012-03-18T10:07:42Z</time>
      </trkpt>
      <trkpt lat="45.89002" lon="5.87465">
        <ele>947</ele>
        <time>2012-03-18T10:07:49Z</time>
      </trkpt>
      <trkpt lat="45.89014" lon="5.87462">
        <ele>947</ele>
        <time>2012-03-18T10:07:54Z</time>
      </trkpt>
      <trkpt lat="45.89027" lon="5.8746">
        <ele>947</ele>
        <time>2012-03-18T10:07:58Z</time>
      </trkpt>
      <trkpt lat="45.89038" lon="5.87453">
        <ele>946</ele>
        <time>2012-03-18T10:08:02Z</time>
      </trkpt>
      <trkpt lat="45.89053" lon="5.87451">
        <ele>946</ele>
        <time>2012-03-18T10:08:07Z</time>
      </trkpt>
      <trkpt lat="45.89055" lon="5.87451">
        <ele>946</ele>
        <time>2012-03-18T10:08:08Z</time>
      </trkpt>
      <trkpt lat="45.89069" lon="5.8745">
        <ele>946</ele>
        <time>2012-03-18T10:08:13Z</time>
      </trkpt>
      <trkpt lat="45.89087" lon="5.87447">
        <ele>943</ele>
        <time>2012-03-18T10:08:18Z</time>
      </trkpt>
      <trkpt lat="45.89104" lon="5.87447">
        <ele>943</ele>
        <time>2012-03-18T10:08:23Z</time>
      </trkpt>
      <trkpt lat="45.89119" lon="5.87444">
        <ele>943</ele>
        <time>2012-03-18T10:08:27Z</time>
      </trkpt>
      <trkpt lat="45.89135" lon="5.87441">
        <ele>943</ele>
        <time>2012-03-18T10:08:32Z</time>
      </trkpt>
      <trkpt lat="45.89149" lon="5.87442">
        <ele>942</ele>
        <time>2012-03-18T10:08:37Z</time>
      </trkpt>
      <trkpt lat="45.89169" lon="5.87442">
        <ele>940</ele>
        <time>2012-03-18T10:08:42Z</time>
      </trkpt>
      <trkpt lat="45.89189" lon="5.8744">
        <ele>940</ele>
        <time>2012-03-18T10:08:48Z</time>
      </trkpt>
      <trkpt lat="45.892" lon="5.87441">
        <ele>940</ele>
        <time>2012-03-18T10:08:52Z</time>
      </trkpt>
      <trkpt lat="45.8922" lon="5.8744">
        <ele>939</ele>
        <time>2012-03-18T10:08:58Z</time>
      </trkpt>
      <trkpt lat="45.8923" lon="5.87443">
        <ele>939</ele>
        <time>2012-03-18T10:09:02Z</time>
      </trkpt>
      <trkpt lat="45.89245" lon="5.87444">
        <ele>939</ele>
        <time>2012-03-18T10:09:07Z</time>
      </trkpt>
      <trkpt lat="45.89251" lon="5.87444">
        <ele>936</ele>
        <time>2012-03-18T10:09:09Z</time>
      </trkpt>
      <trkpt lat="45.8927" lon="5.87444">
        <ele>935</ele>
        <time>2012-03-18T10:09:15Z</time>
      </trkpt>
      <trkpt lat="45.89284" lon="5.87446">
        <ele>935</ele>
        <time>2012-03-18T10:09:20Z</time>
      </trkpt>
      <trkpt lat="45.89287" lon="5.87446">
        <ele>935</ele>
        <time>2012-03-18T10:09:21Z</time>
      </trkpt>
      <trkpt lat="45.89295" lon="5.87442">
        <ele>935</ele>
        <time>2012-03-18T10:09:26Z</time>
      </trkpt>
      <trkpt lat="45.89304" lon="5.87451">
        <ele>934</ele>
        <time>2012-03-18T10:09:33Z</time>
      </trkpt>
      <trkpt lat="45.89311" lon="5.87469">
        <ele>934</ele>
        <time>2012-03-18T10:09:38Z</time>
      </trkpt>
      <trkpt lat="45.89318" lon="5.87485">
        <ele>933</ele>
        <time>2012-03-18T10:09:43Z</time>
      </trkpt>
      <trkpt lat="45.89323" lon="5.87497">
        <ele>932</ele>
        <time>2012-03-18T10:09:48Z</time>
      </trkpt>
      <trkpt lat="45.89326" lon="5.87501">
        <ele>930</ele>
        <time>2012-03-18T10:09:50Z</time>
      </trkpt>
      <trkpt lat="45.89335" lon="5.87521">
        <ele>929</ele>
        <time>2012-03-18T10:09:55Z</time>
      </trkpt>
      <trkpt lat="45.89342" lon="5.87543">
        <ele>928</ele>
        <time>2012-03-18T10:10:00Z</time>
      </trkpt>
      <trkpt lat="45.89351" lon="5.87562">
        <ele>926</ele>
        <time>2012-03-18T10:10:06Z</time>
      </trkpt>
      <trkpt lat="45.89366" lon="5.87565">
        <ele>927</ele>
        <time>2012-03-18T10:10:11Z</time>
      </trkpt>
      <trkpt lat="45.89376" lon="5.87555">
        <ele>927</ele>
        <time>2012-03-18T10:10:15Z</time>
      </trkpt>
      <trkpt lat="45.89381" lon="5.87545">
        <ele>928</ele>
        <time>2012-03-18T10:10:18Z</time>
      </trkpt>
      <trkpt lat="45.89391" lon="5.87548">
        <ele>928</ele>
        <time>2012-03-18T10:10:23Z</time>
      </trkpt>
      <trkpt lat="45.89403" lon="5.87568">
        <ele>925</ele>
        <time>2012-03-18T10:10:28Z</time>
      </trkpt>
      <trkpt lat="45.89405" lon="5.87572">
        <ele>925</ele>
        <time>2012-03-18T10:10:29Z</time>
      </trkpt>
      <trkpt lat="45.89423" lon="5.87587">
        <ele>919</ele>
        <time>2012-03-18T10:10:35Z</time>
      </trkpt>
      <trkpt lat="45.89441" lon="5.87593">
        <ele>917</ele>
        <time>2012-03-18T10:10:40Z</time>
      </trkpt>
      <trkpt lat="45.89447" lon="5.87592">
        <ele>917</ele>
        <time>2012-03-18T10:10:43Z</time>
      </trkpt>
      <trkpt lat="45.89454" lon="5.87596">
        <ele>917</ele>
        <time>2012-03-18T10:10:49Z</time>
      </trkpt>
      <trkpt lat="45.89469" lon="5.87608">
        <ele>916</ele>
        <time>2012-03-18T10:10:55Z</time>
      </trkpt>
      <trkpt lat="45.89474" lon="5.87609">
        <ele>916</ele>
        <time>2012-03-18T10:10:57Z</time>
      </trkpt>
      <trkpt lat="45.89489" lon="5.87609">
        <ele>918</ele>
        <time>2012-03-18T10:11:03Z</time>
      </trkpt>
      <trkpt lat="45.89491" lon="5.8761">
        <ele>918</ele>
        <time>2012-03-18T10:11:04Z</time>
      </trkpt>
      <trkpt lat="45.89511" lon="5.87608">
        <ele>921</ele>
        <time>2012-03-18T10:11:10Z</time>
      </trkpt>
      <trkpt lat="45.89526" lon="5.87605">
        <ele>921</ele>
        <time>2012-03-18T10:11:15Z</time>
      </trkpt>
      <trkpt lat="45.89536" lon="5.87604">
        <ele>920</ele>
        <time>2012-03-18T10:11:18Z</time>
      </trkpt>
      <trkpt lat="45.89549" lon="5.87601">
        <ele>921</ele>
        <time>2012-03-18T10:11:23Z</time>
      </trkpt>
      <trkpt lat="45.89551" lon="5.87599">
        <ele>921</ele>
        <time>2012-03-18T10:11:24Z</time>
      </trkpt>
      <trkpt lat="45.89559" lon="5.87591">
        <ele>923</ele>
        <time>2012-03-18T10:11:29Z</time>
      </trkpt>
      <trkpt lat="45.89564" lon="5.87589">
        <ele>924</ele>
        <time>2012-03-18T10:11:34Z</time>
      </trkpt>
      <trkpt lat="45.89574" lon="5.87596">
        <ele>925</ele>
        <time>2012-03-18T10:11:40Z</time>
      </trkpt>
      <trkpt lat="45.89579" lon="5.87598">
        <ele>925</ele>
        <time>2012-03-18T10:11:42Z</time>
      </trkpt>
      <trkpt lat="45.89583" lon="5.87599">
        <ele>924</ele>
        <time>2012-03-18T10:11:44Z</time>
      </trkpt>
      <trkpt lat="45.89596" lon="5.87591">
        <ele>925</ele>
        <time>2012-03-18T10:11:50Z</time>
      </trkpt>
      <trkpt lat="45.89609" lon="5.87586">
        <ele>924</ele>
        <time>2012-03-18T10:11:55Z</time>
      </trkpt>
      <trkpt lat="45.89625" lon="5.87587">
        <ele>923</ele>
        <time>2012-03-18T10:12:00Z</time>
      </trkpt>
      <trkpt lat="45.89645" lon="5.87589">
        <ele>923</ele>
        <time>2012-03-18T10:12:07Z</time>
      </trkpt>
      <trkpt lat="45.8967" lon="5.87595">
        <ele>922</ele>
        <time>2012-03-18T10:12:13Z</time>
      </trkpt>
      <trkpt lat="45.89685" lon="5.87597">
        <ele>918</ele>
        <time>2012-03-18T10:12:17Z</time>
      </trkpt>
      <trkpt lat="45.89697" lon="5.87596">
        <ele>916</ele>
        <time>2012-03-18T10:12:20Z</time>
      </trkpt>
      <trkpt lat="45.89717" lon="5.87593">
        <ele>913</ele>
        <time>2012-03-18T10:12:25Z</time>
      </trkpt>
      <trkpt lat="45.89725" lon="5.8759">
        <ele>912</ele>
        <time>2012-03-18T10:12:27Z</time>
      </trkpt>
      <trkpt lat="45.89733" lon="5.87591">
        <ele>912</ele>
        <time>2012-03-18T10:12:29Z</time>
      </trkpt>
      <trkpt lat="45.8975" lon="5.87586">
        <ele>908</ele>
        <time>2012-03-18T10:12:34Z</time>
      </trkpt>
      <trkpt lat="45.8976" lon="5.87574">
        <ele>910</ele>
        <time>2012-03-18T10:12:39Z</time>
      </trkpt>
      <trkpt lat="45.89764" lon="5.87572">
        <ele>910</ele>
        <time>2012-03-18T10:12:40Z</time>
      </trkpt>
      <trkpt lat="45.89786" lon="5.87568">
        <ele>907</ele>
        <time>2012-03-18T10:12:46Z</time>
      </trkpt>
      <trkpt lat="45.898" lon="5.87558">
        <ele>906</ele>
        <time>2012-03-18T10:12:50Z</time>
      </trkpt>
      <trkpt lat="45.89818" lon="5.87545">
        <ele>906</ele>
        <time>2012-03-18T10:12:55Z</time>
      </trkpt>
      <trkpt lat="45.89836" lon="5.87532">
        <ele>892</ele>
        <time>2012-03-18T10:13:01Z</time>
      </trkpt>
      <trkpt lat="45.89845" lon="5.87527">
        <ele>893</ele>
        <time>2012-03-18T10:13:05Z</time>
      </trkpt>
      <trkpt lat="45.89865" lon="5.8753">
        <ele>888</ele>
        <time>2012-03-18T10:13:11Z</time>
      </trkpt>
      <trkpt lat="45.8988" lon="5.87531">
        <ele>886</ele>
        <time>2012-03-18T10:13:15Z</time>
      </trkpt>
      <trkpt lat="45.89897" lon="5.87532">
        <ele>883</ele>
        <time>2012-03-18T10:13:20Z</time>
      </trkpt>
      <trkpt lat="45.89915" lon="5.87518">
        <ele>884</ele>
        <time>2012-03-18T10:13:26Z</time>
      </trkpt>
      <trkpt lat="45.8993" lon="5.87513">
        <ele>878</ele>
        <time>2012-03-18T10:13:30Z</time>
      </trkpt>
      <trkpt lat="45.89945" lon="5.8751">
        <ele>876</ele>
        <time>2012-03-18T10:13:34Z</time>
      </trkpt>
      <trkpt lat="45.8996" lon="5.87501">
        <ele>875</ele>
        <time>2012-03-18T10:13:39Z</time>
      </trkpt>
      <trkpt lat="45.89974" lon="5.875">
        <ele>876</ele>
        <time>2012-03-18T10:13:43Z</time>
      </trkpt>
      <trkpt lat="45.89984" lon="5.87515">
        <ele>875</ele>
        <time>2012-03-18T10:13:48Z</time>
      </trkpt>
      <trkpt lat="45.89993" lon="5.8753">
        <ele>872</ele>
        <time>2012-03-18T10:13:52Z</time>
      </trkpt>
      <trkpt lat="45.90004" lon="5.87549">
        <ele>867</ele>
        <time>2012-03-18T10:13:57Z</time>
      </trkpt>
      <trkpt lat="45.90015" lon="5.87552">
        <ele>866</ele>
        <time>2012-03-18T10:14:01Z</time>
      </trkpt>
      <trkpt lat="45.90021" lon="5.87553">
        <ele>866</ele>
        <time>2012-03-18T10:14:03Z</time>
      </trkpt>
      <trkpt lat="45.90036" lon="5.87568">
        <ele>865</ele>
        <time>2012-03-18T10:14:08Z</time>
      </trkpt>
      <trkpt lat="45.90051" lon="5.8758">
        <ele>864</ele>
        <time>2012-03-18T10:14:12Z</time>
      </trkpt>
      <trkpt lat="45.90054" lon="5.87582">
        <ele>864</ele>
        <time>2012-03-18T10:14:13Z</time>
      </trkpt>
      <trkpt lat="45.90074" lon="5.87587">
        <ele>855</ele>
        <time>2012-03-18T10:14:19Z</time>
      </trkpt>
      <trkpt lat="45.90091" lon="5.87605">
        <ele>851</ele>
        <time>2012-03-18T10:14:25Z</time>
      </trkpt>
      <trkpt lat="45.90098" lon="5.87609">
        <ele>849</ele>
        <time>2012-03-18T10:14:27Z</time>
      </trkpt>
      <trkpt lat="45.90117" lon="5.87607">
        <ele>848</ele>
        <time>2012-03-18T10:14:34Z</time>
      </trkpt>
      <trkpt lat="45.90127" lon="5.87594">
        <ele>848</ele>
        <time>2012-03-18T10:14:38Z</time>
      </trkpt>
      <trkpt lat="45.90143" lon="5.87579">
        <ele>855</ele>
        <time>2012-03-18T10:14:43Z</time>
      </trkpt>
      <trkpt lat="45.90161" lon="5.87572">
        <ele>852</ele>
        <time>2012-03-18T10:14:48Z</time>
      </trkpt>
      <trkpt lat="45.90175" lon="5.87573">
        <ele>848</ele>
        <time>2012-03-18T10:14:52Z</time>
      </trkpt>
      <trkpt lat="45.90182" lon="5.87582">
        <ele>848</ele>
        <time>2012-03-18T10:14:56Z</time>
      </trkpt>
      <trkpt lat="45.90199" lon="5.87594">
        <ele>838</ele>
        <time>2012-03-18T10:15:02Z</time>
      </trkpt>
      <trkpt lat="45.90209" lon="5.87603">
        <ele>837</ele>
        <time>2012-03-18T10:15:05Z</time>
      </trkpt>
      <trkpt lat="45.90227" lon="5.87623">
        <ele>834</ele>
        <time>2012-03-18T10:15:11Z</time>
      </trkpt>
      <trkpt lat="45.90245" lon="5.87636">
        <ele>831</ele>
        <time>2012-03-18T10:15:16Z</time>
      </trkpt>
      <trkpt lat="45.90258" lon="5.87651">
        <ele>825</ele>
        <time>2012-03-18T10:15:21Z</time>
      </trkpt>
      <trkpt lat="45.9027" lon="5.87652">
        <ele>826</ele>
        <time>2012-03-18T10:15:26Z</time>
      </trkpt>
      <trkpt lat="45.90279" lon="5.87654">
        <ele>826</ele>
        <time>2012-03-18T10:15:30Z</time>
      </trkpt>
      <trkpt lat="45.9028" lon="5.87665">
        <ele>825</ele>
        <time>2012-03-18T10:15:34Z</time>
      </trkpt>
      <trkpt lat="45.90278" lon="5.87675">
        <ele>815</ele>
        <time>2012-03-18T10:15:36Z</time>
      </trkpt>
      <trkpt lat="45.90266" lon="5.87698">
        <ele>813</ele>
        <time>2012-03-18T10:15:42Z</time>
      </trkpt>
      <trkpt lat="45.90255" lon="5.87701">
        <ele>813</ele>
        <time>2012-03-18T10:15:47Z</time>
      </trkpt>
      <trkpt lat="45.90241" lon="5.8771">
        <ele>817</ele>
        <time>2012-03-18T10:15:52Z</time>
      </trkpt>
      <trkpt lat="45.90224" lon="5.87721">
        <ele>817</ele>
        <time>2012-03-18T10:15:57Z</time>
      </trkpt>
      <trkpt lat="45.90212" lon="5.87739">
        <ele>817</ele>
        <time>2012-03-18T10:16:02Z</time>
      </trkpt>
      <trkpt lat="45.90208" lon="5.87747">
        <ele>817</ele>
        <time>2012-03-18T10:16:06Z</time>
      </trkpt>
      <trkpt lat="45.902" lon="5.87771">
        <ele>809</ele>
        <time>2012-03-18T10:16:11Z</time>
      </trkpt>
      <trkpt lat="45.90197" lon="5.87791">
        <ele>807</ele>
        <time>2012-03-18T10:16:15Z</time>
      </trkpt>
      <trkpt lat="45.90197" lon="5.87811">
        <ele>806</ele>
        <time>2012-03-18T10:16:20Z</time>
      </trkpt>
      <trkpt lat="45.902" lon="5.87822">
        <ele>805</ele>
        <time>2012-03-18T10:16:24Z</time>
      </trkpt>
      <trkpt lat="45.902" lon="5.87842">
        <ele>796</ele>
        <time>2012-03-18T10:16:28Z</time>
      </trkpt>
      <trkpt lat="45.902" lon="5.87869">
        <ele>793</ele>
        <time>2012-03-18T10:16:33Z</time>
      </trkpt>
      <trkpt lat="45.90198" lon="5.87893">
        <ele>791</ele>
        <time>2012-03-18T10:16:38Z</time>
      </trkpt>
      <trkpt lat="45.90199" lon="5.87908">
        <ele>790</ele>
        <time>2012-03-18T10:16:41Z</time>
      </trkpt>
      <trkpt lat="45.90209" lon="5.87916">
        <ele>789</ele>
        <time>2012-03-18T10:16:45Z</time>
      </trkpt>
      <trkpt lat="45.90217" lon="5.87924">
        <ele>777</ele>
        <time>2012-03-18T10:16:49Z</time>
      </trkpt>
      <trkpt lat="45.90233" lon="5.87928">
        <ele>776</ele>
        <time>2012-03-18T10:16:55Z</time>
      </trkpt>
      <trkpt lat="45.90244" lon="5.87941">
        <ele>775</ele>
        <time>2012-03-18T10:16:59Z</time>
      </trkpt>
      <trkpt lat="45.90246" lon="5.8797">
        <ele>771</ele>
        <time>2012-03-18T10:17:05Z</time>
      </trkpt>
      <trkpt lat="45.90247" lon="5.87982">
        <ele>768</ele>
        <time>2012-03-18T10:17:07Z</time>
      </trkpt>
      <trkpt lat="45.90245" lon="5.88009">
        <ele>758</ele>
        <time>2012-03-18T10:17:12Z</time>
      </trkpt>
      <trkpt lat="45.90237" lon="5.88025">
        <ele>754</ele>
        <time>2012-03-18T10:17:16Z</time>
      </trkpt>
      <trkpt lat="45.9023" lon="5.88036">
        <ele>752</ele>
        <time>2012-03-18T10:17:21Z</time>
      </trkpt>
      <trkpt lat="45.90229" lon="5.88038">
        <ele>751</ele>
        <time>2012-03-18T10:17:22Z</time>
      </trkpt>
      <trkpt lat="45.90229" lon="5.88043">
        <ele>750</ele>
        <time>2012-03-18T10:17:24Z</time>
      </trkpt>
      <trkpt lat="45.90233" lon="5.88052">
        <ele>748</ele>
        <time>2012-03-18T10:17:28Z</time>
      </trkpt>
      <trkpt lat="45.90241" lon="5.88053">
        <ele>747</ele>
        <time>2012-03-18T10:17:31Z</time>
      </trkpt>
      <trkpt lat="45.90255" lon="5.88058">
        <ele>743</ele>
        <time>2012-03-18T10:17:36Z</time>
      </trkpt>
      <trkpt lat="45.9027" lon="5.88057">
        <ele>744</ele>
        <time>2012-03-18T10:17:41Z</time>
      </trkpt>
      <trkpt lat="45.90281" lon="5.88056">
        <ele>745</ele>
        <time>2012-03-18T10:17:45Z</time>
      </trkpt>
      <trkpt lat="45.90292" lon="5.88076">
        <ele>743</ele>
        <time>2012-03-18T10:17:51Z</time>
      </trkpt>
      <trkpt lat="45.90295" lon="5.88096">
        <ele>728</ele>
        <time>2012-03-18T10:17:56Z</time>
      </trkpt>
      <trkpt lat="45.90296" lon="5.88113">
        <ele>726</ele>
        <time>2012-03-18T10:18:00Z</time>
      </trkpt>
      <trkpt lat="45.90297" lon="5.88129">
        <ele>724</ele>
        <time>2012-03-18T10:18:05Z</time>
      </trkpt>
      <trkpt lat="45.90289" lon="5.88139">
        <ele>722</ele>
        <time>2012-03-18T10:18:09Z</time>
      </trkpt>
      <trkpt lat="45.90286" lon="5.88143">
        <ele>722</ele>
        <time>2012-03-18T10:18:10Z</time>
      </trkpt>
      <trkpt lat="45.90277" lon="5.88152">
        <ele>720</ele>
        <time>2012-03-18T10:18:13Z</time>
      </trkpt>
      <trkpt lat="45.90259" lon="5.8816">
        <ele>716</ele>
        <time>2012-03-18T10:18:19Z</time>
      </trkpt>
      <trkpt lat="45.90242" lon="5.88165">
        <ele>715</ele>
        <time>2012-03-18T10:18:24Z</time>
      </trkpt>
      <trkpt lat="45.90221" lon="5.88171">
        <ele>704</ele>
        <time>2012-03-18T10:18:29Z</time>
      </trkpt>
      <trkpt lat="45.90205" lon="5.88177">
        <ele>703</ele>
        <time>2012-03-18T10:18:34Z</time>
      </trkpt>
      <trkpt lat="45.90191" lon="5.8818">
        <ele>703</ele>
        <time>2012-03-18T10:18:39Z</time>
      </trkpt>
      <trkpt lat="45.90172" lon="5.88184">
        <ele>703</ele>
        <time>2012-03-18T10:18:46Z</time>
      </trkpt>
      <trkpt lat="45.90157" lon="5.88186">
        <ele>701</ele>
        <time>2012-03-18T10:18:51Z</time>
      </trkpt>
      <trkpt lat="45.90143" lon="5.88195">
        <ele>698</ele>
        <time>2012-03-18T10:18:56Z</time>
      </trkpt>
      <trkpt lat="45.90127" lon="5.88203">
        <ele>696</ele>
        <time>2012-03-18T10:19:00Z</time>
      </trkpt>
      <trkpt lat="45.90113" lon="5.88204">
        <ele>696</ele>
        <time>2012-03-18T10:19:04Z</time>
      </trkpt>
      <trkpt lat="45.90101" lon="5.88199">
        <ele>697</ele>
        <time>2012-03-18T10:19:09Z</time>
      </trkpt>
      <trkpt lat="45.90086" lon="5.88199">
        <ele>698</ele>
        <time>2012-03-18T10:19:15Z</time>
      </trkpt>
      <trkpt lat="45.90083" lon="5.882">
        <ele>697</ele>
        <time>2012-03-18T10:19:16Z</time>
      </trkpt>
      <trkpt lat="45.90062" lon="5.88207">
        <ele>695</ele>
        <time>2012-03-18T10:19:22Z</time>
      </trkpt>
      <trkpt lat="45.90045" lon="5.88215">
        <ele>694</ele>
        <time>2012-03-18T10:19:27Z</time>
      </trkpt>
      <trkpt lat="45.90029" lon="5.88223">
        <ele>693</ele>
        <time>2012-03-18T10:19:32Z</time>
      </trkpt>
      <trkpt lat="45.90015" lon="5.88235">
        <ele>690</ele>
        <time>2012-03-18T10:19:36Z</time>
      </trkpt>
      <trkpt lat="45.9" lon="5.88244">
        <ele>686</ele>
        <time>2012-03-18T10:19:41Z</time>
      </trkpt>
      <trkpt lat="45.89987" lon="5.8825">
        <ele>689</ele>
        <time>2012-03-18T10:19:45Z</time>
      </trkpt>
      <trkpt lat="45.8997" lon="5.88261">
        <ele>681</ele>
        <time>2012-03-18T10:19:50Z</time>
      </trkpt>
      <trkpt lat="45.89952" lon="5.88276">
        <ele>680</ele>
        <time>2012-03-18T10:19:55Z</time>
      </trkpt>
      <trkpt lat="45.89937" lon="5.8829">
        <ele>679</ele>
        <time>2012-03-18T10:19:59Z</time>
      </trkpt>
      <trkpt lat="45.89915" lon="5.88306">
        <ele>679</ele>
        <time>2012-03-18T10:20:05Z</time>
      </trkpt>
      <trkpt lat="45.89898" lon="5.88319">
        <ele>678</ele>
        <time>2012-03-18T10:20:11Z</time>
      </trkpt>
      <trkpt lat="45.89882" lon="5.88333">
        <ele>678</ele>
        <time>2012-03-18T10:20:17Z</time>
      </trkpt>
      <trkpt lat="45.8987" lon="5.88341">
        <ele>669</ele>
        <time>2012-03-18T10:20:21Z</time>
      </trkpt>
      <trkpt lat="45.89861" lon="5.88347">
        <ele>670</ele>
        <time>2012-03-18T10:20:26Z</time>
      </trkpt>
      <trkpt lat="45.89862" lon="5.88348">
        <ele>670</ele>
        <time>2012-03-18T10:20:29Z</time>
      </trkpt>
      <trkpt lat="45.89862" lon="5.88349">
        <ele>669</ele>
        <time>2012-03-18T10:20:35Z</time>
      </trkpt>
      <trkpt lat="45.89865" lon="5.88354">
        <ele>669</ele>
        <time>2012-03-18T10:20:41Z</time>
      </trkpt>
      <trkpt lat="45.89866" lon="5.88356">
        <ele>669</ele>
        <time>2012-03-18T10:20:46Z</time>
      </trkpt>
      <trkpt lat="45.89865" lon="5.88355">
        <ele>669</ele>
        <time>2012-03-18T10:20:49Z</time>
      </trkpt>
      <trkpt lat="45.89873" lon="5.88366">
        <ele>668</ele>
        <time>2012-03-18T10:20:54Z</time>
      </trkpt>
      <trkpt lat="45.89887" lon="5.88379">
        <ele>666</ele>
        <time>2012-03-18T10:20:59Z</time>
      </trkpt>
      <trkpt lat="45.899" lon="5.88386">
        <ele>666</ele>
        <time>2012-03-18T10:21:03Z</time>
      </trkpt>
      <trkpt lat="45.89921" lon="5.88393">
        <ele>664</ele>
        <time>2012-03-18T10:21:10Z</time>
      </trkpt>
      <trkpt lat="45.89932" lon="5.88411">
        <ele>663</ele>
        <time>2012-03-18T10:21:15Z</time>
      </trkpt>
      <trkpt lat="45.89937" lon="5.88435">
        <ele>660</ele>
        <time>2012-03-18T10:21:20Z</time>
      </trkpt>
      <trkpt lat="45.8994" lon="5.88456">
        <ele>660</ele>
        <time>2012-03-18T10:21:25Z</time>
      </trkpt>
      <trkpt lat="45.8994" lon="5.88463">
        <ele>660</ele>
        <time>2012-03-18T10:21:28Z</time>
      </trkpt>
      <trkpt lat="45.89936" lon="5.88442">
        <ele>660</ele>
        <time>2012-03-18T10:21:35Z</time>
      </trkpt>
      <trkpt lat="45.89938" lon="5.88426">
        <ele>660</ele>
        <time>2012-03-18T10:21:40Z</time>
      </trkpt>
      <trkpt lat="45.89944" lon="5.88424">
        <ele>660</ele>
        <time>2012-03-18T10:21:43Z</time>
      </trkpt>
      <trkpt lat="45.89952" lon="5.88425">
        <ele>660</ele>
        <time>2012-03-18T10:21:46Z</time>
      </trkpt>
      <trkpt lat="45.89971" lon="5.88426">
        <ele>660</ele>
        <time>2012-03-18T10:21:52Z</time>
      </trkpt>
      <trkpt lat="45.89986" lon="5.88426">
        <ele>660</ele>
        <time>2012-03-18T10:21:56Z</time>
      </trkpt>
      <trkpt lat="45.89989" lon="5.88426">
        <ele>660</ele>
        <time>2012-03-18T10:21:57Z</time>
      </trkpt>
      <trkpt lat="45.90002" lon="5.88429">
        <ele>658</ele>
        <time>2012-03-18T10:22:01Z</time>
      </trkpt>
      <trkpt lat="45.90026" lon="5.8844">
        <ele>656</ele>
        <time>2012-03-18T10:22:07Z</time>
      </trkpt>
      <trkpt lat="45.90045" lon="5.88451">
        <ele>655</ele>
        <time>2012-03-18T10:22:12Z</time>
      </trkpt>
      <trkpt lat="45.90052" lon="5.88454">
        <ele>655</ele>
        <time>2012-03-18T10:22:14Z</time>
      </trkpt>
      <trkpt lat="45.9006" lon="5.88459">
        <ele>654</ele>
        <time>2012-03-18T10:22:16Z</time>
      </trkpt>
      <trkpt lat="45.90068" lon="5.88466">
        <ele>654</ele>
        <time>2012-03-18T10:22:18Z</time>
      </trkpt>
      <trkpt lat="45.90084" lon="5.88475">
        <ele>649</ele>
        <time>2012-03-18T10:22:23Z</time>
      </trkpt>
      <trkpt lat="45.90105" lon="5.88475">
        <ele>648</ele>
        <time>2012-03-18T10:22:29Z</time>
      </trkpt>
      <trkpt lat="45.90119" lon="5.88477">
        <ele>647</ele>
        <time>2012-03-18T10:22:33Z</time>
      </trkpt>
      <trkpt lat="45.90135" lon="5.88478">
        <ele>646</ele>
        <time>2012-03-18T10:22:38Z</time>
      </trkpt>
      <trkpt lat="45.90148" lon="5.88481">
        <ele>645</ele>
        <time>2012-03-18T10:22:43Z</time>
      </trkpt>
      <trkpt lat="45.90168" lon="5.88493">
        <ele>640</ele>
        <time>2012-03-18T10:22:49Z</time>
      </trkpt>
      <trkpt lat="45.90185" lon="5.88504">
        <ele>638</ele>
        <time>2012-03-18T10:22:54Z</time>
      </trkpt>
      <trkpt lat="45.90189" lon="5.88505">
        <ele>637</ele>
        <time>2012-03-18T10:22:55Z</time>
      </trkpt>
      <trkpt lat="45.90211" lon="5.88517">
        <ele>636</ele>
        <time>2012-03-18T10:23:01Z</time>
      </trkpt>
      <trkpt lat="45.90231" lon="5.88522">
        <ele>635</ele>
        <time>2012-03-18T10:23:06Z</time>
      </trkpt>
      <trkpt lat="45.90235" lon="5.88523">
        <ele>634</ele>
        <time>2012-03-18T10:23:07Z</time>
      </trkpt>
      <trkpt lat="45.90254" lon="5.88524">
        <ele>630</ele>
        <time>2012-03-18T10:23:13Z</time>
      </trkpt>
      <trkpt lat="45.90263" lon="5.88527">
        <ele>629</ele>
        <time>2012-03-18T10:23:16Z</time>
      </trkpt>
      <trkpt lat="45.9027" lon="5.88529">
        <ele>629</ele>
        <time>2012-03-18T10:23:19Z</time>
      </trkpt>
      <trkpt lat="45.90283" lon="5.88528">
        <ele>628</ele>
        <time>2012-03-18T10:23:23Z</time>
      </trkpt>
      <trkpt lat="45.90302" lon="5.88531">
        <ele>628</ele>
        <time>2012-03-18T10:23:28Z</time>
      </trkpt>
      <trkpt lat="45.9032" lon="5.88536">
        <ele>627</ele>
        <time>2012-03-18T10:23:33Z</time>
      </trkpt>
      <trkpt lat="45.90337" lon="5.88542">
        <ele>621</ele>
        <time>2012-03-18T10:23:37Z</time>
      </trkpt>
      <trkpt lat="45.90345" lon="5.88545">
        <ele>620</ele>
        <time>2012-03-18T10:23:40Z</time>
      </trkpt>
      <trkpt lat="45.9036" lon="5.88545">
        <ele>620</ele>
        <time>2012-03-18T10:23:46Z</time>
      </trkpt>
      <trkpt lat="45.9037" lon="5.88538">
        <ele>620</ele>
        <time>2012-03-18T10:23:51Z</time>
      </trkpt>
      <trkpt lat="45.90382" lon="5.88532">
        <ele>619</ele>
        <time>2012-03-18T10:23:55Z</time>
      </trkpt>
      <trkpt lat="45.90398" lon="5.88514">
        <ele>619</ele>
        <time>2012-03-18T10:24:01Z</time>
      </trkpt>
      <trkpt lat="45.90409" lon="5.88509">
        <ele>618</ele>
        <time>2012-03-18T10:24:04Z</time>
      </trkpt>
      <trkpt lat="45.90424" lon="5.88509">
        <ele>614</ele>
        <time>2012-03-18T10:24:10Z</time>
      </trkpt>
      <trkpt lat="45.90438" lon="5.8851">
        <ele>612</ele>
        <time>2012-03-18T10:24:15Z</time>
      </trkpt>
      <trkpt lat="45.90444" lon="5.8851">
        <ele>611</ele>
        <time>2012-03-18T10:24:17Z</time>
      </trkpt>
      <trkpt lat="45.90455" lon="5.88514">
        <ele>610</ele>
        <time>2012-03-18T10:24:21Z</time>
      </trkpt>
      <trkpt lat="45.90459" lon="5.88514">
        <ele>610</ele>
        <time>2012-03-18T10:24:25Z</time>
      </trkpt>
      <trkpt lat="45.90467" lon="5.88513">
        <ele>609</ele>
        <time>2012-03-18T10:24:32Z</time>
      </trkpt>
      <trkpt lat="45.90468" lon="5.88514">
        <ele>609</ele>
        <time>2012-03-18T10:24:33Z</time>
      </trkpt>
      <trkpt lat="45.90471" lon="5.88517">
        <ele>609</ele>
        <time>2012-03-18T10:24:36Z</time>
      </trkpt>
      <trkpt lat="45.90481" lon="5.88522">
        <ele>608</ele>
        <time>2012-03-18T10:24:40Z</time>
      </trkpt>
      <trkpt lat="45.90501" lon="5.88527">
        <ele>602</ele>
        <time>2012-03-18T10:24:47Z</time>
      </trkpt>
      <trkpt lat="45.90522" lon="5.88529">
        <ele>600</ele>
        <time>2012-03-18T10:24:53Z</time>
      </trkpt>
      <trkpt lat="45.90529" lon="5.88527">
        <ele>600</ele>
        <time>2012-03-18T10:24:56Z</time>
      </trkpt>
      <trkpt lat="45.90533" lon="5.8853">
        <ele>600</ele>
        <time>2012-03-18T10:25:00Z</time>
      </trkpt>
      <trkpt lat="45.90534" lon="5.88533">
        <ele>599</ele>
        <time>2012-03-18T10:25:02Z</time>
      </trkpt>
      <trkpt lat="45.90544" lon="5.88539">
        <ele>598</ele>
        <time>2012-03-18T10:25:10Z</time>
      </trkpt>
      <trkpt lat="45.90547" lon="5.88558">
        <ele>598</ele>
        <time>2012-03-18T10:25:15Z</time>
      </trkpt>
      <trkpt lat="45.90555" lon="5.88582">
        <ele>596</ele>
        <time>2012-03-18T10:25:20Z</time>
      </trkpt>
      <trkpt lat="45.90569" lon="5.88604">
        <ele>588</ele>
        <time>2012-03-18T10:25:24Z</time>
      </trkpt>
      <trkpt lat="45.9058" lon="5.88618">
        <ele>587</ele>
        <time>2012-03-18T10:25:28Z</time>
      </trkpt>
      <trkpt lat="45.90587" lon="5.88621">
        <ele>582</ele>
        <time>2012-03-18T10:25:30Z</time>
      </trkpt>
      <trkpt lat="45.90593" lon="5.88626">
        <ele>581</ele>
        <time>2012-03-18T10:25:36Z</time>
      </trkpt>
      <trkpt lat="45.906" lon="5.88625">
        <ele>581</ele>
        <time>2012-03-18T10:26:29Z</time>
      </trkpt>
      <trkpt lat="45.90595" lon="5.88623">
        <ele>582</ele>
        <time>2012-03-18T10:26:33Z</time>
      </trkpt>
      <trkpt lat="45.90592" lon="5.88614">
        <ele>583</ele>
        <time>2012-03-18T10:26:39Z</time>
      </trkpt>
      <trkpt lat="45.90591" lon="5.88612">
        <ele>583</ele>
        <time>2012-03-18T10:26:40Z</time>
      </trkpt>
      <trkpt lat="45.90589" lon="5.88603">
        <ele>585</ele>
        <time>2012-03-18T10:26:45Z</time>
      </trkpt>
      <trkpt lat="45.90587" lon="5.88588">
        <ele>589</ele>
        <time>2012-03-18T10:26:53Z</time>
      </trkpt>
      <trkpt lat="45.90587" lon="5.88581">
        <ele>591</ele>
        <time>2012-03-18T10:26:57Z</time>
      </trkpt>
      <trkpt lat="45.90588" lon="5.88571">
        <ele>591</ele>
        <time>2012-03-18T10:27:02Z</time>
      </trkpt>
      <trkpt lat="45.90588" lon="5.88563">
        <ele>591</ele>
        <time>2012-03-18T10:27:07Z</time>
      </trkpt>
      <trkpt lat="45.90588" lon="5.88553">
        <ele>591</ele>
        <time>2012-03-18T10:27:13Z</time>
      </trkpt>
      <trkpt lat="45.90589" lon="5.88548">
        <ele>591</ele>
        <time>2012-03-18T10:27:16Z</time>
      </trkpt>
      <trkpt lat="45.90588" lon="5.88544">
        <ele>591</ele>
        <time>2012-03-18T10:27:20Z</time>
      </trkpt>
      <trkpt lat="45.90588" lon="5.88539">
        <ele>592</ele>
        <time>2012-03-18T10:27:26Z</time>
      </trkpt>
      <trkpt lat="45.9059" lon="5.88532">
        <ele>592</ele>
        <time>2012-03-18T10:27:30Z</time>
      </trkpt>
      <trkpt lat="45.90596" lon="5.88515">
        <ele>593</ele>
        <time>2012-03-18T10:27:37Z</time>
      </trkpt>
      <trkpt lat="45.90607" lon="5.88488">
        <ele>598</ele>
        <time>2012-03-18T10:27:44Z</time>
      </trkpt>
      <trkpt lat="45.90615" lon="5.88467">
        <ele>599</ele>
        <time>2012-03-18T10:27:50Z</time>
      </trkpt>
      <trkpt lat="45.90623" lon="5.88447">
        <ele>599</ele>
        <time>2012-03-18T10:27:55Z</time>
      </trkpt>
      <trkpt lat="45.90636" lon="5.88429">
        <ele>599</ele>
        <time>2012-03-18T10:28:01Z</time>
      </trkpt>
      <trkpt lat="45.90642" lon="5.88421">
        <ele>598</ele>
        <time>2012-03-18T10:28:04Z</time>
      </trkpt>
      <trkpt lat="45.90649" lon="5.88406">
        <ele>607</ele>
        <time>2012-03-18T10:28:09Z</time>
      </trkpt>
      <trkpt lat="45.90655" lon="5.88393">
        <ele>609</ele>
        <time>2012-03-18T10:28:14Z</time>
      </trkpt>
      <trkpt lat="45.90658" lon="5.88384">
        <ele>611</ele>
        <time>2012-03-18T10:28:17Z</time>
      </trkpt>
      <trkpt lat="45.90659" lon="5.88379">
        <ele>612</ele>
        <time>2012-03-18T10:28:19Z</time>
      </trkpt>
      <trkpt lat="45.90667" lon="5.88367">
        <ele>609</ele>
        <time>2012-03-18T10:28:24Z</time>
      </trkpt>
      <trkpt lat="45.90669" lon="5.88365">
        <ele>609</ele>
        <time>2012-03-18T10:28:25Z</time>
      </trkpt>
      <trkpt lat="45.90674" lon="5.88362">
        <ele>610</ele>
        <time>2012-03-18T10:28:27Z</time>
      </trkpt>
      <trkpt lat="45.9068" lon="5.8835">
        <ele>612</ele>
        <time>2012-03-18T10:28:32Z</time>
      </trkpt>
      <trkpt lat="45.90686" lon="5.88337">
        <ele>613</ele>
        <time>2012-03-18T10:28:37Z</time>
      </trkpt>
      <trkpt lat="45.90693" lon="5.8833">
        <ele>623</ele>
        <time>2012-03-18T10:28:41Z</time>
      </trkpt>
      <trkpt lat="45.907" lon="5.88317">
        <ele>624</ele>
        <time>2012-03-18T10:28:47Z</time>
      </trkpt>
      <trkpt lat="45.90705" lon="5.88306">
        <ele>625</ele>
        <time>2012-03-18T10:28:53Z</time>
      </trkpt>
      <trkpt lat="45.9071" lon="5.88291">
        <ele>627</ele>
        <time>2012-03-18T10:28:59Z</time>
      </trkpt>
      <trkpt lat="45.90713" lon="5.88288">
        <ele>627</ele>
        <time>2012-03-18T10:29:01Z</time>
      </trkpt>
      <trkpt lat="45.90725" lon="5.88286">
        <ele>627</ele>
        <time>2012-03-18T10:29:07Z</time>
      </trkpt>
      <trkpt lat="45.90729" lon="5.88286">
        <ele>627</ele>
        <time>2012-03-18T10:29:10Z</time>
      </trkpt>
      <trkpt lat="45.90735" lon="5.88286">
        <ele>627</ele>
        <time>2012-03-18T10:29:14Z</time>
      </trkpt>
      <trkpt lat="45.90744" lon="5.88285">
        <ele>627</ele>
        <time>2012-03-18T10:29:19Z</time>
      </trkpt>
      <trkpt lat="45.90754" lon="5.88281">
        <ele>627</ele>
        <time>2012-03-18T10:29:26Z</time>
      </trkpt>
      <trkpt lat="45.9076" lon="5.88275">
        <ele>628</ele>
        <time>2012-03-18T10:29:31Z</time>
      </trkpt>
      <trkpt lat="45.90763" lon="5.88274">
        <ele>628</ele>
        <time>2012-03-18T10:29:33Z</time>
      </trkpt>
      <trkpt lat="45.90766" lon="5.88273">
        <ele>628</ele>
        <time>2012-03-18T10:29:35Z</time>
      </trkpt>
      <trkpt lat="45.90773" lon="5.88266">
        <ele>629</ele>
        <time>2012-03-18T10:29:41Z</time>
      </trkpt>
      <trkpt lat="45.90784" lon="5.88261">
        <ele>629</ele>
        <time>2012-03-18T10:29:48Z</time>
      </trkpt>
      <trkpt lat="45.90793" lon="5.88261">
        <ele>629</ele>
        <time>2012-03-18T10:29:52Z</time>
      </trkpt>
      <trkpt lat="45.90805" lon="5.88258">
        <ele>630</ele>
        <time>2012-03-18T10:29:59Z</time>
      </trkpt>
      <trkpt lat="45.90806" lon="5.88258">
        <ele>630</ele>
        <time>2012-03-18T10:30:00Z</time>
      </trkpt>
      <trkpt lat="45.90819" lon="5.8825">
        <ele>633</ele>
        <time>2012-03-18T10:30:08Z</time>
      </trkpt>
      <trkpt lat="45.90826" lon="5.88242">
        <ele>642</ele>
        <time>2012-03-18T10:30:13Z</time>
      </trkpt>
      <trkpt lat="45.90837" lon="5.88231">
        <ele>647</ele>
        <time>2012-03-18T10:30:21Z</time>
      </trkpt>
      <trkpt lat="45.90846" lon="5.88225">
        <ele>649</ele>
        <time>2012-03-18T10:30:26Z</time>
      </trkpt>
      <trkpt lat="45.90862" lon="5.88228">
        <ele>650</ele>
        <time>2012-03-18T10:30:33Z</time>
      </trkpt>
      <trkpt lat="45.9087" lon="5.8823">
        <ele>651</ele>
        <time>2012-03-18T10:30:38Z</time>
      </trkpt>
      <trkpt lat="45.90873" lon="5.88232">
        <ele>651</ele>
        <time>2012-03-18T10:30:40Z</time>
      </trkpt>
      <trkpt lat="45.90882" lon="5.88231">
        <ele>651</ele>
        <time>2012-03-18T10:30:46Z</time>
      </trkpt>
      <trkpt lat="45.90895" lon="5.88227">
        <ele>652</ele>
        <time>2012-03-18T10:30:53Z</time>
      </trkpt>
      <trkpt lat="45.90899" lon="5.88225">
        <ele>652</ele>
        <time>2012-03-18T10:30:55Z</time>
      </trkpt>
      <trkpt lat="45.90902" lon="5.88222">
        <ele>653</ele>
        <time>2012-03-18T10:30:57Z</time>
      </trkpt>
      <trkpt lat="45.90905" lon="5.8822">
        <ele>653</ele>
        <time>2012-03-18T10:30:59Z</time>
      </trkpt>
      <trkpt lat="45.90916" lon="5.88213">
        <ele>654</ele>
        <time>2012-03-18T10:31:06Z</time>
      </trkpt>
      <trkpt lat="45.90923" lon="5.88213">
        <ele>656</ele>
        <time>2012-03-18T10:31:10Z</time>
      </trkpt>
      <trkpt lat="45.90927" lon="5.88211">
        <ele>657</ele>
        <time>2012-03-18T10:31:13Z</time>
      </trkpt>
      <trkpt lat="45.90938" lon="5.88204">
        <ele>658</ele>
        <time>2012-03-18T10:31:20Z</time>
      </trkpt>
      <trkpt lat="45.90942" lon="5.88199">
        <ele>659</ele>
        <time>2012-03-18T10:31:23Z</time>
      </trkpt>
      <trkpt lat="45.90944" lon="5.88195">
        <ele>659</ele>
        <time>2012-03-18T10:31:25Z</time>
      </trkpt>
      <trkpt lat="45.9095" lon="5.88187">
        <ele>660</ele>
        <time>2012-03-18T10:31:31Z</time>
      </trkpt>
      <trkpt lat="45.90954" lon="5.88184">
        <ele>660</ele>
        <time>2012-03-18T10:31:33Z</time>
      </trkpt>
      <trkpt lat="45.9096" lon="5.88176">
        <ele>661</ele>
        <time>2012-03-18T10:31:38Z</time>
      </trkpt>
      <trkpt lat="45.90969" lon="5.8817">
        <ele>662</ele>
        <time>2012-03-18T10:31:45Z</time>
      </trkpt>
      <trkpt lat="45.90972" lon="5.8817">
        <ele>662</ele>
        <time>2012-03-18T10:31:47Z</time>
      </trkpt>
      <trkpt lat="45.90984" lon="5.8817">
        <ele>664</ele>
        <time>2012-03-18T10:31:55Z</time>
      </trkpt>
      <trkpt lat="45.90992" lon="5.88167">
        <ele>672</ele>
        <time>2012-03-18T10:32:01Z</time>
      </trkpt>
      <trkpt lat="45.90996" lon="5.88166">
        <ele>671</ele>
        <time>2012-03-18T10:32:10Z</time>
      </trkpt>
      <trkpt lat="45.90994" lon="5.88162">
        <ele>672</ele>
        <time>2012-03-18T10:32:17Z</time>
      </trkpt>
      <trkpt lat="45.90993" lon="5.8816">
        <ele>673</ele>
        <time>2012-03-18T10:32:20Z</time>
      </trkpt>
      <trkpt lat="45.90985" lon="5.88157">
        <ele>675</ele>
        <time>2012-03-18T10:32:26Z</time>
      </trkpt>
      <trkpt lat="45.90983" lon="5.88156">
        <ele>676</ele>
        <time>2012-03-18T10:32:27Z</time>
      </trkpt>
      <trkpt lat="45.90971" lon="5.88151">
        <ele>678</ele>
        <time>2012-03-18T10:32:32Z</time>
      </trkpt>
      <trkpt lat="45.9096" lon="5.88151">
        <ele>678</ele>
        <time>2012-03-18T10:32:37Z</time>
      </trkpt>
      <trkpt lat="45.90949" lon="5.88153">
        <ele>677</ele>
        <time>2012-03-18T10:32:42Z</time>
      </trkpt>
      <trkpt lat="45.90941" lon="5.88151">
        <ele>677</ele>
        <time>2012-03-18T10:32:47Z</time>
      </trkpt>
      <trkpt lat="45.90934" lon="5.88141">
        <ele>678</ele>
        <time>2012-03-18T10:32:53Z</time>
      </trkpt>
      <trkpt lat="45.90926" lon="5.88133">
        <ele>679</ele>
        <time>2012-03-18T10:32:58Z</time>
      </trkpt>
      <trkpt lat="45.90921" lon="5.88125">
        <ele>681</ele>
        <time>2012-03-18T10:33:04Z</time>
      </trkpt>
      <trkpt lat="45.90921" lon="5.88124">
        <ele>681</ele>
        <time>2012-03-18T10:33:05Z</time>
      </trkpt>
      <trkpt lat="45.90916" lon="5.88122">
        <ele>679</ele>
        <time>2012-03-18T10:33:09Z</time>
      </trkpt>
      <trkpt lat="45.90912" lon="5.88121">
        <ele>680</ele>
        <time>2012-03-18T10:33:12Z</time>
      </trkpt>
      <trkpt lat="45.90903" lon="5.8812">
        <ele>680</ele>
        <time>2012-03-18T10:33:18Z</time>
      </trkpt>
      <trkpt lat="45.90895" lon="5.88112">
        <ele>681</ele>
        <time>2012-03-18T10:33:24Z</time>
      </trkpt>
      <trkpt lat="45.90888" lon="5.88108">
        <ele>681</ele>
        <time>2012-03-18T10:33:28Z</time>
      </trkpt>
      <trkpt lat="45.90875" lon="5.88097">
        <ele>681</ele>
        <time>2012-03-18T10:33:36Z</time>
      </trkpt>
      <trkpt lat="45.90873" lon="5.88095">
        <ele>681</ele>
        <time>2012-03-18T10:33:37Z</time>
      </trkpt>
      <trkpt lat="45.9086" lon="5.88088">
        <ele>682</ele>
        <time>2012-03-18T10:33:44Z</time>
      </trkpt>
      <trkpt lat="45.90852" lon="5.88082">
        <ele>694</ele>
        <time>2012-03-18T10:33:49Z</time>
      </trkpt>
      <trkpt lat="45.90845" lon="5.88078">
        <ele>692</ele>
        <time>2012-03-18T10:33:54Z</time>
      </trkpt>
      <trkpt lat="45.90836" lon="5.88069">
        <ele>693</ele>
        <time>2012-03-18T10:34:00Z</time>
      </trkpt>
      <trkpt lat="45.90828" lon="5.88063">
        <ele>693</ele>
        <time>2012-03-18T10:34:05Z</time>
      </trkpt>
      <trkpt lat="45.9082" lon="5.88053">
        <ele>696</ele>
        <time>2012-03-18T10:34:10Z</time>
      </trkpt>
      <trkpt lat="45.90818" lon="5.88049">
        <ele>696</ele>
        <time>2012-03-18T10:34:12Z</time>
      </trkpt>
      <trkpt lat="45.90808" lon="5.88038">
        <ele>698</ele>
        <time>2012-03-18T10:34:18Z</time>
      </trkpt>
      <trkpt lat="45.90807" lon="5.88028">
        <ele>700</ele>
        <time>2012-03-18T10:34:23Z</time>
      </trkpt>
      <trkpt lat="45.90805" lon="5.88018">
        <ele>701</ele>
        <time>2012-03-18T10:34:27Z</time>
      </trkpt>
      <trkpt lat="45.90803" lon="5.88004">
        <ele>702</ele>
        <time>2012-03-18T10:34:32Z</time>
      </trkpt>
      <trkpt lat="45.90802" lon="5.88001">
        <ele>702</ele>
        <time>2012-03-18T10:34:33Z</time>
      </trkpt>
      <trkpt lat="45.90799" lon="5.87984">
        <ele>714</ele>
        <time>2012-03-18T10:34:39Z</time>
      </trkpt>
      <trkpt lat="45.908" lon="5.87974">
        <ele>715</ele>
        <time>2012-03-18T10:34:44Z</time>
      </trkpt>
      <trkpt lat="45.908" lon="5.8797">
        <ele>715</ele>
        <time>2012-03-18T10:34:46Z</time>
      </trkpt>
      <trkpt lat="45.90801" lon="5.87964">
        <ele>716</ele>
        <time>2012-03-18T10:34:50Z</time>
      </trkpt>
      <trkpt lat="45.90804" lon="5.87955">
        <ele>717</ele>
        <time>2012-03-18T10:34:57Z</time>
      </trkpt>
      <trkpt lat="45.90805" lon="5.87953">
        <ele>717</ele>
        <time>2012-03-18T10:34:58Z</time>
      </trkpt>
      <trkpt lat="45.90808" lon="5.87947">
        <ele>718</ele>
        <time>2012-03-18T10:35:03Z</time>
      </trkpt>
      <trkpt lat="45.90812" lon="5.87946">
        <ele>718</ele>
        <time>2012-03-18T10:35:05Z</time>
      </trkpt>
      <trkpt lat="45.90822" lon="5.87939">
        <ele>719</ele>
        <time>2012-03-18T10:35:12Z</time>
      </trkpt>
      <trkpt lat="45.90823" lon="5.87938">
        <ele>720</ele>
        <time>2012-03-18T10:35:13Z</time>
      </trkpt>
      <trkpt lat="45.90825" lon="5.87935">
        <ele>720</ele>
        <time>2012-03-18T10:35:16Z</time>
      </trkpt>
      <trkpt lat="45.90826" lon="5.8793">
        <ele>721</ele>
        <time>2012-03-18T10:35:20Z</time>
      </trkpt>
      <trkpt lat="45.90833" lon="5.87931">
        <ele>721</ele>
        <time>2012-03-18T10:35:24Z</time>
      </trkpt>
      <trkpt lat="45.90838" lon="5.87928">
        <ele>724</ele>
        <time>2012-03-18T10:35:29Z</time>
      </trkpt>
      <trkpt lat="45.90844" lon="5.87924">
        <ele>724</ele>
        <time>2012-03-18T10:35:35Z</time>
      </trkpt>
      <trkpt lat="45.90844" lon="5.87923">
        <ele>724</ele>
        <time>2012-03-18T10:35:36Z</time>
      </trkpt>
      <trkpt lat="45.90847" lon="5.8792">
        <ele>725</ele>
        <time>2012-03-18T10:35:39Z</time>
      </trkpt>
      <trkpt lat="45.90852" lon="5.87915">
        <ele>735</ele>
        <time>2012-03-18T10:35:45Z</time>
      </trkpt>
      <trkpt lat="45.90863" lon="5.87919">
        <ele>725</ele>
        <time>2012-03-18T10:35:51Z</time>
      </trkpt>
      <trkpt lat="45.90871" lon="5.87928">
        <ele>726</ele>
        <time>2012-03-18T10:35:56Z</time>
      </trkpt>
      <trkpt lat="45.90872" lon="5.87932">
        <ele>726</ele>
        <time>2012-03-18T10:35:58Z</time>
      </trkpt>
      <trkpt lat="45.90875" lon="5.87936">
        <ele>726</ele>
        <time>2012-03-18T10:36:00Z</time>
      </trkpt>
      <trkpt lat="45.90881" lon="5.87946">
        <ele>725</ele>
        <time>2012-03-18T10:36:07Z</time>
      </trkpt>
      <trkpt lat="45.90884" lon="5.87947">
        <ele>725</ele>
        <time>2012-03-18T10:36:11Z</time>
      </trkpt>
      <trkpt lat="45.9089" lon="5.8795">
        <ele>725</ele>
        <time>2012-03-18T10:36:17Z</time>
      </trkpt>
      <trkpt lat="45.90895" lon="5.87952">
        <ele>725</ele>
        <time>2012-03-18T10:36:22Z</time>
      </trkpt>
      <trkpt lat="45.90898" lon="5.87951">
        <ele>726</ele>
        <time>2012-03-18T10:36:24Z</time>
      </trkpt>
      <trkpt lat="45.90908" lon="5.87948">
        <ele>727</ele>
        <time>2012-03-18T10:36:30Z</time>
      </trkpt>
      <trkpt lat="45.90914" lon="5.87947">
        <ele>728</ele>
        <time>2012-03-18T10:36:33Z</time>
      </trkpt>
      <trkpt lat="45.90922" lon="5.87941">
        <ele>736</ele>
        <time>2012-03-18T10:36:40Z</time>
      </trkpt>
      <trkpt lat="45.90928" lon="5.87942">
        <ele>736</ele>
        <time>2012-03-18T10:36:44Z</time>
      </trkpt>
      <trkpt lat="45.90933" lon="5.87943">
        <ele>736</ele>
        <time>2012-03-18T10:36:47Z</time>
      </trkpt>
      <trkpt lat="45.90939" lon="5.87941">
        <ele>736</ele>
        <time>2012-03-18T10:36:51Z</time>
      </trkpt>
      <trkpt lat="45.9095" lon="5.87941">
        <ele>737</ele>
        <time>2012-03-18T10:36:59Z</time>
      </trkpt>
      <trkpt lat="45.90955" lon="5.87938">
        <ele>738</ele>
        <time>2012-03-18T10:37:05Z</time>
      </trkpt>
      <trkpt lat="45.90962" lon="5.87932">
        <ele>739</ele>
        <time>2012-03-18T10:37:11Z</time>
      </trkpt>
      <trkpt lat="45.90965" lon="5.87929">
        <ele>740</ele>
        <time>2012-03-18T10:37:16Z</time>
      </trkpt>
      <trkpt lat="45.90966" lon="5.87928">
        <ele>740</ele>
        <time>2012-03-18T10:37:17Z</time>
      </trkpt>
      <trkpt lat="45.90974" lon="5.87927">
        <ele>742</ele>
        <time>2012-03-18T10:37:23Z</time>
      </trkpt>
      <trkpt lat="45.90976" lon="5.87929">
        <ele>742</ele>
        <time>2012-03-18T10:37:25Z</time>
      </trkpt>
      <trkpt lat="45.90983" lon="5.87935">
        <ele>742</ele>
        <time>2012-03-18T10:37:31Z</time>
      </trkpt>
      <trkpt lat="45.90989" lon="5.87937">
        <ele>742</ele>
        <time>2012-03-18T10:37:35Z</time>
      </trkpt>
      <trkpt lat="45.90994" lon="5.87936">
        <ele>744</ele>
        <time>2012-03-18T10:37:39Z</time>
      </trkpt>
      <trkpt lat="45.91004" lon="5.87933">
        <ele>749</ele>
        <time>2012-03-18T10:37:45Z</time>
      </trkpt>
      <trkpt lat="45.91014" lon="5.87933">
        <ele>749</ele>
        <time>2012-03-18T10:37:49Z</time>
      </trkpt>
      <trkpt lat="45.91027" lon="5.87926">
        <ele>749</ele>
        <time>2012-03-18T10:37:56Z</time>
      </trkpt>
      <trkpt lat="45.91037" lon="5.87919">
        <ele>749</ele>
        <time>2012-03-18T10:38:02Z</time>
      </trkpt>
      <trkpt lat="45.9104" lon="5.87916">
        <ele>765</ele>
        <time>2012-03-18T10:38:04Z</time>
      </trkpt>
      <trkpt lat="45.91042" lon="5.87915">
        <ele>765</ele>
        <time>2012-03-18T10:38:06Z</time>
      </trkpt>
      <trkpt lat="45.91057" lon="5.87912">
        <ele>765</ele>
        <time>2012-03-18T10:38:12Z</time>
      </trkpt>
      <trkpt lat="45.91065" lon="5.87909">
        <ele>765</ele>
        <time>2012-03-18T10:38:15Z</time>
      </trkpt>
      <trkpt lat="45.91069" lon="5.87908">
        <ele>765</ele>
        <time>2012-03-18T10:38:17Z</time>
      </trkpt>
      <trkpt lat="45.91077" lon="5.87902">
        <ele>765</ele>
        <time>2012-03-18T10:38:23Z</time>
      </trkpt>
      <trkpt lat="45.91078" lon="5.87901">
        <ele>765</ele>
        <time>2012-03-18T10:38:24Z</time>
      </trkpt>
      <trkpt lat="45.91083" lon="5.87897">
        <ele>768</ele>
        <time>2012-03-18T10:38:28Z</time>
      </trkpt>
      <trkpt lat="45.91091" lon="5.87892">
        <ele>769</ele>
        <time>2012-03-18T10:38:35Z</time>
      </trkpt>
      <trkpt lat="45.91094" lon="5.87891">
        <ele>770</ele>
        <time>2012-03-18T10:38:38Z</time>
      </trkpt>
      <trkpt lat="45.91099" lon="5.87885">
        <ele>771</ele>
        <time>2012-03-18T10:38:43Z</time>
      </trkpt>
      <trkpt lat="45.91106" lon="5.87882">
        <ele>772</ele>
        <time>2012-03-18T10:38:48Z</time>
      </trkpt>
      <trkpt lat="45.91112" lon="5.87879">
        <ele>773</ele>
        <time>2012-03-18T10:38:53Z</time>
      </trkpt>
      <trkpt lat="45.91114" lon="5.87876">
        <ele>773</ele>
        <time>2012-03-18T10:38:57Z</time>
      </trkpt>
      <trkpt lat="45.91119" lon="5.87873">
        <ele>774</ele>
        <time>2012-03-18T10:39:02Z</time>
      </trkpt>
      <trkpt lat="45.91124" lon="5.87868">
        <ele>775</ele>
        <time>2012-03-18T10:39:08Z</time>
      </trkpt>
      <trkpt lat="45.91128" lon="5.87864">
        <ele>775</ele>
        <time>2012-03-18T10:39:12Z</time>
      </trkpt>
      <trkpt lat="45.91132" lon="5.8786">
        <ele>776</ele>
        <time>2012-03-18T10:39:18Z</time>
      </trkpt>
      <trkpt lat="45.91147" lon="5.87858">
        <ele>777</ele>
        <time>2012-03-18T10:39:28Z</time>
      </trkpt>
      <trkpt lat="45.91156" lon="5.87854">
        <ele>779</ele>
        <time>2012-03-18T10:39:32Z</time>
      </trkpt>
      <trkpt lat="45.91168" lon="5.87853">
        <ele>779</ele>
        <time>2012-03-18T10:39:37Z</time>
      </trkpt>
      <trkpt lat="45.91178" lon="5.87848">
        <ele>780</ele>
        <time>2012-03-18T10:39:44Z</time>
      </trkpt>
      <trkpt lat="45.91186" lon="5.87846">
        <ele>779</ele>
        <time>2012-03-18T10:39:49Z</time>
      </trkpt>
      <trkpt lat="45.91193" lon="5.87841">
        <ele>779</ele>
        <time>2012-03-18T10:39:55Z</time>
      </trkpt>
      <trkpt lat="45.91194" lon="5.87841">
        <ele>779</ele>
        <time>2012-03-18T10:39:56Z</time>
      </trkpt>
      <trkpt lat="45.91195" lon="5.87838">
        <ele>779</ele>
        <time>2012-03-18T10:39:59Z</time>
      </trkpt>
      <trkpt lat="45.91195" lon="5.87839">
        <ele>779</ele>
        <time>2012-03-18T10:40:06Z</time>
      </trkpt>
      <trkpt lat="45.91202" lon="5.87839">
        <ele>778</ele>
        <time>2012-03-18T10:40:11Z</time>
      </trkpt>
      <trkpt lat="45.91213" lon="5.87839">
        <ele>777</ele>
        <time>2012-03-18T10:40:16Z</time>
      </trkpt>
      <trkpt lat="45.91217" lon="5.87839">
        <ele>777</ele>
        <time>2012-03-18T10:40:19Z</time>
      </trkpt>
      <trkpt lat="45.91221" lon="5.87838">
        <ele>778</ele>
        <time>2012-03-18T10:40:23Z</time>
      </trkpt>
      <trkpt lat="45.91229" lon="5.8784">
        <ele>778</ele>
        <time>2012-03-18T10:40:28Z</time>
      </trkpt>
      <trkpt lat="45.91239" lon="5.87851">
        <ele>777</ele>
        <time>2012-03-18T10:40:33Z</time>
      </trkpt>
      <trkpt lat="45.91248" lon="5.8786">
        <ele>776</ele>
        <time>2012-03-18T10:40:37Z</time>
      </trkpt>
      <trkpt lat="45.9126" lon="5.87858">
        <ele>774</ele>
        <time>2012-03-18T10:40:41Z</time>
      </trkpt>
      <trkpt lat="45.91276" lon="5.87856">
        <ele>774</ele>
        <time>2012-03-18T10:40:45Z</time>
      </trkpt>
      <trkpt lat="45.9129" lon="5.87848">
        <ele>774</ele>
        <time>2012-03-18T10:40:50Z</time>
      </trkpt>
      <trkpt lat="45.913" lon="5.87849">
        <ele>774</ele>
        <time>2012-03-18T10:40:56Z</time>
      </trkpt>
      <trkpt lat="45.91308" lon="5.87852">
        <ele>773</ele>
        <time>2012-03-18T10:40:59Z</time>
      </trkpt>
      <trkpt lat="45.91312" lon="5.87855">
        <ele>773</ele>
        <time>2012-03-18T10:41:01Z</time>
      </trkpt>
      <trkpt lat="45.91318" lon="5.87868">
        <ele>771</ele>
        <time>2012-03-18T10:41:07Z</time>
      </trkpt>
      <trkpt lat="45.9132" lon="5.87879">
        <ele>769</ele>
        <time>2012-03-18T10:41:12Z</time>
      </trkpt>
      <trkpt lat="45.91321" lon="5.87881">
        <ele>769</ele>
        <time>2012-03-18T10:41:13Z</time>
      </trkpt>
      <trkpt lat="45.91327" lon="5.87886">
        <ele>768</ele>
        <time>2012-03-18T10:41:19Z</time>
      </trkpt>
      <trkpt lat="45.91329" lon="5.87885">
        <ele>768</ele>
        <time>2012-03-18T10:41:22Z</time>
      </trkpt>
      <trkpt lat="45.91331" lon="5.87886">
        <ele>768</ele>
        <time>2012-03-18T10:41:24Z</time>
      </trkpt>
      <trkpt lat="45.91334" lon="5.87886">
        <ele>768</ele>
        <time>2012-03-18T10:41:30Z</time>
      </trkpt>
      <trkpt lat="45.91335" lon="5.87887">
        <ele>768</ele>
        <time>2012-03-18T10:41:31Z</time>
      </trkpt>
      <trkpt lat="45.91337" lon="5.87889">
        <ele>768</ele>
        <time>2012-03-18T10:41:33Z</time>
      </trkpt>
      <trkpt lat="45.91342" lon="5.87896">
        <ele>766</ele>
        <time>2012-03-18T10:41:37Z</time>
      </trkpt>
      <trkpt lat="45.91348" lon="5.87903">
        <ele>765</ele>
        <time>2012-03-18T10:41:41Z</time>
      </trkpt>
      <trkpt lat="45.91356" lon="5.8791">
        <ele>766</ele>
        <time>2012-03-18T10:41:52Z</time>
      </trkpt>
      <trkpt lat="45.91348" lon="5.87907">
        <ele>765</ele>
        <time>2012-03-18T10:41:57Z</time>
      </trkpt>
      <trkpt lat="45.91334" lon="5.87895">
        <ele>766</ele>
        <time>2012-03-18T10:42:04Z</time>
      </trkpt>
      <trkpt lat="45.9133" lon="5.87893">
        <ele>766</ele>
        <time>2012-03-18T10:42:06Z</time>
      </trkpt>
      <trkpt lat="45.91324" lon="5.8789">
        <ele>767</ele>
        <time>2012-03-18T10:42:11Z</time>
      </trkpt>
      <trkpt lat="45.91324" lon="5.87888">
        <ele>768</ele>
        <time>2012-03-18T10:42:12Z</time>
      </trkpt>
      <trkpt lat="45.91323" lon="5.87883">
        <ele>769</ele>
        <time>2012-03-18T10:42:15Z</time>
      </trkpt>
      <trkpt lat="45.91324" lon="5.87875">
        <ele>770</ele>
        <time>2012-03-18T10:42:21Z</time>
      </trkpt>
      <trkpt lat="45.91323" lon="5.87872">
        <ele>771</ele>
        <time>2012-03-18T10:42:24Z</time>
      </trkpt>
      <trkpt lat="45.91323" lon="5.87868">
        <ele>771</ele>
        <time>2012-03-18T10:42:28Z</time>
      </trkpt>
      <trkpt lat="45.91321" lon="5.87862">
        <ele>772</ele>
        <time>2012-03-18T10:42:35Z</time>
      </trkpt>
      <trkpt lat="45.91317" lon="5.87859">
        <ele>773</ele>
        <time>2012-03-18T10:42:41Z</time>
      </trkpt>
      <trkpt lat="45.91316" lon="5.87859">
        <ele>773</ele>
        <time>2012-03-18T10:42:42Z</time>
      </trkpt>
      <trkpt lat="45.9131" lon="5.87855">
        <ele>773</ele>
        <time>2012-03-18T10:42:50Z</time>
      </trkpt>
      <trkpt lat="45.91309" lon="5.87855">
        <ele>773</ele>
        <time>2012-03-18T10:42:52Z</time>
      </trkpt>
      <trkpt lat="45.91301" lon="5.87852">
        <ele>773</ele>
        <time>2012-03-18T10:43:00Z</time>
      </trkpt>
      <trkpt lat="45.91296" lon="5.87854">
        <ele>773</ele>
        <time>2012-03-18T10:43:04Z</time>
      </trkpt>
      <trkpt lat="45.91286" lon="5.8786">
        <ele>773</ele>
        <time>2012-03-18T10:43:12Z</time>
      </trkpt>
      <trkpt lat="45.91281" lon="5.87862">
        <ele>773</ele>
        <time>2012-03-18T10:43:18Z</time>
      </trkpt>
      <trkpt lat="45.9128" lon="5.87865">
        <ele>772</ele>
        <time>2012-03-18T10:43:21Z</time>
      </trkpt>
      <trkpt lat="45.91274" lon="5.87869">
        <ele>772</ele>
        <time>2012-03-18T10:43:26Z</time>
      </trkpt>
      <trkpt lat="45.9127" lon="5.87869">
        <ele>772</ele>
        <time>2012-03-18T10:43:29Z</time>
      </trkpt>
      <trkpt lat="45.91262" lon="5.87863">
        <ele>773</ele>
        <time>2012-03-18T10:43:35Z</time>
      </trkpt>
      <trkpt lat="45.91261" lon="5.87862">
        <ele>774</ele>
        <time>2012-03-18T10:43:36Z</time>
      </trkpt>
      <trkpt lat="45.91254" lon="5.87855">
        <ele>775</ele>
        <time>2012-03-18T10:43:42Z</time>
      </trkpt>
      <trkpt lat="45.91254" lon="5.87854">
        <ele>775</ele>
        <time>2012-03-18T10:43:43Z</time>
      </trkpt>
      <trkpt lat="45.91251" lon="5.87851">
        <ele>776</ele>
        <time>2012-03-18T10:43:46Z</time>
      </trkpt>
      <trkpt lat="45.91241" lon="5.87844">
        <ele>778</ele>
        <time>2012-03-18T10:43:52Z</time>
      </trkpt>
      <trkpt lat="45.91238" lon="5.87844">
        <ele>778</ele>
        <time>2012-03-18T10:43:53Z</time>
      </trkpt>
      <trkpt lat="45.91223" lon="5.87845">
        <ele>777</ele>
        <time>2012-03-18T10:43:59Z</time>
      </trkpt>
      <trkpt lat="45.9121" lon="5.87843">
        <ele>777</ele>
        <time>2012-03-18T10:44:04Z</time>
      </trkpt>
      <trkpt lat="45.91207" lon="5.87838">
        <ele>778</ele>
        <time>2012-03-18T10:44:08Z</time>
      </trkpt>
      <trkpt lat="45.91208" lon="5.87837">
        <ele>778</ele>
        <time>2012-03-18T10:44:09Z</time>
      </trkpt>
      <trkpt lat="45.91217" lon="5.87824">
        <ele>792</ele>
        <time>2012-03-18T10:44:17Z</time>
      </trkpt>
      <trkpt lat="45.91218" lon="5.87821">
        <ele>792</ele>
        <time>2012-03-18T10:44:19Z</time>
      </trkpt>
      <trkpt lat="45.91226" lon="5.87814">
        <ele>792</ele>
        <time>2012-03-18T10:44:25Z</time>
      </trkpt>
      <trkpt lat="45.91235" lon="5.87807">
        <ele>793</ele>
        <time>2012-03-18T10:44:30Z</time>
      </trkpt>
      <trkpt lat="45.91245" lon="5.878">
        <ele>793</ele>
        <time>2012-03-18T10:44:37Z</time>
      </trkpt>
      <trkpt lat="45.91254" lon="5.87794">
        <ele>792</ele>
        <time>2012-03-18T10:44:43Z</time>
      </trkpt>
      <trkpt lat="45.91261" lon="5.8779">
        <ele>792</ele>
        <time>2012-03-18T10:44:47Z</time>
      </trkpt>
      <trkpt lat="45.91268" lon="5.87785">
        <ele>793</ele>
        <time>2012-03-18T10:44:53Z</time>
      </trkpt>
      <trkpt lat="45.91278" lon="5.87782">
        <ele>793</ele>
        <time>2012-03-18T10:44:58Z</time>
      </trkpt>
      <trkpt lat="45.91282" lon="5.87781">
        <ele>794</ele>
        <time>2012-03-18T10:45:00Z</time>
      </trkpt>
      <trkpt lat="45.91293" lon="5.87776">
        <ele>794</ele>
        <time>2012-03-18T10:45:07Z</time>
      </trkpt>
      <trkpt lat="45.913" lon="5.87771">
        <ele>795</ele>
        <time>2012-03-18T10:45:12Z</time>
      </trkpt>
      <trkpt lat="45.91307" lon="5.87765">
        <ele>796</ele>
        <time>2012-03-18T10:45:17Z</time>
      </trkpt>
      <trkpt lat="45.91311" lon="5.8776">
        <ele>797</ele>
        <time>2012-03-18T10:45:20Z</time>
      </trkpt>
      <trkpt lat="45.91317" lon="5.87751">
        <ele>798</ele>
        <time>2012-03-18T10:45:26Z</time>
      </trkpt>
      <trkpt lat="45.91324" lon="5.87742">
        <ele>808</ele>
        <time>2012-03-18T10:45:31Z</time>
      </trkpt>
      <trkpt lat="45.91325" lon="5.87739">
        <ele>809</ele>
        <time>2012-03-18T10:45:33Z</time>
      </trkpt>
      <trkpt lat="45.91333" lon="5.87732">
        <ele>810</ele>
        <time>2012-03-18T10:45:39Z</time>
      </trkpt>
      <trkpt lat="45.91337" lon="5.87726">
        <ele>812</ele>
        <time>2012-03-18T10:45:44Z</time>
      </trkpt>
      <trkpt lat="45.91343" lon="5.87724">
        <ele>813</ele>
        <time>2012-03-18T10:45:49Z</time>
      </trkpt>
      <trkpt lat="45.91349" lon="5.8772">
        <ele>814</ele>
        <time>2012-03-18T10:45:53Z</time>
      </trkpt>
      <trkpt lat="45.91358" lon="5.87717">
        <ele>815</ele>
        <time>2012-03-18T10:45:58Z</time>
      </trkpt>
      <trkpt lat="45.91361" lon="5.87716">
        <ele>816</ele>
        <time>2012-03-18T10:46:00Z</time>
      </trkpt>
      <trkpt lat="45.91369" lon="5.87712">
        <ele>817</ele>
        <time>2012-03-18T10:46:07Z</time>
      </trkpt>
      <trkpt lat="45.91376" lon="5.87707">
        <ele>817</ele>
        <time>2012-03-18T10:46:12Z</time>
      </trkpt>
      <trkpt lat="45.91378" lon="5.87705">
        <ele>818</ele>
        <time>2012-03-18T10:46:14Z</time>
      </trkpt>
      <trkpt lat="45.91388" lon="5.877">
        <ele>819</ele>
        <time>2012-03-18T10:46:20Z</time>
      </trkpt>
      <trkpt lat="45.91389" lon="5.87699">
        <ele>819</ele>
        <time>2012-03-18T10:46:21Z</time>
      </trkpt>
      <trkpt lat="45.91397" lon="5.87694">
        <ele>820</ele>
        <time>2012-03-18T10:46:27Z</time>
      </trkpt>
      <trkpt lat="45.91405" lon="5.87687">
        <ele>822</ele>
        <time>2012-03-18T10:46:34Z</time>
      </trkpt>
      <trkpt lat="45.91406" lon="5.87685">
        <ele>822</ele>
        <time>2012-03-18T10:46:36Z</time>
      </trkpt>
      <trkpt lat="45.91412" lon="5.87681">
        <ele>824</ele>
        <time>2012-03-18T10:46:43Z</time>
      </trkpt>
      <trkpt lat="45.91418" lon="5.87686">
        <ele>822</ele>
        <time>2012-03-18T10:46:47Z</time>
      </trkpt>
      <trkpt lat="45.91422" lon="5.87688">
        <ele>821</ele>
        <time>2012-03-18T10:46:50Z</time>
      </trkpt>
      <trkpt lat="45.91442" lon="5.87688">
        <ele>819</ele>
        <time>2012-03-18T10:46:56Z</time>
      </trkpt>
      <trkpt lat="45.91462" lon="5.8769">
        <ele>817</ele>
        <time>2012-03-18T10:47:02Z</time>
      </trkpt>
      <trkpt lat="45.91481" lon="5.87696">
        <ele>816</ele>
        <time>2012-03-18T10:47:08Z</time>
      </trkpt>
      <trkpt lat="45.91498" lon="5.87702">
        <ele>815</ele>
        <time>2012-03-18T10:47:13Z</time>
      </trkpt>
      <trkpt lat="45.91513" lon="5.87707">
        <ele>808</ele>
        <time>2012-03-18T10:47:17Z</time>
      </trkpt>
      <trkpt lat="45.91535" lon="5.8771">
        <ele>806</ele>
        <time>2012-03-18T10:47:23Z</time>
      </trkpt>
      <trkpt lat="45.9155" lon="5.87713">
        <ele>804</ele>
        <time>2012-03-18T10:47:28Z</time>
      </trkpt>
      <trkpt lat="45.91573" lon="5.87707">
        <ele>804</ele>
        <time>2012-03-18T10:47:38Z</time>
      </trkpt>
      <trkpt lat="45.9158" lon="5.87708">
        <ele>803</ele>
        <time>2012-03-18T10:47:40Z</time>
      </trkpt>
      <trkpt lat="45.91596" lon="5.87714">
        <ele>796</ele>
        <time>2012-03-18T10:47:45Z</time>
      </trkpt>
      <trkpt lat="45.91606" lon="5.87711">
        <ele>796</ele>
        <time>2012-03-18T10:47:49Z</time>
      </trkpt>
      <trkpt lat="45.91622" lon="5.87715">
        <ele>795</ele>
        <time>2012-03-18T10:47:55Z</time>
      </trkpt>
      <trkpt lat="45.91639" lon="5.87722">
        <ele>793</ele>
        <time>2012-03-18T10:48:01Z</time>
      </trkpt>
      <trkpt lat="45.9165" lon="5.87727">
        <ele>791</ele>
        <time>2012-03-18T10:48:05Z</time>
      </trkpt>
      <trkpt lat="45.91656" lon="5.8773">
        <ele>790</ele>
        <time>2012-03-18T10:48:07Z</time>
      </trkpt>
      <trkpt lat="45.9168" lon="5.87728">
        <ele>787</ele>
        <time>2012-03-18T10:48:11Z</time>
      </trkpt>
      <trkpt lat="45.91694" lon="5.87723">
        <ele>788</ele>
        <time>2012-03-18T10:48:14Z</time>
      </trkpt>
      <trkpt lat="45.91706" lon="5.87733">
        <ele>787</ele>
        <time>2012-03-18T10:48:19Z</time>
      </trkpt>
      <trkpt lat="45.91711" lon="5.87746">
        <ele>785</ele>
        <time>2012-03-18T10:48:23Z</time>
      </trkpt>
      <trkpt lat="45.9172" lon="5.87755">
        <ele>769</ele>
        <time>2012-03-18T10:48:27Z</time>
      </trkpt>
      <trkpt lat="45.91734" lon="5.8775">
        <ele>771</ele>
        <time>2012-03-18T10:48:32Z</time>
      </trkpt>
      <trkpt lat="45.9174" lon="5.87763">
        <ele>770</ele>
        <time>2012-03-18T10:48:36Z</time>
      </trkpt>
      <trkpt lat="45.91745" lon="5.8777">
        <ele>769</ele>
        <time>2012-03-18T10:48:38Z</time>
      </trkpt>
      <trkpt lat="45.91763" lon="5.87784">
        <ele>768</ele>
        <time>2012-03-18T10:48:45Z</time>
      </trkpt>
      <trkpt lat="45.91775" lon="5.8779">
        <ele>767</ele>
        <time>2012-03-18T10:48:50Z</time>
      </trkpt>
      <trkpt lat="45.91786" lon="5.87799">
        <ele>767</ele>
        <time>2012-03-18T10:48:54Z</time>
      </trkpt>
      <trkpt lat="45.91797" lon="5.87811">
        <ele>766</ele>
        <time>2012-03-18T10:48:58Z</time>
      </trkpt>
      <trkpt lat="45.91811" lon="5.87831">
        <ele>765</ele>
        <time>2012-03-18T10:49:04Z</time>
      </trkpt>
      <trkpt lat="45.91829" lon="5.87857">
        <ele>751</ele>
        <time>2012-03-18T10:49:09Z</time>
      </trkpt>
      <trkpt lat="45.91833" lon="5.87861">
        <ele>750</ele>
        <time>2012-03-18T10:49:10Z</time>
      </trkpt>
      <trkpt lat="45.9184" lon="5.8787">
        <ele>758</ele>
        <time>2012-03-18T10:49:12Z</time>
      </trkpt>
      <trkpt lat="45.91846" lon="5.87893">
        <ele>753</ele>
        <time>2012-03-18T10:49:17Z</time>
      </trkpt>
      <trkpt lat="45.91853" lon="5.87904">
        <ele>751</ele>
        <time>2012-03-18T10:49:20Z</time>
      </trkpt>
      <trkpt lat="45.91868" lon="5.87919">
        <ele>737</ele>
        <time>2012-03-18T10:49:25Z</time>
      </trkpt>
      <trkpt lat="45.91884" lon="5.87928">
        <ele>738</ele>
        <time>2012-03-18T10:49:30Z</time>
      </trkpt>
      <trkpt lat="45.91899" lon="5.87938">
        <ele>739</ele>
        <time>2012-03-18T10:49:34Z</time>
      </trkpt>
      <trkpt lat="45.91908" lon="5.87948">
        <ele>737</ele>
        <time>2012-03-18T10:49:37Z</time>
      </trkpt>
      <trkpt lat="45.9191" lon="5.87964">
        <ele>734</ele>
        <time>2012-03-18T10:49:39Z</time>
      </trkpt>
      <trkpt lat="45.91916" lon="5.87976">
        <ele>731</ele>
        <time>2012-03-18T10:49:43Z</time>
      </trkpt>
      <trkpt lat="45.9193" lon="5.87983">
        <ele>741</ele>
        <time>2012-03-18T10:49:49Z</time>
      </trkpt>
      <trkpt lat="45.91952" lon="5.87992">
        <ele>746</ele>
        <time>2012-03-18T10:49:54Z</time>
      </trkpt>
      <trkpt lat="45.91972" lon="5.88005">
        <ele>736</ele>
        <time>2012-03-18T10:50:00Z</time>
      </trkpt>
      <trkpt lat="45.91983" lon="5.88023">
        <ele>736</ele>
        <time>2012-03-18T10:50:06Z</time>
      </trkpt>
      <trkpt lat="45.91985" lon="5.88026">
        <ele>736</ele>
        <time>2012-03-18T10:50:07Z</time>
      </trkpt>
      <trkpt lat="45.91999" lon="5.88053">
        <ele>732</ele>
        <time>2012-03-18T10:50:14Z</time>
      </trkpt>
      <trkpt lat="45.91999" lon="5.88061">
        <ele>731</ele>
        <time>2012-03-18T10:50:16Z</time>
      </trkpt>
      <trkpt lat="45.92001" lon="5.88079">
        <ele>737</ele>
        <time>2012-03-18T10:50:20Z</time>
      </trkpt>
      <trkpt lat="45.91998" lon="5.88114">
        <ele>716</ele>
        <time>2012-03-18T10:50:26Z</time>
      </trkpt>
      <trkpt lat="45.91993" lon="5.88138">
        <ele>712</ele>
        <time>2012-03-18T10:50:31Z</time>
      </trkpt>
      <trkpt lat="45.9199" lon="5.88154">
        <ele>713</ele>
        <time>2012-03-18T10:50:35Z</time>
      </trkpt>
      <trkpt lat="45.91985" lon="5.88172">
        <ele>705</ele>
        <time>2012-03-18T10:50:39Z</time>
      </trkpt>
      <trkpt lat="45.91987" lon="5.88187">
        <ele>701</ele>
        <time>2012-03-18T10:50:43Z</time>
      </trkpt>
      <trkpt lat="45.91995" lon="5.88203">
        <ele>698</ele>
        <time>2012-03-18T10:50:48Z</time>
      </trkpt>
      <trkpt lat="45.92008" lon="5.88219">
        <ele>709</ele>
        <time>2012-03-18T10:50:53Z</time>
      </trkpt>
      <trkpt lat="45.9201" lon="5.88225">
        <ele>708</ele>
        <time>2012-03-18T10:50:55Z</time>
      </trkpt>
      <trkpt lat="45.92018" lon="5.88233">
        <ele>707</ele>
        <time>2012-03-18T10:50:59Z</time>
      </trkpt>
      <trkpt lat="45.92027" lon="5.88243">
        <ele>707</ele>
        <time>2012-03-18T10:51:03Z</time>
      </trkpt>
      <trkpt lat="45.92023" lon="5.88251">
        <ele>694</ele>
        <time>2012-03-18T10:51:08Z</time>
      </trkpt>
      <trkpt lat="45.92" lon="5.88254">
        <ele>697</ele>
        <time>2012-03-18T10:51:15Z</time>
      </trkpt>
      <trkpt lat="45.91981" lon="5.88257">
        <ele>686</ele>
        <time>2012-03-18T10:51:20Z</time>
      </trkpt>
      <trkpt lat="45.91962" lon="5.88258">
        <ele>681</ele>
        <time>2012-03-18T10:51:26Z</time>
      </trkpt>
      <trkpt lat="45.91961" lon="5.88271">
        <ele>679</ele>
        <time>2012-03-18T10:51:31Z</time>
      </trkpt>
      <trkpt lat="45.91975" lon="5.88277">
        <ele>681</ele>
        <time>2012-03-18T10:51:35Z</time>
      </trkpt>
      <trkpt lat="45.91986" lon="5.88282">
        <ele>682</ele>
        <time>2012-03-18T10:51:39Z</time>
      </trkpt>
      <trkpt lat="45.92" lon="5.88291">
        <ele>681</ele>
        <time>2012-03-18T10:51:43Z</time>
      </trkpt>
      <trkpt lat="45.92018" lon="5.88302">
        <ele>687</ele>
        <time>2012-03-18T10:51:49Z</time>
      </trkpt>
      <trkpt lat="45.92033" lon="5.88309">
        <ele>686</ele>
        <time>2012-03-18T10:51:54Z</time>
      </trkpt>
      <trkpt lat="45.92041" lon="5.88312">
        <ele>686</ele>
        <time>2012-03-18T10:51:57Z</time>
      </trkpt>
      <trkpt lat="45.9206" lon="5.88311">
        <ele>686</ele>
        <time>2012-03-18T10:52:01Z</time>
      </trkpt>
      <trkpt lat="45.92079" lon="5.88313">
        <ele>684</ele>
        <time>2012-03-18T10:52:06Z</time>
      </trkpt>
      <trkpt lat="45.92091" lon="5.88313">
        <ele>682</ele>
        <time>2012-03-18T10:52:10Z</time>
      </trkpt>
      <trkpt lat="45.92102" lon="5.88312">
        <ele>683</ele>
        <time>2012-03-18T10:52:14Z</time>
      </trkpt>
      <trkpt lat="45.92118" lon="5.88313">
        <ele>683</ele>
        <time>2012-03-18T10:52:18Z</time>
      </trkpt>
      <trkpt lat="45.92125" lon="5.88314">
        <ele>682</ele>
        <time>2012-03-18T10:52:20Z</time>
      </trkpt>
      <trkpt lat="45.92138" lon="5.88315">
        <ele>681</ele>
        <time>2012-03-18T10:52:24Z</time>
      </trkpt>
      <trkpt lat="45.92154" lon="5.88308">
        <ele>680</ele>
        <time>2012-03-18T10:52:29Z</time>
      </trkpt>
      <trkpt lat="45.92163" lon="5.88298">
        <ele>682</ele>
        <time>2012-03-18T10:52:33Z</time>
      </trkpt>
      <trkpt lat="45.92164" lon="5.88296">
        <ele>683</ele>
        <time>2012-03-18T10:52:34Z</time>
      </trkpt>
      <trkpt lat="45.92165" lon="5.88293">
        <ele>684</ele>
        <time>2012-03-18T10:52:36Z</time>
      </trkpt>
      <trkpt lat="45.92164" lon="5.88307">
        <ele>679</ele>
        <time>2012-03-18T10:52:41Z</time>
      </trkpt>
      <trkpt lat="45.92159" lon="5.88323">
        <ele>674</ele>
        <time>2012-03-18T10:52:45Z</time>
      </trkpt>
      <trkpt lat="45.92146" lon="5.88344">
        <ele>660</ele>
        <time>2012-03-18T10:52:51Z</time>
      </trkpt>
      <trkpt lat="45.9213" lon="5.88357">
        <ele>658</ele>
        <time>2012-03-18T10:52:58Z</time>
      </trkpt>
      <trkpt lat="45.9214" lon="5.8836">
        <ele>658</ele>
        <time>2012-03-18T10:53:01Z</time>
      </trkpt>
      <trkpt lat="45.92147" lon="5.88358">
        <ele>658</ele>
        <time>2012-03-18T10:53:03Z</time>
      </trkpt>
      <trkpt lat="45.92169" lon="5.88358">
        <ele>656</ele>
        <time>2012-03-18T10:53:10Z</time>
      </trkpt>
      <trkpt lat="45.92178" lon="5.8836">
        <ele>655</ele>
        <time>2012-03-18T10:53:14Z</time>
      </trkpt>
      <trkpt lat="45.92188" lon="5.88363">
        <ele>654</ele>
        <time>2012-03-18T10:53:18Z</time>
      </trkpt>
      <trkpt lat="45.92193" lon="5.88357">
        <ele>654</ele>
        <time>2012-03-18T10:53:22Z</time>
      </trkpt>
      <trkpt lat="45.92204" lon="5.88367">
        <ele>652</ele>
        <time>2012-03-18T10:53:28Z</time>
      </trkpt>
      <trkpt lat="45.92211" lon="5.88374">
        <ele>651</ele>
        <time>2012-03-18T10:53:32Z</time>
      </trkpt>
      <trkpt lat="45.92225" lon="5.88386">
        <ele>650</ele>
        <time>2012-03-18T10:53:36Z</time>
      </trkpt>
      <trkpt lat="45.92239" lon="5.88402">
        <ele>646</ele>
        <time>2012-03-18T10:53:41Z</time>
      </trkpt>
      <trkpt lat="45.92256" lon="5.88421">
        <ele>638</ele>
        <time>2012-03-18T10:53:46Z</time>
      </trkpt>
      <trkpt lat="45.92292" lon="5.88446">
        <ele>630</ele>
        <time>2012-03-18T10:53:53Z</time>
      </trkpt>
      <trkpt lat="45.92301" lon="5.88454">
        <ele>629</ele>
        <time>2012-03-18T10:53:56Z</time>
      </trkpt>
      <trkpt lat="45.9232" lon="5.88467">
        <ele>627</ele>
        <time>2012-03-18T10:54:02Z</time>
      </trkpt>
      <trkpt lat="45.92328" lon="5.8847">
        <ele>626</ele>
        <time>2012-03-18T10:54:05Z</time>
      </trkpt>
      <trkpt lat="45.92332" lon="5.88491">
        <ele>622</ele>
        <time>2012-03-18T10:54:12Z</time>
      </trkpt>
      <trkpt lat="45.92327" lon="5.88493">
        <ele>622</ele>
        <time>2012-03-18T10:54:14Z</time>
      </trkpt>
      <trkpt lat="45.92312" lon="5.88498">
        <ele>624</ele>
        <time>2012-03-18T10:54:19Z</time>
      </trkpt>
      <trkpt lat="45.92298" lon="5.88525">
        <ele>612</ele>
        <time>2012-03-18T10:54:25Z</time>
      </trkpt>
      <trkpt lat="45.92283" lon="5.88542">
        <ele>610</ele>
        <time>2012-03-18T10:54:30Z</time>
      </trkpt>
      <trkpt lat="45.92271" lon="5.88547">
        <ele>610</ele>
        <time>2012-03-18T10:54:34Z</time>
      </trkpt>
      <trkpt lat="45.92253" lon="5.88548">
        <ele>609</ele>
        <time>2012-03-18T10:54:39Z</time>
      </trkpt>
      <trkpt lat="45.9224" lon="5.88551">
        <ele>606</ele>
        <time>2012-03-18T10:54:43Z</time>
      </trkpt>
      <trkpt lat="45.92223" lon="5.88555">
        <ele>605</ele>
        <time>2012-03-18T10:54:48Z</time>
      </trkpt>
      <trkpt lat="45.92209" lon="5.8855">
        <ele>605</ele>
        <time>2012-03-18T10:54:52Z</time>
      </trkpt>
      <trkpt lat="45.92197" lon="5.88535">
        <ele>606</ele>
        <time>2012-03-18T10:54:57Z</time>
      </trkpt>
      <trkpt lat="45.92194" lon="5.88533">
        <ele>606</ele>
        <time>2012-03-18T10:54:58Z</time>
      </trkpt>
      <trkpt lat="45.92186" lon="5.88533">
        <ele>606</ele>
        <time>2012-03-18T10:55:01Z</time>
      </trkpt>
      <trkpt lat="45.92172" lon="5.88548">
        <ele>603</ele>
        <time>2012-03-18T10:55:06Z</time>
      </trkpt>
      <trkpt lat="45.92154" lon="5.88552">
        <ele>597</ele>
        <time>2012-03-18T10:55:11Z</time>
      </trkpt>
      <trkpt lat="45.92128" lon="5.88552">
        <ele>596</ele>
        <time>2012-03-18T10:55:18Z</time>
      </trkpt>
      <trkpt lat="45.92107" lon="5.88557">
        <ele>593</ele>
        <time>2012-03-18T10:55:23Z</time>
      </trkpt>
      <trkpt lat="45.92086" lon="5.88561">
        <ele>590</ele>
        <time>2012-03-18T10:55:29Z</time>
      </trkpt>
      <trkpt lat="45.92066" lon="5.88563">
        <ele>588</ele>
        <time>2012-03-18T10:55:35Z</time>
      </trkpt>
      <trkpt lat="45.92048" lon="5.88569">
        <ele>588</ele>
        <time>2012-03-18T10:55:40Z</time>
      </trkpt>
      <trkpt lat="45.92024" lon="5.88577">
        <ele>586</ele>
        <time>2012-03-18T10:55:46Z</time>
      </trkpt>
      <trkpt lat="45.92006" lon="5.8858">
        <ele>580</ele>
        <time>2012-03-18T10:55:51Z</time>
      </trkpt>
      <trkpt lat="45.91987" lon="5.88586">
        <ele>571</ele>
        <time>2012-03-18T10:55:56Z</time>
      </trkpt>
      <trkpt lat="45.91968" lon="5.88594">
        <ele>568</ele>
        <time>2012-03-18T10:56:01Z</time>
      </trkpt>
      <trkpt lat="45.91956" lon="5.88601">
        <ele>568</ele>
        <time>2012-03-18T10:56:04Z</time>
      </trkpt>
      <trkpt lat="45.91939" lon="5.88609">
        <ele>567</ele>
        <time>2012-03-18T10:56:09Z</time>
      </trkpt>
      <trkpt lat="45.91917" lon="5.88613">
        <ele>564</ele>
        <time>2012-03-18T10:56:14Z</time>
      </trkpt>
      <trkpt lat="45.91896" lon="5.88618">
        <ele>562</ele>
        <time>2012-03-18T10:56:19Z</time>
      </trkpt>
      <trkpt lat="45.91888" lon="5.88622">
        <ele>561</ele>
        <time>2012-03-18T10:56:21Z</time>
      </trkpt>
      <trkpt lat="45.91868" lon="5.88623">
        <ele>559</ele>
        <time>2012-03-18T10:56:27Z</time>
      </trkpt>
      <trkpt lat="45.91852" lon="5.88623">
        <ele>558</ele>
        <time>2012-03-18T10:56:31Z</time>
      </trkpt>
      <trkpt lat="45.91838" lon="5.88621">
        <ele>558</ele>
        <time>2012-03-18T10:56:35Z</time>
      </trkpt>
      <trkpt lat="45.91825" lon="5.88618">
        <ele>555</ele>
        <time>2012-03-18T10:56:39Z</time>
      </trkpt>
      <trkpt lat="45.91806" lon="5.88612">
        <ele>555</ele>
        <time>2012-03-18T10:56:44Z</time>
      </trkpt>
      <trkpt lat="45.91794" lon="5.88606">
        <ele>555</ele>
        <time>2012-03-18T10:56:48Z</time>
      </trkpt>
      <trkpt lat="45.91781" lon="5.88595">
        <ele>556</ele>
        <time>2012-03-18T10:56:53Z</time>
      </trkpt>
      <trkpt lat="45.91763" lon="5.88586">
        <ele>556</ele>
        <time>2012-03-18T10:56:58Z</time>
      </trkpt>
      <trkpt lat="45.91752" lon="5.88583">
        <ele>558</ele>
        <time>2012-03-18T10:57:02Z</time>
      </trkpt>
      <trkpt lat="45.91739" lon="5.88574">
        <ele>566</ele>
        <time>2012-03-18T10:57:07Z</time>
      </trkpt>
      <trkpt lat="45.91734" lon="5.88565">
        <ele>570</ele>
        <time>2012-03-18T10:57:10Z</time>
      </trkpt>
      <trkpt lat="45.9173" lon="5.88564">
        <ele>570</ele>
        <time>2012-03-18T10:57:12Z</time>
      </trkpt>
      <trkpt lat="45.91728" lon="5.88564">
        <ele>571</ele>
        <time>2012-03-18T10:57:16Z</time>
      </trkpt>
      <trkpt lat="45.91728" lon="5.88587">
        <ele>563</ele>
        <time>2012-03-18T10:57:22Z</time>
      </trkpt>
      <trkpt lat="45.91729" lon="5.88592">
        <ele>563</ele>
        <time>2012-03-18T10:57:23Z</time>
      </trkpt>
      <trkpt lat="45.91737" lon="5.88612">
        <ele>562</ele>
        <time>2012-03-18T10:57:29Z</time>
      </trkpt>
      <trkpt lat="45.91746" lon="5.88625">
        <ele>561</ele>
        <time>2012-03-18T10:57:33Z</time>
      </trkpt>
      <trkpt lat="45.91758" lon="5.88645">
        <ele>551</ele>
        <time>2012-03-18T10:57:39Z</time>
      </trkpt>
      <trkpt lat="45.91766" lon="5.8866">
        <ele>550</ele>
        <time>2012-03-18T10:57:43Z</time>
      </trkpt>
      <trkpt lat="45.91776" lon="5.88675">
        <ele>541</ele>
        <time>2012-03-18T10:57:47Z</time>
      </trkpt>
      <trkpt lat="45.91787" lon="5.88689">
        <ele>539</ele>
        <time>2012-03-18T10:57:51Z</time>
      </trkpt>
      <trkpt lat="45.91797" lon="5.88703">
        <ele>537</ele>
        <time>2012-03-18T10:57:55Z</time>
      </trkpt>
      <trkpt lat="45.91802" lon="5.88715">
        <ele>536</ele>
        <time>2012-03-18T10:58:00Z</time>
      </trkpt>
      <trkpt lat="45.91808" lon="5.88728">
        <ele>534</ele>
        <time>2012-03-18T10:58:04Z</time>
      </trkpt>
      <trkpt lat="45.9181" lon="5.88745">
        <ele>532</ele>
        <time>2012-03-18T10:58:08Z</time>
      </trkpt>
      <trkpt lat="45.91808" lon="5.88758">
        <ele>523</ele>
        <time>2012-03-18T10:58:11Z</time>
      </trkpt>
      <trkpt lat="45.91805" lon="5.88779">
        <ele>521</ele>
        <time>2012-03-18T10:58:16Z</time>
      </trkpt>
      <trkpt lat="45.918" lon="5.88793">
        <ele>520</ele>
        <time>2012-03-18T10:58:20Z</time>
      </trkpt>
      <trkpt lat="45.91797" lon="5.88807">
        <ele>519</ele>
        <time>2012-03-18T10:58:23Z</time>
      </trkpt>
      <trkpt lat="45.91782" lon="5.88826">
        <ele>519</ele>
        <time>2012-03-18T10:58:28Z</time>
      </trkpt>
      <trkpt lat="45.91772" lon="5.88837">
        <ele>509</ele>
        <time>2012-03-18T10:58:32Z</time>
      </trkpt>
      <trkpt lat="45.91758" lon="5.88851">
        <ele>509</ele>
        <time>2012-03-18T10:58:36Z</time>
      </trkpt>
      <trkpt lat="45.91747" lon="5.88858">
        <ele>513</ele>
        <time>2012-03-18T10:58:39Z</time>
      </trkpt>
      <trkpt lat="45.9174" lon="5.88862">
        <ele>512</ele>
        <time>2012-03-18T10:58:41Z</time>
      </trkpt>
      <trkpt lat="45.91716" lon="5.88871">
        <ele>511</ele>
        <time>2012-03-18T10:58:47Z</time>
      </trkpt>
      <trkpt lat="45.91711" lon="5.88873">
        <ele>511</ele>
        <time>2012-03-18T10:58:48Z</time>
      </trkpt>
      <trkpt lat="45.91696" lon="5.88887">
        <ele>509</ele>
        <time>2012-03-18T10:58:54Z</time>
      </trkpt>
      <trkpt lat="45.91689" lon="5.88901">
        <ele>507</ele>
        <time>2012-03-18T10:58:58Z</time>
      </trkpt>
      <trkpt lat="45.9169" lon="5.88919">
        <ele>494</ele>
        <time>2012-03-18T10:59:02Z</time>
      </trkpt>
      <trkpt lat="45.91689" lon="5.88928">
        <ele>493</ele>
        <time>2012-03-18T10:59:06Z</time>
      </trkpt>
      <trkpt lat="45.91689" lon="5.8893">
        <ele>493</ele>
        <time>2012-03-18T10:59:11Z</time>
      </trkpt>
      <trkpt lat="45.91684" lon="5.8893">
        <ele>494</ele>
        <time>2012-03-18T10:59:15Z</time>
      </trkpt>
      <trkpt lat="45.91683" lon="5.88939">
        <ele>492</ele>
        <time>2012-03-18T10:59:21Z</time>
      </trkpt>
      <trkpt lat="45.9168" lon="5.88948">
        <ele>491</ele>
        <time>2012-03-18T10:59:26Z</time>
      </trkpt>
      <trkpt lat="45.91674" lon="5.88965">
        <ele>488</ele>
        <time>2012-03-18T10:59:31Z</time>
      </trkpt>
      <trkpt lat="45.91668" lon="5.88981">
        <ele>486</ele>
        <time>2012-03-18T10:59:36Z</time>
      </trkpt>
      <trkpt lat="45.91664" lon="5.88989">
        <ele>487</ele>
        <time>2012-03-18T10:59:40Z</time>
      </trkpt>
      <trkpt lat="45.91662" lon="5.88994">
        <ele>486</ele>
        <time>2012-03-18T11:00:00Z</time>
      </trkpt>
      <trkpt lat="45.91662" lon="5.88993">
        <ele>486</ele>
        <time>2012-03-18T11:00:10Z</time>
      </trkpt>
      <trkpt lat="45.91661" lon="5.88993">
        <ele>487</ele>
        <time>2012-03-18T11:00:21Z</time>
      </trkpt>
      <trkpt lat="45.91659" lon="5.88994">
        <ele>487</ele>
        <time>2012-03-18T11:00:37Z</time>
      </trkpt>
      <trkpt lat="45.91656" lon="5.88994">
        <ele>487</ele>
        <time>2012-03-18T11:00:44Z</time>
      </trkpt>
      <trkpt lat="45.91655" lon="5.88996">
        <ele>487</ele>
        <time>2012-03-18T11:00:49Z</time>
      </trkpt>
      <trkpt lat="45.9165" lon="5.89004">
        <ele>480</ele>
        <time>2012-03-18T11:00:58Z</time>
      </trkpt>
      <trkpt lat="45.91651" lon="5.89007">
        <ele>479</ele>
        <time>2012-03-18T11:01:01Z</time>
      </trkpt>
      <trkpt lat="45.91652" lon="5.89014">
        <ele>479</ele>
        <time>2012-03-18T11:01:06Z</time>
      </trkpt>
      <trkpt lat="45.91642" lon="5.89023">
        <ele>477</ele>
        <time>2012-03-18T11:01:35Z</time>
      </trkpt>
      <trkpt lat="45.91643" lon="5.89025">
        <ele>477</ele>
        <time>2012-03-18T11:01:40Z</time>
      </trkpt>
      <trkpt lat="45.91641" lon="5.89028">
        <ele>477</ele>
        <time>2012-03-18T11:01:45Z</time>
      </trkpt>
      <trkpt lat="45.9164" lon="5.89035">
        <ele>476</ele>
        <time>2012-03-18T11:01:57Z</time>
      </trkpt>
      <trkpt lat="45.91638" lon="5.89038">
        <ele>475</ele>
        <time>2012-03-18T11:02:00Z</time>
      </trkpt>
      <trkpt lat="45.91636" lon="5.89044">
        <ele>475</ele>
        <time>2012-03-18T11:02:05Z</time>
      </trkpt>
      <trkpt lat="45.91628" lon="5.89065">
        <ele>473</ele>
        <time>2012-03-18T11:02:11Z</time>
      </trkpt>
      <trkpt lat="45.91624" lon="5.89072">
        <ele>472</ele>
        <time>2012-03-18T11:02:13Z</time>
      </trkpt>
      <trkpt lat="45.91617" lon="5.89104">
        <ele>460</ele>
        <time>2012-03-18T11:02:20Z</time>
      </trkpt>
      <trkpt lat="45.9161" lon="5.89118">
        <ele>459</ele>
        <time>2012-03-18T11:02:24Z</time>
      </trkpt>
      <trkpt lat="45.91594" lon="5.89122">
        <ele>459</ele>
        <time>2012-03-18T11:02:29Z</time>
      </trkpt>
      <trkpt lat="45.91591" lon="5.89121">
        <ele>459</ele>
        <time>2012-03-18T11:02:30Z</time>
      </trkpt>
      <trkpt lat="45.91573" lon="5.89113">
        <ele>464</ele>
        <time>2012-03-18T11:02:36Z</time>
      </trkpt>
      <trkpt lat="45.91556" lon="5.8911">
        <ele>465</ele>
        <time>2012-03-18T11:02:42Z</time>
      </trkpt>
      <trkpt lat="45.91542" lon="5.89114">
        <ele>465</ele>
        <time>2012-03-18T11:02:47Z</time>
      </trkpt>
      <trkpt lat="45.91523" lon="5.89124">
        <ele>465</ele>
        <time>2012-03-18T11:02:54Z</time>
      </trkpt>
      <trkpt lat="45.91511" lon="5.89132">
        <ele>465</ele>
        <time>2012-03-18T11:02:59Z</time>
      </trkpt>
      <trkpt lat="45.91501" lon="5.89139">
        <ele>464</ele>
        <time>2012-03-18T11:03:05Z</time>
      </trkpt>
      <trkpt lat="45.91494" lon="5.89149">
        <ele>468</ele>
        <time>2012-03-18T11:03:10Z</time>
      </trkpt>
      <trkpt lat="45.91488" lon="5.89154">
        <ele>468</ele>
        <time>2012-03-18T11:03:14Z</time>
      </trkpt>
      <trkpt lat="45.91479" lon="5.89158">
        <ele>469</ele>
        <time>2012-03-18T11:03:19Z</time>
      </trkpt>
      <trkpt lat="45.91478" lon="5.89157">
        <ele>469</ele>
        <time>2012-03-18T11:03:20Z</time>
      </trkpt>
      <trkpt lat="45.91468" lon="5.89152">
        <ele>471</ele>
        <time>2012-03-18T11:03:26Z</time>
      </trkpt>
      <trkpt lat="45.91461" lon="5.89146">
        <ele>472</ele>
        <time>2012-03-18T11:03:31Z</time>
      </trkpt>
      <trkpt lat="45.91453" lon="5.89139">
        <ele>473</ele>
        <time>2012-03-18T11:03:37Z</time>
      </trkpt>
      <trkpt lat="45.91444" lon="5.89133">
        <ele>474</ele>
        <time>2012-03-18T11:03:43Z</time>
      </trkpt>
      <trkpt lat="45.91436" lon="5.8913">
        <ele>475</ele>
        <time>2012-03-18T11:03:48Z</time>
      </trkpt>
      <trkpt lat="45.91424" lon="5.89124">
        <ele>476</ele>
        <time>2012-03-18T11:03:56Z</time>
      </trkpt>
      <trkpt lat="45.91412" lon="5.89118">
        <ele>483</ele>
        <time>2012-03-18T11:04:04Z</time>
      </trkpt>
      <trkpt lat="45.91403" lon="5.89114">
        <ele>483</ele>
        <time>2012-03-18T11:04:09Z</time>
      </trkpt>
      <trkpt lat="45.91393" lon="5.8911">
        <ele>484</ele>
        <time>2012-03-18T11:04:15Z</time>
      </trkpt>
      <trkpt lat="45.91385" lon="5.89107">
        <ele>484</ele>
        <time>2012-03-18T11:04:20Z</time>
      </trkpt>
      <trkpt lat="45.91376" lon="5.89099">
        <ele>485</ele>
        <time>2012-03-18T11:04:26Z</time>
      </trkpt>
      <trkpt lat="45.91371" lon="5.89094">
        <ele>486</ele>
        <time>2012-03-18T11:04:29Z</time>
      </trkpt>
      <trkpt lat="45.91359" lon="5.89095">
        <ele>487</ele>
        <time>2012-03-18T11:04:35Z</time>
      </trkpt>
      <trkpt lat="45.9135" lon="5.891">
        <ele>487</ele>
        <time>2012-03-18T11:04:41Z</time>
      </trkpt>
      <trkpt lat="45.9134" lon="5.89105">
        <ele>487</ele>
        <time>2012-03-18T11:04:47Z</time>
      </trkpt>
      <trkpt lat="45.91329" lon="5.89109">
        <ele>491</ele>
        <time>2012-03-18T11:04:54Z</time>
      </trkpt>
      <trkpt lat="45.91318" lon="5.89111">
        <ele>491</ele>
        <time>2012-03-18T11:05:01Z</time>
      </trkpt>
      <trkpt lat="45.91309" lon="5.89111">
        <ele>491</ele>
        <time>2012-03-18T11:05:06Z</time>
      </trkpt>
      <trkpt lat="45.91307" lon="5.89111">
        <ele>491</ele>
        <time>2012-03-18T11:05:07Z</time>
      </trkpt>
      <trkpt lat="45.91297" lon="5.8911">
        <ele>492</ele>
        <time>2012-03-18T11:05:13Z</time>
      </trkpt>
      <trkpt lat="45.91285" lon="5.89107">
        <ele>493</ele>
        <time>2012-03-18T11:05:19Z</time>
      </trkpt>
      <trkpt lat="45.91276" lon="5.89104">
        <ele>494</ele>
        <time>2012-03-18T11:05:24Z</time>
      </trkpt>
      <trkpt lat="45.91266" lon="5.891">
        <ele>496</ele>
        <time>2012-03-18T11:05:29Z</time>
      </trkpt>
      <trkpt lat="45.9125" lon="5.89097">
        <ele>498</ele>
        <time>2012-03-18T11:05:36Z</time>
      </trkpt>
      <trkpt lat="45.91237" lon="5.89092">
        <ele>499</ele>
        <time>2012-03-18T11:05:42Z</time>
      </trkpt>
      <trkpt lat="45.91225" lon="5.89089">
        <ele>497</ele>
        <time>2012-03-18T11:05:47Z</time>
      </trkpt>
      <trkpt lat="45.91214" lon="5.89083">
        <ele>504</ele>
        <time>2012-03-18T11:05:52Z</time>
      </trkpt>
      <trkpt lat="45.91203" lon="5.89076">
        <ele>504</ele>
        <time>2012-03-18T11:05:57Z</time>
      </trkpt>
      <trkpt lat="45.91192" lon="5.89064">
        <ele>504</ele>
        <time>2012-03-18T11:06:03Z</time>
      </trkpt>
      <trkpt lat="45.91183" lon="5.89054">
        <ele>505</ele>
        <time>2012-03-18T11:06:08Z</time>
      </trkpt>
      <trkpt lat="45.91178" lon="5.89044">
        <ele>505</ele>
        <time>2012-03-18T11:06:12Z</time>
      </trkpt>
      <trkpt lat="45.91171" lon="5.89031">
        <ele>506</ele>
        <time>2012-03-18T11:06:17Z</time>
      </trkpt>
      <trkpt lat="45.91159" lon="5.89014">
        <ele>504</ele>
        <time>2012-03-18T11:06:24Z</time>
      </trkpt>
      <trkpt lat="45.91153" lon="5.88998">
        <ele>509</ele>
        <time>2012-03-18T11:06:29Z</time>
      </trkpt>
      <trkpt lat="45.91147" lon="5.88981">
        <ele>509</ele>
        <time>2012-03-18T11:06:35Z</time>
      </trkpt>
      <trkpt lat="45.91137" lon="5.88969">
        <ele>509</ele>
        <time>2012-03-18T11:06:40Z</time>
      </trkpt>
      <trkpt lat="45.91132" lon="5.88959">
        <ele>509</ele>
        <time>2012-03-18T11:06:45Z</time>
      </trkpt>
      <trkpt lat="45.91112" lon="5.88945">
        <ele>509</ele>
        <time>2012-03-18T11:06:53Z</time>
      </trkpt>
      <trkpt lat="45.91096" lon="5.8893">
        <ele>509</ele>
        <time>2012-03-18T11:07:00Z</time>
      </trkpt>
      <trkpt lat="45.91088" lon="5.88916">
        <ele>511</ele>
        <time>2012-03-18T11:07:05Z</time>
      </trkpt>
      <trkpt lat="45.91083" lon="5.88903">
        <ele>512</ele>
        <time>2012-03-18T11:07:10Z</time>
      </trkpt>
      <trkpt lat="45.91072" lon="5.88891">
        <ele>513</ele>
        <time>2012-03-18T11:07:16Z</time>
      </trkpt>
      <trkpt lat="45.91059" lon="5.88884">
        <ele>513</ele>
        <time>2012-03-18T11:07:21Z</time>
      </trkpt>
      <trkpt lat="45.91046" lon="5.88876">
        <ele>514</ele>
        <time>2012-03-18T11:07:27Z</time>
      </trkpt>
      <trkpt lat="45.91032" lon="5.88868">
        <ele>514</ele>
        <time>2012-03-18T11:07:33Z</time>
      </trkpt>
      <trkpt lat="45.91019" lon="5.88857">
        <ele>514</ele>
        <time>2012-03-18T11:07:39Z</time>
      </trkpt>
      <trkpt lat="45.91008" lon="5.88845">
        <ele>515</ele>
        <time>2012-03-18T11:07:44Z</time>
      </trkpt>
      <trkpt lat="45.90992" lon="5.88824">
        <ele>522</ele>
        <time>2012-03-18T11:07:52Z</time>
      </trkpt>
      <trkpt lat="45.90979" lon="5.88809">
        <ele>527</ele>
        <time>2012-03-18T11:07:58Z</time>
      </trkpt>
      <trkpt lat="45.90967" lon="5.88794">
        <ele>529</ele>
        <time>2012-03-18T11:08:04Z</time>
      </trkpt>
      <trkpt lat="45.90954" lon="5.88787">
        <ele>531</ele>
        <time>2012-03-18T11:08:09Z</time>
      </trkpt>
      <trkpt lat="45.90941" lon="5.88795">
        <ele>530</ele>
        <time>2012-03-18T11:08:13Z</time>
      </trkpt>
      <trkpt lat="45.90934" lon="5.88804">
        <ele>530</ele>
        <time>2012-03-18T11:08:17Z</time>
      </trkpt>
      <trkpt lat="45.90928" lon="5.88817">
        <ele>529</ele>
        <time>2012-03-18T11:08:21Z</time>
      </trkpt>
      <trkpt lat="45.90928" lon="5.88821">
        <ele>528</ele>
        <time>2012-03-18T11:08:22Z</time>
      </trkpt>
      <trkpt lat="45.90923" lon="5.88843">
        <ele>523</ele>
        <time>2012-03-18T11:08:28Z</time>
      </trkpt>
      <trkpt lat="45.90921" lon="5.88857">
        <ele>521</ele>
        <time>2012-03-18T11:08:32Z</time>
      </trkpt>
      <trkpt lat="45.90918" lon="5.8888">
        <ele>519</ele>
        <time>2012-03-18T11:08:38Z</time>
      </trkpt>
      <trkpt lat="45.90916" lon="5.88886">
        <ele>523</ele>
        <time>2012-03-18T11:08:40Z</time>
      </trkpt>
      <trkpt lat="45.9091" lon="5.88907">
        <ele>521</ele>
        <time>2012-03-18T11:08:46Z</time>
      </trkpt>
      <trkpt lat="45.90905" lon="5.88927">
        <ele>518</ele>
        <time>2012-03-18T11:08:52Z</time>
      </trkpt>
      <trkpt lat="45.90898" lon="5.88947">
        <ele>517</ele>
        <time>2012-03-18T11:08:58Z</time>
      </trkpt>
      <trkpt lat="45.9089" lon="5.88961">
        <ele>517</ele>
        <time>2012-03-18T11:09:03Z</time>
      </trkpt>
      <trkpt lat="45.90883" lon="5.88968">
        <ele>516</ele>
        <time>2012-03-18T11:09:08Z</time>
      </trkpt>
      <trkpt lat="45.90872" lon="5.88969">
        <ele>516</ele>
        <time>2012-03-18T11:09:13Z</time>
      </trkpt>
      <trkpt lat="45.9086" lon="5.88963">
        <ele>516</ele>
        <time>2012-03-18T11:09:17Z</time>
      </trkpt>
      <trkpt lat="45.90845" lon="5.88958">
        <ele>517</ele>
        <time>2012-03-18T11:09:22Z</time>
      </trkpt>
      <trkpt lat="45.90825" lon="5.8895">
        <ele>519</ele>
        <time>2012-03-18T11:09:28Z</time>
      </trkpt>
      <trkpt lat="45.90807" lon="5.88946">
        <ele>519</ele>
        <time>2012-03-18T11:09:33Z</time>
      </trkpt>
      <trkpt lat="45.90787" lon="5.88944">
        <ele>520</ele>
        <time>2012-03-18T11:09:39Z</time>
      </trkpt>
      <trkpt lat="45.90771" lon="5.88945">
        <ele>520</ele>
        <time>2012-03-18T11:09:44Z</time>
      </trkpt>
      <trkpt lat="45.90752" lon="5.88952">
        <ele>520</ele>
        <time>2012-03-18T11:09:50Z</time>
      </trkpt>
      <trkpt lat="45.90743" lon="5.88976">
        <ele>522</ele>
        <time>2012-03-18T11:09:56Z</time>
      </trkpt>
      <trkpt lat="45.90742" lon="5.88984">
        <ele>521</ele>
        <time>2012-03-18T11:09:58Z</time>
      </trkpt>
      <trkpt lat="45.90744" lon="5.89007">
        <ele>517</ele>
        <time>2012-03-18T11:10:04Z</time>
      </trkpt>
      <trkpt lat="45.90744" lon="5.89022">
        <ele>517</ele>
        <time>2012-03-18T11:10:08Z</time>
      </trkpt>
      <trkpt lat="45.90742" lon="5.89026">
        <ele>517</ele>
        <time>2012-03-18T11:10:09Z</time>
      </trkpt>
      <trkpt lat="45.90734" lon="5.89028">
        <ele>517</ele>
        <time>2012-03-18T11:10:13Z</time>
      </trkpt>
      <trkpt lat="45.90728" lon="5.89014">
        <ele>518</ele>
        <time>2012-03-18T11:10:18Z</time>
      </trkpt>
      <trkpt lat="45.90725" lon="5.89007">
        <ele>518</ele>
        <time>2012-03-18T11:10:20Z</time>
      </trkpt>
      <trkpt lat="45.90717" lon="5.88988">
        <ele>523</ele>
        <time>2012-03-18T11:10:27Z</time>
      </trkpt>
      <trkpt lat="45.9071" lon="5.88974">
        <ele>525</ele>
        <time>2012-03-18T11:10:32Z</time>
      </trkpt>
      <trkpt lat="45.90699" lon="5.8896">
        <ele>526</ele>
        <time>2012-03-18T11:10:39Z</time>
      </trkpt>
      <trkpt lat="45.90691" lon="5.88954">
        <ele>527</ele>
        <time>2012-03-18T11:10:43Z</time>
      </trkpt>
      <trkpt lat="45.90686" lon="5.88952">
        <ele>527</ele>
        <time>2012-03-18T11:10:47Z</time>
      </trkpt>
      <trkpt lat="45.90675" lon="5.88951">
        <ele>528</ele>
        <time>2012-03-18T11:10:53Z</time>
      </trkpt>
      <trkpt lat="45.90667" lon="5.88952">
        <ele>528</ele>
        <time>2012-03-18T11:10:58Z</time>
      </trkpt>
      <trkpt lat="45.90658" lon="5.88953">
        <ele>533</ele>
        <time>2012-03-18T11:11:04Z</time>
      </trkpt>
      <trkpt lat="45.90647" lon="5.88953">
        <ele>534</ele>
        <time>2012-03-18T11:11:10Z</time>
      </trkpt>
      <trkpt lat="45.90637" lon="5.88952">
        <ele>534</ele>
        <time>2012-03-18T11:11:16Z</time>
      </trkpt>
      <trkpt lat="45.90623" lon="5.88952">
        <ele>535</ele>
        <time>2012-03-18T11:11:23Z</time>
      </trkpt>
      <trkpt lat="45.90608" lon="5.88953">
        <ele>536</ele>
        <time>2012-03-18T11:11:31Z</time>
      </trkpt>
      <trkpt lat="45.90598" lon="5.88955">
        <ele>536</ele>
        <time>2012-03-18T11:11:36Z</time>
      </trkpt>
      <trkpt lat="45.90588" lon="5.88956">
        <ele>536</ele>
        <time>2012-03-18T11:11:41Z</time>
      </trkpt>
      <trkpt lat="45.90574" lon="5.8896">
        <ele>541</ele>
        <time>2012-03-18T11:11:48Z</time>
      </trkpt>
      <trkpt lat="45.90565" lon="5.88963">
        <ele>541</ele>
        <time>2012-03-18T11:11:53Z</time>
      </trkpt>
      <trkpt lat="45.90555" lon="5.88962">
        <ele>541</ele>
        <time>2012-03-18T11:11:58Z</time>
      </trkpt>
      <trkpt lat="45.90544" lon="5.88954">
        <ele>542</ele>
        <time>2012-03-18T11:12:04Z</time>
      </trkpt>
      <trkpt lat="45.90536" lon="5.88939">
        <ele>543</ele>
        <time>2012-03-18T11:12:10Z</time>
      </trkpt>
      <trkpt lat="45.90529" lon="5.88926">
        <ele>543</ele>
        <time>2012-03-18T11:12:15Z</time>
      </trkpt>
      <trkpt lat="45.90525" lon="5.88913">
        <ele>546</ele>
        <time>2012-03-18T11:12:19Z</time>
      </trkpt>
      <trkpt lat="45.90518" lon="5.88892">
        <ele>546</ele>
        <time>2012-03-18T11:12:25Z</time>
      </trkpt>
      <trkpt lat="45.90515" lon="5.88874">
        <ele>547</ele>
        <time>2012-03-18T11:12:30Z</time>
      </trkpt>
      <trkpt lat="45.90512" lon="5.88857">
        <ele>547</ele>
        <time>2012-03-18T11:12:35Z</time>
      </trkpt>
      <trkpt lat="45.90511" lon="5.88853">
        <ele>547</ele>
        <time>2012-03-18T11:12:36Z</time>
      </trkpt>
      <trkpt lat="45.90511" lon="5.88847">
        <ele>548</ele>
        <time>2012-03-18T11:12:38Z</time>
      </trkpt>
      <trkpt lat="45.90509" lon="5.88828">
        <ele>551</ele>
        <time>2012-03-18T11:12:44Z</time>
      </trkpt>
      <trkpt lat="45.90507" lon="5.88816">
        <ele>552</ele>
        <time>2012-03-18T11:12:48Z</time>
      </trkpt>
      <trkpt lat="45.90504" lon="5.88803">
        <ele>553</ele>
        <time>2012-03-18T11:12:53Z</time>
      </trkpt>
      <trkpt lat="45.90493" lon="5.88793">
        <ele>558</ele>
        <time>2012-03-18T11:12:59Z</time>
      </trkpt>
      <trkpt lat="45.90482" lon="5.88785">
        <ele>559</ele>
        <time>2012-03-18T11:13:05Z</time>
      </trkpt>
      <trkpt lat="45.90469" lon="5.8878">
        <ele>560</ele>
        <time>2012-03-18T11:13:11Z</time>
      </trkpt>
      <trkpt lat="45.90449" lon="5.88778">
        <ele>562</ele>
        <time>2012-03-18T11:13:18Z</time>
      </trkpt>
      <trkpt lat="45.90431" lon="5.88783">
        <ele>562</ele>
        <time>2012-03-18T11:13:24Z</time>
      </trkpt>
      <trkpt lat="45.90416" lon="5.88787">
        <ele>565</ele>
        <time>2012-03-18T11:13:29Z</time>
      </trkpt>
      <trkpt lat="45.904" lon="5.8879">
        <ele>564</ele>
        <time>2012-03-18T11:13:35Z</time>
      </trkpt>
      <trkpt lat="45.90387" lon="5.88792">
        <ele>564</ele>
        <time>2012-03-18T11:13:40Z</time>
      </trkpt>
      <trkpt lat="45.9037" lon="5.88796">
        <ele>564</ele>
        <time>2012-03-18T11:13:47Z</time>
      </trkpt>
      <trkpt lat="45.90355" lon="5.88798">
        <ele>563</ele>
        <time>2012-03-18T11:13:53Z</time>
      </trkpt>
      <trkpt lat="45.9034" lon="5.88803">
        <ele>562</ele>
        <time>2012-03-18T11:13:58Z</time>
      </trkpt>
      <trkpt lat="45.9032" lon="5.88808">
        <ele>564</ele>
        <time>2012-03-18T11:14:04Z</time>
      </trkpt>
      <trkpt lat="45.903" lon="5.88816">
        <ele>564</ele>
        <time>2012-03-18T11:14:10Z</time>
      </trkpt>
      <trkpt lat="45.90286" lon="5.88831">
        <ele>564</ele>
        <time>2012-03-18T11:14:15Z</time>
      </trkpt>
      <trkpt lat="45.90273" lon="5.88853">
        <ele>551</ele>
        <time>2012-03-18T11:14:20Z</time>
      </trkpt>
      <trkpt lat="45.90261" lon="5.88863">
        <ele>551</ele>
        <time>2012-03-18T11:14:25Z</time>
      </trkpt>
      <trkpt lat="45.90245" lon="5.88871">
        <ele>550</ele>
        <time>2012-03-18T11:14:29Z</time>
      </trkpt>
      <trkpt lat="45.90232" lon="5.88878">
        <ele>549</ele>
        <time>2012-03-18T11:14:33Z</time>
      </trkpt>
      <trkpt lat="45.9021" lon="5.88878">
        <ele>550</ele>
        <time>2012-03-18T11:14:39Z</time>
      </trkpt>
      <trkpt lat="45.90191" lon="5.88874">
        <ele>550</ele>
        <time>2012-03-18T11:14:45Z</time>
      </trkpt>
      <trkpt lat="45.90176" lon="5.8887">
        <ele>552</ele>
        <time>2012-03-18T11:14:50Z</time>
      </trkpt>
      <trkpt lat="45.90163" lon="5.88869">
        <ele>556</ele>
        <time>2012-03-18T11:14:54Z</time>
      </trkpt>
      <trkpt lat="45.90159" lon="5.8887">
        <ele>556</ele>
        <time>2012-03-18T11:14:55Z</time>
      </trkpt>
      <trkpt lat="45.90151" lon="5.88889">
        <ele>553</ele>
        <time>2012-03-18T11:15:00Z</time>
      </trkpt>
      <trkpt lat="45.90151" lon="5.88893">
        <ele>552</ele>
        <time>2012-03-18T11:15:01Z</time>
      </trkpt>
      <trkpt lat="45.9015" lon="5.88929">
        <ele>539</ele>
        <time>2012-03-18T11:15:08Z</time>
      </trkpt>
      <trkpt lat="45.90145" lon="5.88952">
        <ele>538</ele>
        <time>2012-03-18T11:15:13Z</time>
      </trkpt>
      <trkpt lat="45.90142" lon="5.88971">
        <ele>536</ele>
        <time>2012-03-18T11:15:17Z</time>
      </trkpt>
      <trkpt lat="45.90143" lon="5.89">
        <ele>534</ele>
        <time>2012-03-18T11:15:23Z</time>
      </trkpt>
      <trkpt lat="45.90147" lon="5.89022">
        <ele>529</ele>
        <time>2012-03-18T11:15:28Z</time>
      </trkpt>
      <trkpt lat="45.90152" lon="5.89053">
        <ele>528</ele>
        <time>2012-03-18T11:15:35Z</time>
      </trkpt>
      <trkpt lat="45.90156" lon="5.89074">
        <ele>527</ele>
        <time>2012-03-18T11:15:40Z</time>
      </trkpt>
      <trkpt lat="45.90155" lon="5.89091">
        <ele>524</ele>
        <time>2012-03-18T11:15:44Z</time>
      </trkpt>
      <trkpt lat="45.90147" lon="5.89109">
        <ele>522</ele>
        <time>2012-03-18T11:15:49Z</time>
      </trkpt>
      <trkpt lat="45.90134" lon="5.89119">
        <ele>521</ele>
        <time>2012-03-18T11:15:54Z</time>
      </trkpt>
      <trkpt lat="45.9012" lon="5.89122">
        <ele>520</ele>
        <time>2012-03-18T11:15:58Z</time>
      </trkpt>
      <trkpt lat="45.90105" lon="5.8912">
        <ele>520</ele>
        <time>2012-03-18T11:16:02Z</time>
      </trkpt>
      <trkpt lat="45.90092" lon="5.8912">
        <ele>520</ele>
        <time>2012-03-18T11:16:06Z</time>
      </trkpt>
      <trkpt lat="45.90073" lon="5.89122">
        <ele>519</ele>
        <time>2012-03-18T11:16:12Z</time>
      </trkpt>
      <trkpt lat="45.90058" lon="5.89125">
        <ele>519</ele>
        <time>2012-03-18T11:16:17Z</time>
      </trkpt>
      <trkpt lat="45.9004" lon="5.89138">
        <ele>519</ele>
        <time>2012-03-18T11:16:23Z</time>
      </trkpt>
      <trkpt lat="45.90029" lon="5.89145">
        <ele>518</ele>
        <time>2012-03-18T11:16:27Z</time>
      </trkpt>
      <trkpt lat="45.90006" lon="5.89157">
        <ele>517</ele>
        <time>2012-03-18T11:16:34Z</time>
      </trkpt>
      <trkpt lat="45.89992" lon="5.89171">
        <ele>515</ele>
        <time>2012-03-18T11:16:39Z</time>
      </trkpt>
      <trkpt lat="45.89983" lon="5.89192">
        <ele>514</ele>
        <time>2012-03-18T11:16:44Z</time>
      </trkpt>
      <trkpt lat="45.89975" lon="5.89208">
        <ele>513</ele>
        <time>2012-03-18T11:16:49Z</time>
      </trkpt>
      <trkpt lat="45.89963" lon="5.89221">
        <ele>512</ele>
        <time>2012-03-18T11:16:55Z</time>
      </trkpt>
      <trkpt lat="45.89952" lon="5.8923">
        <ele>512</ele>
        <time>2012-03-18T11:16:59Z</time>
      </trkpt>
      <trkpt lat="45.89943" lon="5.89248">
        <ele>511</ele>
        <time>2012-03-18T11:17:04Z</time>
      </trkpt>
      <trkpt lat="45.89933" lon="5.89264">
        <ele>502</ele>
        <time>2012-03-18T11:17:09Z</time>
      </trkpt>
      <trkpt lat="45.89922" lon="5.89284">
        <ele>500</ele>
        <time>2012-03-18T11:17:14Z</time>
      </trkpt>
      <trkpt lat="45.89912" lon="5.89303">
        <ele>502</ele>
        <time>2012-03-18T11:17:19Z</time>
      </trkpt>
      <trkpt lat="45.8991" lon="5.89317">
        <ele>500</ele>
        <time>2012-03-18T11:17:23Z</time>
      </trkpt>
      <trkpt lat="45.8992" lon="5.89329">
        <ele>495</ele>
        <time>2012-03-18T11:17:28Z</time>
      </trkpt>
      <trkpt lat="45.89935" lon="5.89332">
        <ele>496</ele>
        <time>2012-03-18T11:17:33Z</time>
      </trkpt>
      <trkpt lat="45.89935" lon="5.89345">
        <ele>491</ele>
        <time>2012-03-18T11:17:37Z</time>
      </trkpt>
      <trkpt lat="45.89923" lon="5.89364">
        <ele>490</ele>
        <time>2012-03-18T11:17:43Z</time>
      </trkpt>
      <trkpt lat="45.89927" lon="5.89391">
        <ele>489</ele>
        <time>2012-03-18T11:17:49Z</time>
      </trkpt>
      <trkpt lat="45.89929" lon="5.89409">
        <ele>489</ele>
        <time>2012-03-18T11:17:53Z</time>
      </trkpt>
      <trkpt lat="45.89927" lon="5.89437">
        <ele>486</ele>
        <time>2012-03-18T11:17:59Z</time>
      </trkpt>
      <trkpt lat="45.89925" lon="5.89466">
        <ele>485</ele>
        <time>2012-03-18T11:18:05Z</time>
      </trkpt>
      <trkpt lat="45.89922" lon="5.8949">
        <ele>486</ele>
        <time>2012-03-18T11:18:10Z</time>
      </trkpt>
      <trkpt lat="45.89921" lon="5.89509">
        <ele>485</ele>
        <time>2012-03-18T11:18:14Z</time>
      </trkpt>
      <trkpt lat="45.89916" lon="5.89534">
        <ele>489</ele>
        <time>2012-03-18T11:18:20Z</time>
      </trkpt>
      <trkpt lat="45.89912" lon="5.89556">
        <ele>488</ele>
        <time>2012-03-18T11:18:25Z</time>
      </trkpt>
      <trkpt lat="45.89909" lon="5.89583">
        <ele>484</ele>
        <time>2012-03-18T11:18:31Z</time>
      </trkpt>
      <trkpt lat="45.89904" lon="5.89614">
        <ele>487</ele>
        <time>2012-03-18T11:18:38Z</time>
      </trkpt>
      <trkpt lat="45.89897" lon="5.89635">
        <ele>487</ele>
        <time>2012-03-18T11:18:43Z</time>
      </trkpt>
      <trkpt lat="45.8989" lon="5.89658">
        <ele>487</ele>
        <time>2012-03-18T11:18:49Z</time>
      </trkpt>
      <trkpt lat="45.89884" lon="5.89679">
        <ele>485</ele>
        <time>2012-03-18T11:18:54Z</time>
      </trkpt>
      <trkpt lat="45.89878" lon="5.89697">
        <ele>485</ele>
        <time>2012-03-18T11:18:59Z</time>
      </trkpt>
      <trkpt lat="45.89874" lon="5.897">
        <ele>485</ele>
        <time>2012-03-18T11:19:01Z</time>
      </trkpt>
      <trkpt lat="45.89866" lon="5.89695">
        <ele>486</ele>
        <time>2012-03-18T11:19:06Z</time>
      </trkpt>
      <trkpt lat="45.8986" lon="5.8969">
        <ele>487</ele>
        <time>2012-03-18T11:19:10Z</time>
      </trkpt>
      <trkpt lat="45.89855" lon="5.89684">
        <ele>488</ele>
        <time>2012-03-18T11:19:15Z</time>
      </trkpt>
      <trkpt lat="45.89849" lon="5.89673">
        <ele>490</ele>
        <time>2012-03-18T11:19:24Z</time>
      </trkpt>
      <trkpt lat="45.89839" lon="5.89665">
        <ele>494</ele>
        <time>2012-03-18T11:19:33Z</time>
      </trkpt>
      <trkpt lat="45.89831" lon="5.89662">
        <ele>496</ele>
        <time>2012-03-18T11:19:40Z</time>
      </trkpt>
      <trkpt lat="45.89821" lon="5.89658">
        <ele>498</ele>
        <time>2012-03-18T11:19:48Z</time>
      </trkpt>
      <trkpt lat="45.89815" lon="5.89656">
        <ele>499</ele>
        <time>2012-03-18T11:19:53Z</time>
      </trkpt>
      <trkpt lat="45.89805" lon="5.89652">
        <ele>500</ele>
        <time>2012-03-18T11:20:00Z</time>
      </trkpt>
      <trkpt lat="45.89789" lon="5.89651">
        <ele>501</ele>
        <time>2012-03-18T11:20:07Z</time>
      </trkpt>
      <trkpt lat="45.89778" lon="5.89649">
        <ele>502</ele>
        <time>2012-03-18T11:20:12Z</time>
      </trkpt>
      <trkpt lat="45.89766" lon="5.89648">
        <ele>503</ele>
        <time>2012-03-18T11:20:18Z</time>
      </trkpt>
      <trkpt lat="45.89757" lon="5.89648">
        <ele>504</ele>
        <time>2012-03-18T11:20:23Z</time>
      </trkpt>
      <trkpt lat="45.89743" lon="5.89645">
        <ele>507</ele>
        <time>2012-03-18T11:20:30Z</time>
      </trkpt>
      <trkpt lat="45.89734" lon="5.89644">
        <ele>508</ele>
        <time>2012-03-18T11:20:35Z</time>
      </trkpt>
      <trkpt lat="45.89721" lon="5.89644">
        <ele>508</ele>
        <time>2012-03-18T11:20:41Z</time>
      </trkpt>
      <trkpt lat="45.89707" lon="5.8964">
        <ele>508</ele>
        <time>2012-03-18T11:20:47Z</time>
      </trkpt>
      <trkpt lat="45.89696" lon="5.89638">
        <ele>509</ele>
        <time>2012-03-18T11:20:52Z</time>
      </trkpt>
      <trkpt lat="45.89682" lon="5.89635">
        <ele>509</ele>
        <time>2012-03-18T11:20:59Z</time>
      </trkpt>
      <trkpt lat="45.89671" lon="5.89634">
        <ele>509</ele>
        <time>2012-03-18T11:21:04Z</time>
      </trkpt>
      <trkpt lat="45.89658" lon="5.89634">
        <ele>511</ele>
        <time>2012-03-18T11:21:10Z</time>
      </trkpt>
      <trkpt lat="45.89641" lon="5.89632">
        <ele>511</ele>
        <time>2012-03-18T11:21:17Z</time>
      </trkpt>
      <trkpt lat="45.89628" lon="5.89631">
        <ele>511</ele>
        <time>2012-03-18T11:21:22Z</time>
      </trkpt>
      <trkpt lat="45.89614" lon="5.8963">
        <ele>511</ele>
        <time>2012-03-18T11:21:27Z</time>
      </trkpt>
      <trkpt lat="45.89601" lon="5.89629">
        <ele>511</ele>
        <time>2012-03-18T11:21:32Z</time>
      </trkpt>
      <trkpt lat="45.89585" lon="5.89628">
        <ele>511</ele>
        <time>2012-03-18T11:21:38Z</time>
      </trkpt>
      <trkpt lat="45.89563" lon="5.89626">
        <ele>510</ele>
        <time>2012-03-18T11:21:46Z</time>
      </trkpt>
      <trkpt lat="45.89546" lon="5.8962">
        <ele>510</ele>
        <time>2012-03-18T11:21:52Z</time>
      </trkpt>
      <trkpt lat="45.89533" lon="5.8961">
        <ele>510</ele>
        <time>2012-03-18T11:21:57Z</time>
      </trkpt>
      <trkpt lat="45.89523" lon="5.89593">
        <ele>511</ele>
        <time>2012-03-18T11:22:02Z</time>
      </trkpt>
      <trkpt lat="45.89518" lon="5.89576">
        <ele>514</ele>
        <time>2012-03-18T11:22:06Z</time>
      </trkpt>
      <trkpt lat="45.89516" lon="5.8956">
        <ele>514</ele>
        <time>2012-03-18T11:22:10Z</time>
      </trkpt>
      <trkpt lat="45.89511" lon="5.89541">
        <ele>514</ele>
        <time>2012-03-18T11:22:15Z</time>
      </trkpt>
      <trkpt lat="45.89503" lon="5.89527">
        <ele>515</ele>
        <time>2012-03-18T11:22:20Z</time>
      </trkpt>
    </trkseg>
  </trk>
</gpx>